Provisional Data: Lackawanna River near Forest City, PA


Please select a monitoring station.
Please select start date.
Please select start date.

Toggle Unit: C/F Toggle Unit: C/F
Sample Time Temperature (C) Temperature (F) Specific Conductivity (mS/cm) pH   Turbidity (NTU+) DO (mg/L)
1/24/2024 12:00:00 AM 0.26 32.468 0.069 6.09 5.35 13.47
1/24/2024 12:15:00 AM 0.26 32.468 0.069 6.12 5.1 13.47
1/24/2024 12:30:00 AM 0.27 32.486 0.069 6.18 5.11 13.47
1/24/2024 12:45:00 AM 0.27 32.486 0.069 6.11 4.99 13.47
1/24/2024 1:00:00 AM 0.27 32.486 0.069 6.17 5.11 13.46
1/24/2024 1:15:00 AM 0.27 32.486 0.069 6.16 5.11 13.47
1/24/2024 1:30:00 AM 0.27 32.486 0.069 6.17 4.77 13.46
1/24/2024 1:45:00 AM 0.28 32.504 0.069 6.17 4.84 13.46
1/24/2024 2:00:00 AM 0.28 32.504 0.069 6.06 5.25 13.46
1/24/2024 2:15:00 AM 0.28 32.504 0.069 6.17 5.03 13.45
1/24/2024 2:30:00 AM 0.28 32.504 0.069 6.13 5.43 13.43
1/24/2024 2:45:00 AM 0.29 32.522 0.069 6.17 5.19 13.44
1/24/2024 3:00:00 AM 0.28 32.504 0.069 6.13 5.02 13.45
1/24/2024 3:15:00 AM 0.28 32.504 0.069 6.17 4.89 13.45
1/24/2024 3:30:00 AM 0.29 32.522 0.069 6.08 5.06 13.43
1/24/2024 3:45:00 AM 0.29 32.522 0.069 6.17 5.6 13.43
1/24/2024 4:00:00 AM 0.29 32.522 0.069 6.07 4.92 13.44
1/24/2024 4:15:00 AM 0.28 32.504 0.069 6.15 5.26 13.44
1/24/2024 4:30:00 AM 0.29 32.522 0.069 6.11 4.64 13.43
1/24/2024 4:45:00 AM 0.29 32.522 0.069 6.13 4.67 13.43
1/24/2024 5:00:00 AM 0.29 32.522 0.069 6.13 4.57 13.43
1/24/2024 5:15:00 AM 0.29 32.522 0.069 6.17 4.54 13.43
1/24/2024 5:30:00 AM 0.3 32.54 0.069 6.07 4.71 13.42
1/24/2024 5:45:00 AM 0.29 32.522 0.069 6.17 4.8 13.41
1/24/2024 6:00:00 AM 0.3 32.54 0.069 6.17 4.76 13.4
1/24/2024 6:15:00 AM 0.3 32.54 0.069 6.12 4.61 13.4
1/24/2024 6:30:00 AM 0.31 32.558 0.069 6.17 4.53 13.4
1/24/2024 6:45:00 AM 0.3 32.54 0.069 6.07 4.44 13.4
1/24/2024 7:00:00 AM 0.3 32.54 0.069 6.12 4.38 13.39
1/24/2024 7:15:00 AM 0.31 32.558 0.069 6.17 4.27 13.4
1/24/2024 7:30:00 AM 0.31 32.558 0.069 6.16 4.22 13.39
1/24/2024 7:45:00 AM 0.31 32.558 0.069 6.1 4.02 13.4
1/24/2024 8:00:00 AM 0.31 32.558 0.069 6.16 4.04 13.4
1/24/2024 8:15:00 AM 0.31 32.558 0.069 6.09 4.09 13.39
1/24/2024 8:30:00 AM 0.32 32.576 0.069 6.17 4.08 13.39
1/24/2024 8:45:00 AM 0.32 32.576 0.069 6.1 4.11 13.4
1/24/2024 9:00:00 AM 0.33 32.594 0.069 6.17 3.92 13.41
1/24/2024 9:15:00 AM 0.33 32.594 0.069 6.17 3.99 13.42
1/24/2024 9:30:00 AM 0.33 32.594 0.069 6.07 3.94 13.43
1/24/2024 9:45:00 AM 0.34 32.612 0.069 6.13 3.96 13.44
1/24/2024 10:00:00 AM 0.35 32.63 0.069 6.17 3.82 13.44
1/24/2024 10:15:00 AM 0.36 32.648 0.069 6.12 3.83 13.45
1/24/2024 10:30:00 AM 0.37 32.666 0.069 6.13 3.91 13.48
1/24/2024 10:45:00 AM 0.38 32.684 0.069 6.14 3.91 13.49
1/24/2024 11:00:00 AM 0.39 32.702 0.069 6.18 3.91 13.5
1/24/2024 11:15:00 AM 0.41 32.738 0.069 6.17 3.77 13.53
1/24/2024 11:30:00 AM 0.44 32.792 0.069 6.19 3.81 13.55
1/24/2024 11:45:00 AM 0.46 32.828 0.069 6.2 3.86 13.56
1/24/2024 12:00:00 PM 0.48 32.864 0.069 6.09 3.85 13.58
1/24/2024 12:15:00 PM 0.49 32.882 0.069 6.21 3.83 13.6
1/24/2024 12:30:00 PM 0.5 32.9 0.069 6.22 3.9 13.62
1/24/2024 12:45:00 PM 0.55 32.99 0.069 6.11 3.88 13.64
1/24/2024 1:00:00 PM 0.57 33.026 0.069 6.23 3.75 13.67
1/24/2024 1:15:00 PM 0.59 33.062 0.069 6.22 3.77 13.67
1/24/2024 1:30:00 PM 0.59 33.062 0.069 6.16 3.8 13.67
1/24/2024 1:45:00 PM 0.6 33.08 0.069 6.14 3.81 13.69
1/24/2024 2:00:00 PM 0.61 33.098 0.069 6.23 4 13.71
1/24/2024 2:15:00 PM 0.63 33.134 0.069 6.14 3.86 13.7
1/24/2024 2:30:00 PM 0.65 33.17 0.069 6.18 3.87 13.71
1/24/2024 2:45:00 PM 0.64 33.152 0.069 6.24 3.86 13.73
1/24/2024 3:00:00 PM 0.64 33.152 0.069 6.13 3.76 13.74
1/24/2024 3:15:00 PM 0.63 33.134 0.069 6.24 3.8 13.76
1/24/2024 3:30:00 PM 0.63 33.134 0.069 6.22 3.73 13.77
1/24/2024 3:45:00 PM 0.63 33.134 0.069 6.24 3.81 13.78
1/24/2024 4:00:00 PM 0.64 33.152 0.069 6.22 3.73 13.78
1/24/2024 4:15:00 PM 0.64 33.152 0.069 6.22 3.76 13.79
1/24/2024 4:30:00 PM 0.64 33.152 0.069 6.21 3.82 13.8
1/24/2024 4:45:00 PM 0.64 33.152 0.069 6.24 3.8 13.8
1/24/2024 5:00:00 PM 0.64 33.152 0.069 6.24 3.75 13.8
1/24/2024 5:15:00 PM 0.63 33.134 0.069 6.19 3.78 13.79
1/24/2024 5:30:00 PM 0.62 33.116 0.069 6.24 3.79 13.78
1/24/2024 5:45:00 PM 0.61 33.098 0.069 6.18 3.81 13.77
1/24/2024 6:00:00 PM 0.6 33.08 0.069 6.18 3.85 13.74
1/24/2024 6:15:00 PM 0.59 33.062 0.069 6.19 3.89 13.74
1/24/2024 6:30:00 PM 0.58 33.044 0.069 6.19 3.9 13.71
1/24/2024 6:45:00 PM 0.57 33.026 0.069 6.19 3.9 13.7
1/24/2024 7:00:00 PM 0.57 33.026 0.069 6.19 4.02 13.69
1/24/2024 7:15:00 PM 0.57 33.026 0.069 6.18 4.01 13.67
1/24/2024 7:30:00 PM 0.55 32.99 0.069 6.23 4.16 13.67
1/24/2024 7:45:00 PM 0.55 32.99 0.069 6.21 4.07 13.64
1/24/2024 8:00:00 PM 0.56 33.008 0.069 6.22 4.09 13.62
1/24/2024 8:15:00 PM 0.55 32.99 0.069 6.16 4.37 13.61
1/24/2024 8:30:00 PM 0.55 32.99 0.069 6.15 4.48 13.6
1/24/2024 8:45:00 PM 0.54 32.972 0.069 6.21 4.43 13.59
1/24/2024 9:00:00 PM 0.54 32.972 0.069 6.15 4.42 13.57
1/24/2024 9:15:00 PM 0.53 32.954 0.069 6.17 4.36 13.55
1/24/2024 9:30:00 PM 0.53 32.954 0.07 6.21 4.47 13.54
1/24/2024 9:45:00 PM 0.53 32.954 0.07 6.19 4.78 13.51
1/24/2024 10:00:00 PM 0.53 32.954 0.071 6.12 5.08 13.49
1/24/2024 10:15:00 PM 0.52 32.936 0.071 6.2 5.18 13.47
1/24/2024 10:30:00 PM 0.52 32.936 0.071 6.17 5.16 13.45
1/24/2024 10:45:00 PM 0.53 32.954 0.072 6.19 5.2 13.43
1/24/2024 11:00:00 PM 0.53 32.954 0.072 6.09 5.17 13.41
1/24/2024 11:15:00 PM 0.53 32.954 0.073 6.18 5.25 13.39
1/24/2024 11:30:00 PM 0.53 32.954 0.074 6.18 5.24 13.38
1/24/2024 11:45:00 PM 0.54 32.972 0.075 6.08 5.05 13.35
1/25/2024 12:00:00 AM 0.54 32.972 0.075 6.13 5.05 13.34
1/25/2024 12:15:00 AM 0.54 32.972 0.075 6.17 5.13 13.33
1/25/2024 12:30:00 AM 0.54 32.972 0.076 6.16 5.27 13.31
1/25/2024 12:45:00 AM 0.53 32.954 0.076 6.06 5.24 13.3
1/25/2024 1:00:00 AM 0.52 32.936 0.077 6.15 5.31 13.29
1/25/2024 1:15:00 AM 0.52 32.936 0.077 6.12 5.52 13.27
1/25/2024 1:30:00 AM 0.52 32.936 0.078 6.15 5.75 13.25
1/25/2024 1:45:00 AM 0.52 32.936 0.078 6.06 5.38 13.25
1/25/2024 2:00:00 AM 0.52 32.936 0.078 6.11 5.24 13.24
1/25/2024 2:15:00 AM 0.52 32.936 0.079 6.15 5.51 13.23
1/25/2024 2:30:00 AM 0.52 32.936 0.079 6.14 5.37 13.21
1/25/2024 2:45:00 AM 0.54 32.972 0.079 6.1 5.56 13.23
1/25/2024 3:00:00 AM 0.55 32.99 0.079 6.14 5.63 13.22
1/25/2024 3:15:00 AM 0.56 33.008 0.079 6.12 5.64 13.21
1/25/2024 3:30:00 AM 0.56 33.008 0.079 6.06 5.54 13.2
1/25/2024 3:45:00 AM 0.57 33.026 0.079 6.14 5.78 13.21
1/25/2024 4:00:00 AM 0.57 33.026 0.08 6.05 5.85 13.2
1/25/2024 4:15:00 AM 0.58 33.044 0.079 6.1 5.73 13.19
1/25/2024 4:30:00 AM 0.57 33.026 0.079 6.15 5.59 13.2
1/25/2024 4:45:00 AM 0.56 33.008 0.078 6.15 5.48 13.23
1/25/2024 5:00:00 AM 0.56 33.008 0.078 6.12 5.68 13.22
1/25/2024 5:15:00 AM 0.54 32.972 0.078 6.04 5.9 13.23
1/25/2024 5:30:00 AM 0.53 32.954 0.077 6.14 6.01 13.24
1/25/2024 5:45:00 AM 0.52 32.936 0.078 6.13 6.26 13.25
1/25/2024 6:00:00 AM 0.51 32.918 0.078 6.12 6.46 13.25
1/25/2024 6:15:00 AM 0.51 32.918 0.077 6.12 6.74 13.24
1/25/2024 6:30:00 AM 0.49 32.882 0.078 6.12 7.09 13.25
1/25/2024 6:45:00 AM 0.48 32.864 0.077 5.98 7.1 13.26
1/25/2024 7:00:00 AM 0.47 32.846 0.076 6.11 7.22 13.26
1/25/2024 7:15:00 AM 0.47 32.846 0.077 6.1 6.99 13.26
1/25/2024 7:30:00 AM 0.45 32.81 0.076 6.09 7.57 13.27
1/25/2024 7:45:00 AM 0.44 32.792 0.076 5.98 7.35 13.3
1/25/2024 8:00:00 AM 0.43 32.774 0.075 6.1 7.75 13.3
1/25/2024 8:15:00 AM 0.42 32.756 0.075 5.99 7.81 13.31
1/25/2024 8:30:00 AM 0.42 32.756 0.075 6.04 7.77 13.31
1/25/2024 8:45:00 AM 0.42 32.756 0.075 6.05 7.86 13.34
1/25/2024 9:00:00 AM 0.42 32.756 0.075 6.05 8.2 13.35
1/25/2024 9:15:00 AM 0.42 32.756 0.074 6.09 7.99 13.36
1/25/2024 9:30:00 AM 0.43 32.774 0.074 6.08 8.46 13.37
1/25/2024 9:45:00 AM 0.45 32.81 0.074 6.09 8.24 13.39
1/25/2024 10:00:00 AM 0.47 32.846 0.073 5.97 7.81 13.4
1/25/2024 10:15:00 AM 0.5 32.9 0.074 6.08 7.8 13.41
1/25/2024 10:30:00 AM 0.53 32.954 0.074 6.05 7.11 13.41
1/25/2024 10:45:00 AM 0.57 33.026 0.075 6.11 7.35 13.41
1/25/2024 11:00:00 AM 0.59 33.062 0.076 6.01 6.94 13.4
1/25/2024 11:15:00 AM 0.63 33.134 0.077 6.06 6.59 13.36
1/25/2024 11:30:00 AM 0.66 33.188 0.078 6.11 6.28 13.35
1/25/2024 11:45:00 AM 0.69 33.242 0.079 6.09 6 13.33
1/25/2024 12:00:00 PM 0.71 33.278 0.078 6 6.47 13.35
1/25/2024 12:15:00 PM 0.74 33.332 0.079 6.09 6.18 13.33
1/25/2024 12:30:00 PM 0.79 33.422 0.079 6.08 6.22 13.34
1/25/2024 12:45:00 PM 0.82 33.476 0.079 6.06 6.22 13.34
1/25/2024 1:00:00 PM 0.86 33.548 0.08 6.09 6.47 13.34
1/25/2024 1:15:00 PM 0.9 33.62 0.08 6.03 6.58 13.35
1/25/2024 1:30:00 PM 0.93 33.674 0.08 6.06 7.31 13.33
1/25/2024 1:45:00 PM 0.97 33.746 0.08 6.1 6.93 13.3
1/25/2024 2:00:00 PM 0.99 33.782 0.081 6 7.12 13.29
1/25/2024 2:15:00 PM 1.01 33.818 0.079 6.06 7.28 13.32
1/25/2024 2:30:00 PM 1 33.8 0.079 6.09 7.85 13.31
1/25/2024 2:45:00 PM 1 33.8 0.078 6.1 8.06 13.34
1/25/2024 3:00:00 PM 0.99 33.782 0.077 6.04 7.59 13.39
1/25/2024 3:15:00 PM 0.95 33.71 0.076 6.08 7.88 13.44
1/25/2024 3:30:00 PM 0.92 33.656 0.075 6.12 8.34 13.49
1/25/2024 3:45:00 PM 0.89 33.602 0.074 6.09 7.9 13.53
1/25/2024 4:00:00 PM 0.87 33.566 0.075 6.06 7.71 13.58
1/25/2024 4:15:00 PM 0.84 33.512 0.074 6.09 7.64 13.65
1/25/2024 4:30:00 PM 0.81 33.458 0.073 6.15 7.46 13.69
1/25/2024 4:45:00 PM 0.76 33.368 0.072 6.06 7.64 13.74
1/25/2024 5:00:00 PM 0.73 33.314 0.072 6.16 7.79 13.77
1/25/2024 5:15:00 PM 0.68 33.224 0.072 6.15 7.35 13.82
1/25/2024 5:30:00 PM 0.64 33.152 0.072 6.14 7.76 13.85
1/25/2024 5:45:00 PM 0.6 33.08 0.072 6.14 7.8 13.87
1/25/2024 6:00:00 PM 0.57 33.026 0.072 6.13 7.49 13.88
1/25/2024 6:15:00 PM 0.54 32.972 0.071 5.99 7.3 13.9
1/25/2024 6:30:00 PM 0.53 32.954 0.071 6.11 7.62 13.91
1/25/2024 6:45:00 PM 0.5 32.9 0.071 6.07 7.64 13.91
1/25/2024 7:00:00 PM 0.49 32.882 0.071 6.1 7.92 13.92
1/25/2024 7:15:00 PM 0.47 32.846 0.07 6.05 8.01 13.93
1/25/2024 7:30:00 PM 0.46 32.828 0.07 6.12 8.52 13.92
1/25/2024 7:45:00 PM 0.44 32.792 0.07 6.03 7.92 13.92
1/25/2024 8:00:00 PM 0.43 32.774 0.07 6.06 8.28 13.91
1/25/2024 8:15:00 PM 0.42 32.756 0.07 6.1 8.17 13.92
1/25/2024 8:30:00 PM 0.41 32.738 0.07 6.11 8.47 13.92
1/25/2024 8:45:00 PM 0.4 32.72 0.07 6.08 8.28 13.92
1/25/2024 9:00:00 PM 0.4 32.72 0.07 6.12 8.44 13.91
1/25/2024 9:15:00 PM 0.4 32.72 0.07 6 8.78 13.9
1/25/2024 9:30:00 PM 0.41 32.738 0.07 6.07 8.57 13.91
1/25/2024 9:45:00 PM 0.41 32.738 0.07 6.07 8.85 13.9
1/25/2024 10:00:00 PM 0.41 32.738 0.07 6.08 8.83 13.9
1/25/2024 10:15:00 PM 0.42 32.756 0.07 6.12 9.21 13.9
1/25/2024 10:30:00 PM 0.43 32.774 0.071 6.07 9.2 13.89
1/25/2024 10:45:00 PM 0.44 32.792 0.071 6.07 9.09 13.89
1/25/2024 11:00:00 PM 0.46 32.828 0.071 6.09 9.46 13.88
1/25/2024 11:15:00 PM 0.48 32.864 0.071 6.11 9.06 13.87
1/25/2024 11:30:00 PM 0.48 32.864 0.071 6.04 9.02 13.88
1/25/2024 11:45:00 PM 0.48 32.864 0.072 6.13 9.11 13.87
1/26/2024 12:00:00 AM 0.49 32.882 0.072 6.03 8.92 13.88
1/26/2024 12:15:00 AM 0.5 32.9 0.072 6.1 8.52 13.87
1/26/2024 12:30:00 AM 0.51 32.918 0.072 6.07 8.76 13.87
1/26/2024 12:45:00 AM 0.51 32.918 0.072 6.14 8.68 13.86
1/26/2024 1:00:00 AM 0.53 32.954 0.072 6.14 8.55 13.87
1/26/2024 1:15:00 AM 0.55 32.99 0.072 6.08 9 13.87
1/26/2024 1:30:00 AM 0.56 33.008 0.072 6.11 8.78 13.87
1/26/2024 1:45:00 AM 0.58 33.044 0.072 6.15 8.93 13.86
1/26/2024 2:00:00 AM 0.57 33.026 0.072 6.15 8.61 13.86
1/26/2024 2:15:00 AM 0.57 33.026 0.072 6.07 8.84 13.85
1/26/2024 2:30:00 AM 0.58 33.044 0.072 6.14 8.29 13.85
1/26/2024 2:45:00 AM 0.59 33.062 0.072 6.15 9.11 13.83
1/26/2024 3:00:00 AM 0.62 33.116 0.072 6.12 9.1 13.83
1/26/2024 3:15:00 AM 0.62 33.116 0.072 6.09 9.03 13.82
1/26/2024 3:30:00 AM 0.63 33.134 0.072 6.14 8.95 13.83
1/26/2024 3:45:00 AM 0.62 33.116 0.073 6.09 8.65 13.78
1/26/2024 4:00:00 AM 0.63 33.134 0.073 6.14 9.01 13.8
1/26/2024 4:15:00 AM 0.64 33.152 0.073 6.07 8.68 13.78
1/26/2024 4:30:00 AM 0.63 33.134 0.073 6.13 8.83 13.79
1/26/2024 4:45:00 AM 0.63 33.134 0.073 6.09 8.85 13.78
1/26/2024 5:00:00 AM 0.64 33.152 0.074 6.1 8.64 13.77
1/26/2024 5:15:00 AM 0.63 33.134 0.074 6.1 8.66 13.79
1/26/2024 5:30:00 AM 0.62 33.116 0.074 6.12 8.84 13.78
1/26/2024 5:45:00 AM 0.62 33.116 0.074 6.14 9 13.77
1/26/2024 6:00:00 AM 0.63 33.134 0.074 6.14 9.28 13.75
1/26/2024 6:15:00 AM 0.62 33.116 0.074 6.04 9.31 13.76
1/26/2024 6:30:00 AM 0.61 33.098 0.075 6.1 9.18 13.76
1/26/2024 6:45:00 AM 0.59 33.062 0.075 6.13 9.32 13.76
1/26/2024 7:00:00 AM 0.6 33.08 0.076 6.04 8.95 13.76
1/26/2024 7:15:00 AM 0.59 33.062 0.075 6.09 9.05 13.77
1/26/2024 7:30:00 AM 0.58 33.044 0.075 6.09 8.8 13.79
1/26/2024 7:45:00 AM 0.56 33.008 0.075 6.14 8.9 13.79
1/26/2024 8:00:00 AM 0.56 33.008 0.074 6.07 8.58 13.79
1/26/2024 8:15:00 AM 0.56 33.008 0.075 6.13 8.78 13.78
1/26/2024 8:30:00 AM 0.56 33.008 0.075 6.02 8.62 13.77
1/26/2024 8:45:00 AM 0.57 33.026 0.076 6.05 8.08 13.75
1/26/2024 9:00:00 AM 0.58 33.044 0.076 6.09 8.46 13.73
1/26/2024 9:15:00 AM 0.59 33.062 0.076 6.13 7.95 13.73
1/26/2024 9:30:00 AM 0.62 33.116 0.076 6.06 8.37 13.72
1/26/2024 9:45:00 AM 0.62 33.116 0.076 6.09 7.89 13.72
1/26/2024 10:00:00 AM 0.65 33.17 0.076 6.1 7.94 13.69
1/26/2024 10:15:00 AM 0.67 33.206 0.076 6.1 8.08 13.68
1/26/2024 10:30:00 AM 0.69 33.242 0.077 6.11 8.28 13.63
1/26/2024 10:45:00 AM 0.71 33.278 0.078 6.12 8 13.62
1/26/2024 11:00:00 AM 0.76 33.368 0.078 6.06 7.46 13.61
1/26/2024 11:15:00 AM 0.77 33.386 0.079 6.1 7.49 13.61
1/26/2024 11:30:00 AM 0.82 33.476 0.079 6.08 7.65 13.58
1/26/2024 11:45:00 AM 0.85 33.53 0.079 6.14 7.82 13.57
1/26/2024 12:00:00 PM 0.89 33.602 0.079 6.05 7.96 13.57
1/26/2024 12:15:00 PM 0.94 33.692 0.078 6.13 7.62 13.56
1/26/2024 12:30:00 PM 0.96 33.728 0.078 6.14 7.18 13.56
1/26/2024 12:45:00 PM 1 33.8 0.079 6.12 7.52 13.56
1/26/2024 1:00:00 PM 1.03 33.854 0.078 6.17 7.34 13.58
1/26/2024 1:15:00 PM 1.06 33.908 0.077 6.17 7.58 13.6
1/26/2024 1:30:00 PM 1.09 33.962 0.077 6.18 7.6 13.63
1/26/2024 1:45:00 PM 1.11 33.998 0.076 6.09 7.62 13.65
1/26/2024 2:00:00 PM 1.14 34.052 0.076 6.19 7.47 13.68
1/26/2024 2:15:00 PM 1.14 34.052 0.075 6.19 8.09 13.69
1/26/2024 2:30:00 PM 1.14 34.052 0.075 6.19 7.95 13.72
1/26/2024 2:45:00 PM 1.14 34.052 0.074 6.08 8.16 13.78
1/26/2024 3:00:00 PM 1.14 34.052 0.073 6.15 8.25 13.8
1/26/2024 3:15:00 PM 1.12 34.016 0.073 6.16 8.44 13.84
1/26/2024 3:30:00 PM 1.07 33.926 0.072 6.16 8.86 13.92
1/26/2024 3:45:00 PM 1.02 33.836 0.071 6.14 9.17 14.01
1/26/2024 4:00:00 PM 0.98 33.764 0.07 6.13 9.74 14.06
1/26/2024 4:15:00 PM 0.93 33.674 0.07 6.17 9.84 14.09
1/26/2024 4:30:00 PM 0.91 33.638 0.069 6.07 9.53 14.11
1/26/2024 4:45:00 PM 0.87 33.566 0.069 6.15 9.51 14.15
1/26/2024 5:00:00 PM 0.83 33.494 0.068 6.04 9.21 14.15
1/26/2024 5:15:00 PM 0.79 33.422 0.068 6.07 8.71 14.16
1/26/2024 5:30:00 PM 0.77 33.386 0.068 6.07 8.93 14.16
1/26/2024 5:45:00 PM 0.74 33.332 0.068 6.06 8.89 14.16
1/26/2024 6:00:00 PM 0.72 33.296 0.068 6.08 9.06 14.15
1/26/2024 6:15:00 PM 0.7 33.26 0.067 6.09 8.84 14.16
1/26/2024 6:30:00 PM 0.69 33.242 0.067 6.08 8.59 14.15
1/26/2024 6:45:00 PM 0.68 33.224 0.067 5.99 9.08 14.15
1/26/2024 7:00:00 PM 0.68 33.224 0.067 6.08 8.46 14.13
1/26/2024 7:15:00 PM 0.67 33.206 0.067 6.09 8.64 14.12
1/26/2024 7:30:00 PM 0.66 33.188 0.067 6.06 8.6 14.11
1/26/2024 7:45:00 PM 0.68 33.224 0.067 6 8.5 14.09
1/26/2024 8:00:00 PM 0.67 33.206 0.067 6.02 8.69 14.09
1/26/2024 8:15:00 PM 0.67 33.206 0.067 6.05 8.45 14.09
1/26/2024 8:30:00 PM 0.67 33.206 0.067 6.04 8.26 14.07
1/26/2024 8:45:00 PM 0.67 33.206 0.067 6.09 8.6 14.07
1/26/2024 9:00:00 PM 0.68 33.224 0.067 6.07 8.55 14.06
1/26/2024 9:15:00 PM 0.68 33.224 0.067 6.07 8.85 14.05
1/26/2024 9:30:00 PM 0.68 33.224 0.067 6 8.39 14.07
1/26/2024 9:45:00 PM 0.68 33.224 0.067 6.09 8.47 14.06
1/26/2024 10:00:00 PM 0.67 33.206 0.066 6.09 8.43 14.06
1/26/2024 10:15:00 PM 0.67 33.206 0.067 6.09 8.84 14.06
1/26/2024 10:30:00 PM 0.67 33.206 0.067 5.97 7.96 14.06
1/26/2024 10:45:00 PM 0.66 33.188 0.067 6.04 8.5 14.06
1/26/2024 11:00:00 PM 0.66 33.188 0.067 6.09 8.47 14.07
1/26/2024 11:15:00 PM 0.66 33.188 0.066 6.09 8.03 14.06
1/26/2024 11:30:00 PM 0.65 33.17 0.066 6.09 7.97 14.06
1/26/2024 11:45:00 PM 0.65 33.17 0.067 6.09 8.03 14.04
1/27/2024 12:00:00 AM 0.62 33.116 0.067 5.96 8.11 14.04
1/27/2024 12:15:00 AM 0.65 33.17 0.067 6.08 8.23 14.05
1/27/2024 12:30:00 AM 0.65 33.17 0.067 6.01 8.89 14.04
1/27/2024 12:45:00 AM 0.65 33.17 0.066 6.1 8.36 14.05
1/27/2024 1:00:00 AM 0.65 33.17 0.067 6.06 8.7 14.03
1/27/2024 1:15:00 AM 0.64 33.152 0.066 6.04 8.32 14.04
1/27/2024 1:30:00 AM 0.64 33.152 0.066 6.05 8.43 14.05
1/27/2024 1:45:00 AM 0.63 33.134 0.066 6.09 8.11 14.04
1/27/2024 2:00:00 AM 0.64 33.152 0.066 6.02 8.54 14.05
1/27/2024 2:15:00 AM 0.63 33.134 0.066 6.05 8.23 14.06
1/27/2024 2:30:00 AM 0.63 33.134 0.066 6.05 8.36 14.05
1/27/2024 2:45:00 AM 0.63 33.134 0.066 6.09 8.05 14.05
1/27/2024 3:00:00 AM 0.63 33.134 0.066 6.01 8.65 14.07
1/27/2024 3:15:00 AM 0.63 33.134 0.066 6.08 8.04 14.05
1/27/2024 3:30:00 AM 0.63 33.134 0.066 6.08 8.03 14.05
1/27/2024 3:45:00 AM 0.64 33.152 0.066 6.03 8.24 14.06
1/27/2024 4:00:00 AM 0.63 33.134 0.065 6.09 8.41 14.06
1/27/2024 4:15:00 AM 0.63 33.134 0.065 6.04 9.08 14.03
1/27/2024 4:30:00 AM 0.63 33.134 0.065 6.08 8.77 14.06
1/27/2024 4:45:00 AM 0.63 33.134 0.065 6.08 8.68 14.05
1/27/2024 5:00:00 AM 0.64 33.152 0.065 5.95 8.98 14.05
1/27/2024 5:15:00 AM 0.63 33.134 0.064 6.08 8.43 14.05
1/27/2024 5:30:00 AM 0.64 33.152 0.064 6.05 8.38 14.07
1/27/2024 5:45:00 AM 0.64 33.152 0.064 6.08 8.42 14.07
1/27/2024 6:00:00 AM 0.64 33.152 0.064 6.01 8.21 14.05
1/27/2024 6:15:00 AM 0.65 33.17 0.064 6.07 8.24 14.06
1/27/2024 6:30:00 AM 0.65 33.17 0.064 6.06 8.48 14.05
1/27/2024 6:45:00 AM 0.64 33.152 0.064 6.08 8.27 14.05
1/27/2024 7:00:00 AM 0.65 33.17 0.064 6.08 8.29 14.06
1/27/2024 7:15:00 AM 0.66 33.188 0.064 5.94 8.19 14.05
1/27/2024 7:30:00 AM 0.66 33.188 0.064 6.08 8.47 14.05
1/27/2024 7:45:00 AM 0.66 33.188 0.064 5.97 8.32 14.06
1/27/2024 8:00:00 AM 0.66 33.188 0.064 6.06 8.21 14.06
1/27/2024 8:15:00 AM 0.68 33.224 0.064 6.08 8.39 14.06
1/27/2024 8:30:00 AM 0.69 33.242 0.064 5.97 8.32 14.08
1/27/2024 8:45:00 AM 0.7 33.26 0.063 6.08 8.34 14.08
1/27/2024 9:00:00 AM 0.71 33.278 0.063 5.99 8.24 14.09
1/27/2024 9:15:00 AM 0.74 33.332 0.063 6.03 7.94 14.09
1/27/2024 9:30:00 AM 0.75 33.35 0.063 6.08 8.01 14.11
1/27/2024 9:45:00 AM 0.78 33.404 0.063 5.96 8.16 14.12
1/27/2024 10:00:00 AM 0.81 33.458 0.063 6.09 7.9 14.13
1/27/2024 10:15:00 AM 0.84 33.512 0.063 6.09 7.95 14.14
1/27/2024 10:30:00 AM 0.88 33.584 0.063 5.99 7.99 14.16
1/27/2024 10:45:00 AM 0.94 33.692 0.063 6.06 8.27 14.16
1/27/2024 11:00:00 AM 0.99 33.782 0.062 6.12 8.01 14.19
1/27/2024 11:15:00 AM 1.03 33.854 0.062 6.02 8.07 14.2
1/27/2024 11:30:00 AM 1.03 33.854 0.062 6.13 8.23 14.22
1/27/2024 11:45:00 AM 1.05 33.89 0.062 6.13 8.56 14.25
1/27/2024 12:00:00 PM 1.04 33.872 0.062 6.11 9.78 14.28
1/27/2024 12:15:00 PM 1.02 33.836 0.062 6.05 10.66 14.32
1/27/2024 12:30:00 PM 1 33.8 0.062 6.1 11.5 14.29
1/27/2024 12:45:00 PM 1.01 33.818 0.061 6.11 11.57 14.33
1/27/2024 1:00:00 PM 1.02 33.836 0.061 6.1 12.17 14.35
1/27/2024 1:15:00 PM 1.03 33.854 0.061 5.92 12.14 14.33
1/27/2024 1:30:00 PM 1.05 33.89 0.06 6.01 12.74 14.35
1/27/2024 1:45:00 PM 1.1 33.98 0.06 6.02 12.22 14.33
1/27/2024 2:00:00 PM 1.12 34.016 0.06 6.06 12.24 14.32
1/27/2024 2:15:00 PM 1.15 34.07 0.06 6 11.81 14.31
1/27/2024 2:30:00 PM 1.17 34.106 0.059 6.05 10.98 14.3
1/27/2024 2:45:00 PM 1.18 34.124 0.059 6 10.9 14.3
1/27/2024 3:00:00 PM 1.19 34.142 0.059 6.09 9.76 14.28
1/27/2024 3:15:00 PM 1.22 34.196 0.059 6.06 10.08 14.28
1/27/2024 3:30:00 PM 1.22 34.196 0.059 5.92 9.73 14.26
1/27/2024 3:45:00 PM 1.2 34.16 0.059 6.05 9.78 14.26
1/27/2024 4:00:00 PM 1.19 34.142 0.059 5.94 9.38 14.26
1/27/2024 4:15:00 PM 1.18 34.124 0.058 6.02 8.92 14.24
1/27/2024 4:30:00 PM 1.16 34.088 0.058 5.96 8.86 14.24
1/27/2024 4:45:00 PM 1.14 34.052 0.058 5.95 8.68 14.22
1/27/2024 5:00:00 PM 1.14 34.052 0.058 5.99 8.35 14.2
1/27/2024 5:15:00 PM 1.12 34.016 0.058 5.97 8.6 14.2
1/27/2024 5:30:00 PM 1.11 33.998 0.058 5.96 8.26 14.18
1/27/2024 5:45:00 PM 1.1 33.98 0.058 5.96 14.25 14.17
1/27/2024 6:00:00 PM 1.1 33.98 0.058 5.96 8.43 14.17
1/27/2024 6:15:00 PM 1.1 33.98 0.058 5.86 17.77 14.17
1/27/2024 6:30:00 PM 1.08 33.944 0.058 5.91 9.08 14.16
1/27/2024 6:45:00 PM 1.08 33.944 0.058 5.92 8.85 14.16
1/27/2024 7:00:00 PM 1.08 33.944 0.058 5.92 10.88 14.15
1/27/2024 7:15:00 PM 1.08 33.944 0.058 5.94 9.72 14.15
1/27/2024 7:30:00 PM 1.08 33.944 0.058 6 10.68 14.14
1/27/2024 7:45:00 PM 1.08 33.944 0.057 6 10.02 14.14
1/27/2024 8:00:00 PM 1.09 33.962 0.057 5.86 7.96 14.13
1/27/2024 8:15:00 PM 1.1 33.98 0.057 6.01 60.26 14.13
1/27/2024 8:30:00 PM 1.1 33.98 0.057 5.98 10.26 14.13
1/27/2024 8:45:00 PM 1.11 33.998 0.057 6.01 829.11 14.12
1/27/2024 9:00:00 PM 1.12 34.016 0.057 5.87 11.84 14.12
1/27/2024 9:15:00 PM 1.13 34.034 0.057 6.01 7.43 14.12
1/27/2024 9:30:00 PM 1.14 34.052 0.056 6 11.85 14.11
1/27/2024 9:45:00 PM 1.15 34.07 0.056 5.89 12.61 14.11
1/27/2024 10:00:00 PM 1.15 34.07 0.056 5.99 86.61 14.11
1/27/2024 10:15:00 PM 1.16 34.088 0.056 5.95 7.15 14.1
1/27/2024 10:30:00 PM 1.17 34.106 0.056 5.96 24.19 14.09
1/27/2024 10:45:00 PM 1.17 34.106 0.056 5.96 7.65 14.09
1/27/2024 11:00:00 PM 1.18 34.124 0.055 6.01 58.07 14.09
1/27/2024 11:15:00 PM 1.18 34.124 0.055 6.02 7.75 14.09
1/27/2024 11:30:00 PM 1.19 34.142 0.055 5.96 7.29 14.08
1/27/2024 11:45:00 PM 1.2 34.16 0.055 5.98 255.88 14.09
1/28/2024 12:00:00 AM 1.2 34.16 0.055 6.03 7.22 14.07
1/28/2024 12:15:00 AM 1.21 34.178 0.055 5.91 7.59 14.08
1/28/2024 12:30:00 AM 1.21 34.178 0.055 5.84 684.55 14.07
1/28/2024 12:45:00 AM 1.23 34.214 0.055 6.03 9.39 14.05
1/28/2024 1:00:00 AM 1.24 34.232 0.055 6.04 8.28 14.07
1/28/2024 1:15:00 AM 1.25 34.25 0.055 5.97 573.11 14.05
1/28/2024 1:30:00 AM 1.25 34.25 0.054 5.94 643.54 14.04
1/28/2024 1:45:00 AM 1.26 34.268 0.054 6.04 565.44 14.03
1/28/2024 2:00:00 AM 1.27 34.286 0.054 6.04 541.79 14.02
1/28/2024 2:15:00 AM 1.28 34.304 0.054 5.9 7.18 14.02
1/28/2024 2:30:00 AM 1.28 34.304 0.054 5.97 458.72 14.02
1/28/2024 2:45:00 AM 1.28 34.304 0.054 6.04 292.35 14.01
1/28/2024 3:00:00 AM 1.28 34.304 0.054 5.91 713.89 14.01
1/28/2024 3:15:00 AM 1.29 34.322 0.054 6.04 664.89 14.01
1/28/2024 3:30:00 AM 1.3 34.34 0.054 5.9 7.27 13.99
1/28/2024 3:45:00 AM 1.3 34.34 0.054 6.03 134.24 14
1/28/2024 4:00:00 AM 1.31 34.358 0.054 5.94 33.25 13.98
1/28/2024 4:15:00 AM 1.32 34.376 0.054 6.04 312.34 13.98
1/28/2024 4:30:00 AM 1.33 34.394 0.054 6 556.39 13.98
1/28/2024 4:45:00 AM 1.33 34.394 0.054 5.94 6.49 13.95
1/28/2024 5:00:00 AM 1.33 34.394 0.054 6.04 6.76 13.95
1/28/2024 5:15:00 AM 1.34 34.412 0.054 5.92 94.8 13.96
1/28/2024 5:30:00 AM 1.34 34.412 0.054 6.01 30.05 13.95
1/28/2024 5:45:00 AM 1.35 34.43 0.054 5.91 12.7 13.95
1/28/2024 6:00:00 AM 1.35 34.43 0.054 6.04 354.38 13.94
1/28/2024 6:15:00 AM 1.35 34.43 0.054 6.01 92.24 13.94
1/28/2024 6:30:00 AM 1.35 34.43 0.054 5.95 510.89 13.93
1/28/2024 6:45:00 AM 1.35 34.43 0.054 6.04 7.57 13.93
1/28/2024 7:00:00 AM 1.34 34.412 0.054 6.03 218.54 13.91
1/28/2024 7:15:00 AM 1.34 34.412 0.053 6.04 888.03 13.91
1/28/2024 7:30:00 AM 1.34 34.412 0.053 5.92 477.8 13.9
1/28/2024 7:45:00 AM 1.35 34.43 0.053 6.04 685.26 13.9
1/28/2024 8:00:00 AM 1.34 34.412 0.053 5.89 333.39 13.89
1/28/2024 8:15:00 AM 1.34 34.412 0.053 6.02 775.12 13.88
1/28/2024 8:30:00 AM 1.33 34.394 0.053 5.93 482.14 13.89
1/28/2024 8:45:00 AM 1.31 34.358 0.053 6.01 410.24 13.88
1/28/2024 9:00:00 AM 1.29 34.322 0.053 5.93 603.9 13.88
1/28/2024 9:15:00 AM 1.28 34.304 0.053 6.03 60.64 13.89
1/28/2024 9:30:00 AM 1.24 34.232 0.053 5.91 253.7 13.88
1/28/2024 9:45:00 AM 1.2 34.16 0.053 6.03 547.13 13.88
1/28/2024 10:00:00 AM 1.21 34.178 0.053 6.02 560.62 13.87
1/28/2024 10:15:00 AM 1.23 34.214 0.053 5.87 403.27 13.88
1/28/2024 10:30:00 AM 1.24 34.232 0.053 6.02 563.21 13.87
1/28/2024 10:45:00 AM 1.27 34.286 0.053 6.02 26.54 13.86
1/28/2024 11:00:00 AM 1.31 34.358 0.053 6.02 22.39 13.88
1/28/2024 11:15:00 AM 1.33 34.394 0.053 5.89 157.79 13.88
1/28/2024 11:30:00 AM 1.38 34.484 0.053 6.05 26.25 13.89
1/28/2024 11:45:00 AM 1.4 34.52 0.053 5.99 41.94 13.89
1/28/2024 12:00:00 PM 1.42 34.556 0.053 6.06 22.21 13.9
1/28/2024 12:15:00 PM 1.43 34.574 0.054 5.96 9.58 13.89
1/28/2024 12:30:00 PM 1.44 34.592 0.054 5.91 11.96 13.89
1/28/2024 12:45:00 PM 1.44 34.592 0.054 6.06 9.21 13.89
1/28/2024 1:00:00 PM 1.43 34.574 0.054 6.04 7.23 13.88
1/28/2024 1:15:00 PM 1.43 34.574 0.054 5.93 6.72 13.87
1/28/2024 1:30:00 PM 1.43 34.574 0.054 5.97 7.04 13.87
1/28/2024 1:45:00 PM 1.42 34.556 0.054 5.89 6.99 13.87
1/28/2024 2:00:00 PM 1.41 34.538 0.054 5.98 6.52 13.87
1/28/2024 2:15:00 PM 1.38 34.484 0.054 6 6.72 13.85
1/28/2024 2:30:00 PM 1.35 34.43 0.054 6.03 12.05 13.85
1/28/2024 2:45:00 PM 1.32 34.376 0.054 6.02 14.02 13.85
1/28/2024 3:00:00 PM 1.27 34.286 0.054 5.9 11.68 13.84
1/28/2024 3:15:00 PM 1.24 34.232 0.054 6.02 12.56 13.83
1/28/2024 3:30:00 PM 1.21 34.178 0.054 5.88 6.27 13.82
1/28/2024 3:45:00 PM 1.17 34.106 0.054 6.02 6.5 13.81
1/28/2024 4:00:00 PM 1.17 34.106 0.054 5.99 6.44 13.81
1/28/2024 4:15:00 PM 1.19 34.142 0.054 6 5.48 13.8
1/28/2024 4:30:00 PM 1.22 34.196 0.054 5.89 5.39 13.8
1/28/2024 4:45:00 PM 1.24 34.232 0.054 5.95 5.54 13.78
1/28/2024 5:00:00 PM 1.27 34.286 0.054 6.03 5.54 13.78
1/28/2024 5:15:00 PM 1.28 34.304 0.054 6.04 5.61 13.77
1/28/2024 5:30:00 PM 1.31 34.358 0.054 6.03 5.57 13.77
1/28/2024 5:45:00 PM 1.32 34.376 0.054 6.05 5.4 13.77
1/28/2024 6:00:00 PM 1.32 34.376 0.054 6.04 5.5 13.76
1/28/2024 6:15:00 PM 1.31 34.358 0.054 6.04 5.57 13.74
1/28/2024 6:30:00 PM 1.34 34.412 0.053 6.05 5.32 13.75
1/28/2024 6:45:00 PM 1.35 34.43 0.054 5.92 5.6 13.73
1/28/2024 7:00:00 PM 1.37 34.466 0.053 6.05 6.88 13.73
1/28/2024 7:15:00 PM 1.4 34.52 0.053 6.05 5.36 13.72
1/28/2024 7:30:00 PM 1.43 34.574 0.053 6.06 5.77 13.73
1/28/2024 7:45:00 PM 1.44 34.592 0.053 6.06 5.36 13.71
1/28/2024 8:00:00 PM 1.44 34.592 0.053 5.88 5.42 13.7
1/28/2024 8:15:00 PM 1.46 34.628 0.053 6.06 5.36 13.7
1/28/2024 8:30:00 PM 1.48 34.664 0.053 6.04 7.37 13.69
1/28/2024 8:45:00 PM 1.49 34.682 0.053 5.95 5.91 13.68
1/28/2024 9:00:00 PM 1.5 34.7 0.052 6.05 5.92 13.68
1/28/2024 9:15:00 PM 1.52 34.736 0.052 5.97 6.24 13.67
1/28/2024 9:30:00 PM 1.53 34.754 0.052 5.98 6.99 13.68
1/28/2024 9:45:00 PM 1.54 34.772 0.052 6.06 6.13 13.66
1/28/2024 10:00:00 PM 1.55 34.79 0.052 5.92 5.37 13.66
1/28/2024 10:15:00 PM 1.56 34.808 0.052 6.06 5.39 13.65
1/28/2024 10:30:00 PM 1.57 34.826 0.052 5.94 5.53 13.65
1/28/2024 10:45:00 PM 1.58 34.844 0.052 6 5.36 13.65
1/28/2024 11:00:00 PM 1.59 34.862 0.052 6.06 5.36 13.65
1/28/2024 11:15:00 PM 1.6 34.88 0.052 5.95 5.32 13.64
1/28/2024 11:30:00 PM 1.61 34.898 0.052 6.01 5.38 13.65
1/28/2024 11:45:00 PM 1.61 34.898 0.052 5.97 5.31 13.65
1/29/2024 12:00:00 AM 1.61 34.898 0.052 6.05 5.7 13.64
1/29/2024 12:15:00 AM 1.62 34.916 0.052 5.97 5.54 13.64
1/29/2024 12:30:00 AM 1.62 34.916 0.052 6.06 5.26 13.64
1/29/2024 12:45:00 AM 1.62 34.916 0.052 6.05 5.36 13.65
1/29/2024 1:00:00 AM 1.62 34.916 0.052 5.98 5.26 13.63
1/29/2024 1:15:00 AM 1.62 34.916 0.052 6 5.24 13.64
1/29/2024 1:30:00 AM 1.62 34.916 0.052 5.97 5.24 13.65
1/29/2024 1:45:00 AM 1.61 34.898 0.052 6.04 5.36 13.64
1/29/2024 2:00:00 AM 1.61 34.898 0.052 5.95 5.32 13.64
1/29/2024 2:15:00 AM 1.61 34.898 0.052 6.03 5.31 13.64
1/29/2024 2:30:00 AM 1.62 34.916 0.052 5.95 5.13 13.63
1/29/2024 2:45:00 AM 1.61 34.898 0.052 5.99 5.33 13.63
1/29/2024 3:00:00 AM 1.61 34.898 0.052 5.98 5.2 13.64
1/29/2024 3:15:00 AM 1.61 34.898 0.052 6.04 5.07 13.63
1/29/2024 3:30:00 AM 1.61 34.898 0.052 6.03 5.13 13.63
1/29/2024 3:45:00 AM 1.6 34.88 0.052 5.99 5.4 13.64
1/29/2024 4:00:00 AM 1.59 34.862 0.052 6.04 5.14 13.64
1/29/2024 4:15:00 AM 1.58 34.844 0.052 6.05 5.31 13.63
1/29/2024 4:30:00 AM 1.57 34.826 0.052 5.89 5.07 13.64
1/29/2024 4:45:00 AM 1.57 34.826 0.052 5.99 5.22 13.64
1/29/2024 5:00:00 AM 1.55 34.79 0.052 6.04 6.04 13.63
1/29/2024 5:15:00 AM 1.54 34.772 0.052 5.91 4.98 13.63
1/29/2024 5:30:00 AM 1.52 34.736 0.052 6.05 6.98 13.63
1/29/2024 5:45:00 AM 1.51 34.718 0.052 5.94 7.18 13.64
1/29/2024 6:00:00 AM 1.5 34.7 0.052 6.02 4.96 13.63
1/29/2024 6:15:00 AM 1.5 34.7 0.052 5.92 5.42 13.64
1/29/2024 6:30:00 AM 1.47 34.646 0.052 6.01 5.33 13.62
1/29/2024 6:45:00 AM 1.47 34.646 0.052 6.01 5.01 13.63
1/29/2024 7:00:00 AM 1.47 34.646 0.052 5.96 4.95 13.64
1/29/2024 7:15:00 AM 1.47 34.646 0.052 6.03 6.53 13.64
1/29/2024 7:30:00 AM 1.46 34.628 0.052 5.91 4.96 13.65
1/29/2024 7:45:00 AM 1.47 34.646 0.052 5.96 7.22 13.66
1/29/2024 8:00:00 AM 1.47 34.646 0.052 5.97 4.82 13.65
1/29/2024 8:15:00 AM 1.46 34.628 0.053 6.03 6.3 13.65
1/29/2024 8:30:00 AM 1.46 34.628 0.053 5.91 4.63 13.65
1/29/2024 8:45:00 AM 1.47 34.646 0.053 5.98 5.45 13.67
1/29/2024 9:00:00 AM 1.49 34.682 0.053 6.04 4.62 13.68
1/29/2024 9:15:00 AM 1.49 34.682 0.053 5.96 4.58 13.68
1/29/2024 9:30:00 AM 1.5 34.7 0.052 6 4.7 13.71
1/29/2024 9:45:00 AM 1.51 34.718 0.052 6.06 4.41 13.71
1/29/2024 10:00:00 AM 1.53 34.754 0.053 6.05 4.5 13.72
1/29/2024 10:15:00 AM 1.54 34.772 0.052 5.97 4.53 13.73
1/29/2024 10:30:00 AM 1.55 34.79 0.052 6.04 6.43 13.73
1/29/2024 10:45:00 AM 1.57 34.826 0.052 6.02 4.5 13.75
1/29/2024 11:00:00 AM 1.61 34.898 0.052 6.09 7.51 13.75
1/29/2024 11:15:00 AM 1.65 34.97 0.052 5.96 4.42 13.77
1/29/2024 11:30:00 AM 1.68 35.024 0.052 6.11 4.41 13.78
1/29/2024 11:45:00 AM 1.71 35.078 0.052 6.09 4.39 13.78
1/29/2024 12:00:00 PM 1.72 35.096 0.052 6.12 4.44 13.79
1/29/2024 12:15:00 PM 1.72 35.096 0.052 6.11 4.35 13.8
1/29/2024 12:30:00 PM 1.73 35.114 0.052 6.12 4.41 13.81
1/29/2024 12:45:00 PM 1.74 35.132 0.052 6.07 4.34 13.81
1/29/2024 1:00:00 PM 1.75 35.15 0.052 6.11 4.81 13.8
1/29/2024 1:15:00 PM 1.75 35.15 0.052 6.04 5.79 13.81
1/29/2024 1:30:00 PM 1.74 35.132 0.052 6.11 4.36 13.81
1/29/2024 1:45:00 PM 1.73 35.114 0.052 6.08 4.31 13.81
1/29/2024 2:00:00 PM 1.73 35.114 0.053 6 5.36 13.82
1/29/2024 2:15:00 PM 1.73 35.114 0.053 6.1 4.32 13.82
1/29/2024 2:30:00 PM 1.73 35.114 0.052 6.03 4.36 13.83
1/29/2024 2:45:00 PM 1.73 35.114 0.052 6.13 4.32 13.82
1/29/2024 3:00:00 PM 1.73 35.114 0.053 6.11 8.93 13.82
1/29/2024 3:15:00 PM 1.72 35.096 0.053 6.11 4.33 13.82
1/29/2024 3:30:00 PM 1.7 35.06 0.053 6.01 4.31 13.82
1/29/2024 3:45:00 PM 1.69 35.042 0.053 6.1 4.29 13.81
1/29/2024 4:00:00 PM 1.67 35.006 0.053 6.1 4.69 13.82
1/29/2024 4:15:00 PM 1.65 34.97 0.053 6.08 4.73 13.82
1/29/2024 4:30:00 PM 1.62 34.916 0.053 6 4.32 13.81
1/29/2024 4:45:00 PM 1.6 34.88 0.053 6.01 4.29 13.8
1/29/2024 5:00:00 PM 1.57 34.826 0.053 6.03 4.45 13.79
1/29/2024 5:15:00 PM 1.54 34.772 0.053 6.07 4.31 13.79
1/29/2024 5:30:00 PM 1.52 34.736 0.053 5.94 5.39 13.79
1/29/2024 5:45:00 PM 1.49 34.682 0.053 6.07 4.55 13.79
1/29/2024 6:00:00 PM 1.47 34.646 0.053 5.96 4.44 13.78
1/29/2024 6:15:00 PM 1.45 34.61 0.053 5.97 4.45 13.78
1/29/2024 6:30:00 PM 1.44 34.592 0.053 6.06 4.36 13.77
1/29/2024 6:45:00 PM 1.42 34.556 0.053 6.06 10.49 13.77
1/29/2024 7:00:00 PM 1.41 34.538 0.053 5.95 4.66 13.76
1/29/2024 7:15:00 PM 1.4 34.52 0.053 6.06 5.16 13.76
1/29/2024 7:30:00 PM 1.39 34.502 0.053 6 4.83 13.76
1/29/2024 7:45:00 PM 1.38 34.484 0.053 5.93 4.71 13.77
1/29/2024 8:00:00 PM 1.37 34.466 0.054 5.99 4.86 13.76
1/29/2024 8:15:00 PM 1.37 34.466 0.054 6.04 4.51 13.76
1/29/2024 8:30:00 PM 1.36 34.448 0.054 6.03 4.54 13.76
1/29/2024 8:45:00 PM 1.36 34.448 0.054 5.96 4.5 13.77
1/29/2024 9:00:00 PM 1.35 34.43 0.054 5.99 4.56 13.76
1/29/2024 9:15:00 PM 1.34 34.412 0.054 5.99 4.64 13.77
1/29/2024 9:30:00 PM 1.34 34.412 0.054 6.06 4.62 13.77
1/29/2024 9:45:00 PM 1.33 34.394 0.054 5.94 4.78 13.77
1/29/2024 10:00:00 PM 1.33 34.394 0.054 6.06 4.89 13.77
1/29/2024 10:15:00 PM 1.33 34.394 0.054 5.99 4.64 13.77
1/29/2024 10:30:00 PM 1.32 34.376 0.054 6.06 4.75 13.78
1/29/2024 10:45:00 PM 1.32 34.376 0.054 6.06 4.68 13.78
1/29/2024 11:00:00 PM 1.31 34.358 0.054 6.07 4.99 13.77
1/29/2024 11:15:00 PM 1.31 34.358 0.054 5.89 4.82 13.77
1/29/2024 11:30:00 PM 1.31 34.358 0.054 6.05 4.65 13.77
1/29/2024 11:45:00 PM 1.31 34.358 0.054 5.94 4.62 13.77
1/30/2024 12:00:00 AM 1.31 34.358 0.054 6 4.96 13.76
1/30/2024 12:15:00 AM 1.31 34.358 0.055 6 5.06 13.75
1/30/2024 12:30:00 AM 1.31 34.358 0.055 6.07 4.79 13.76
1/30/2024 12:45:00 AM 1.31 34.358 0.055 5.94 6 13.76
1/30/2024 1:00:00 AM 1.31 34.358 0.055 6.01 6.38 13.75
1/30/2024 1:15:00 AM 1.31 34.358 0.055 6.03 4.61 13.75
1/30/2024 1:30:00 AM 1.31 34.358 0.055 6.06 5.18 13.75
1/30/2024 1:45:00 AM 1.31 34.358 0.055 5.96 5.17 13.75
1/30/2024 2:00:00 AM 1.31 34.358 0.055 6.06 4.67 13.74
1/30/2024 2:15:00 AM 1.31 34.358 0.055 6.04 4.88 13.74
1/30/2024 2:30:00 AM 1.31 34.358 0.055 6.07 4.67 13.75
1/30/2024 2:45:00 AM 1.31 34.358 0.055 5.94 4.61 13.74
1/30/2024 3:00:00 AM 1.31 34.358 0.055 6.07 5.02 13.75
1/30/2024 3:15:00 AM 1.31 34.358 0.055 5.96 5.2 13.74
1/30/2024 3:30:00 AM 1.31 34.358 0.055 6.03 4.77 13.73
1/30/2024 3:45:00 AM 1.31 34.358 0.055 5.97 4.71 13.73
1/30/2024 4:00:00 AM 1.3 34.34 0.055 6.08 4.79 13.73
1/30/2024 4:15:00 AM 1.3 34.34 0.055 6.06 4.61 13.73
1/30/2024 4:30:00 AM 1.31 34.358 0.055 5.97 4.64 13.74
1/30/2024 4:45:00 AM 1.3 34.34 0.055 6.01 4.46 13.74
1/30/2024 5:00:00 AM 1.3 34.34 0.055 6.02 4.52 13.73
1/30/2024 5:15:00 AM 1.3 34.34 0.055 6.08 4.4 13.73
1/30/2024 5:30:00 AM 1.3 34.34 0.055 6.07 6.65 13.73
1/30/2024 5:45:00 AM 1.29 34.322 0.055 6.07 4.5 13.72
1/30/2024 6:00:00 AM 1.29 34.322 0.055 6.07 5.7 13.72
1/30/2024 6:15:00 AM 1.29 34.322 0.055 5.94 6.99 13.71
1/30/2024 6:30:00 AM 1.29 34.322 0.055 6.08 4.75 13.72
1/30/2024 6:45:00 AM 1.28 34.304 0.055 6.08 4.88 13.71
1/30/2024 7:00:00 AM 1.28 34.304 0.055 5.92 4.82 13.72
1/30/2024 7:15:00 AM 1.27 34.286 0.055 6.06 4.29 13.73
1/30/2024 7:30:00 AM 1.27 34.286 0.055 6.07 8.7 13.73
1/30/2024 7:45:00 AM 1.26 34.268 0.055 6.07 5.67 13.72
1/30/2024 8:00:00 AM 1.26 34.268 0.055 6.06 4.46 13.74
1/30/2024 8:15:00 AM 1.25 34.25 0.055 6.04 5.07 13.73
1/30/2024 8:30:00 AM 1.24 34.232 0.055 5.97 4.74 13.73
1/30/2024 8:45:00 AM 1.24 34.232 0.055 6.08 5.29 13.72
1/30/2024 9:00:00 AM 1.25 34.25 0.055 5.94 6.94 13.72
1/30/2024 9:15:00 AM 1.26 34.268 0.056 6.08 4.34 13.74
1/30/2024 9:30:00 AM 1.27 34.286 0.056 6.08 4.56 13.75
1/30/2024 9:45:00 AM 1.27 34.286 0.056 6.08 9.88 13.78
1/30/2024 10:00:00 AM 1.27 34.286 0.056 6.07 6.54 13.78
1/30/2024 10:15:00 AM 1.28 34.304 0.056 6.08 6.86 13.79
1/30/2024 10:30:00 AM 1.29 34.322 0.056 6.03 5.41 13.8
1/30/2024 10:45:00 AM 1.3 34.34 0.056 6.05 4.77 13.81
1/30/2024 11:00:00 AM 1.31 34.358 0.056 6.1 5.89 13.83
1/30/2024 11:15:00 AM 1.32 34.376 0.056 6.07 6.01 13.82
1/30/2024 11:30:00 AM 1.34 34.412 0.056 6.11 4.9 13.85
1/30/2024 11:45:00 AM 1.36 34.448 0.056 6.11 4.96 13.85
1/30/2024 12:00:00 PM 1.38 34.484 0.056 5.99 4.24 13.87
1/30/2024 12:15:00 PM 1.4 34.52 0.056 6.12 6.89 13.87
1/30/2024 12:30:00 PM 1.42 34.556 0.056 6.02 10.51 13.88
1/30/2024 12:45:00 PM 1.43 34.574 0.056 6.08 11.67 13.89
1/30/2024 1:00:00 PM 1.44 34.592 0.056 6.13 4.33 13.89
1/30/2024 1:15:00 PM 1.46 34.628 0.056 6.14 3.9 13.89
1/30/2024 1:30:00 PM 1.48 34.664 0.056 6.05 3.97 13.9
1/30/2024 1:45:00 PM 1.5 34.7 0.056 6.02 3.76 13.9
1/30/2024 2:00:00 PM 1.5 34.7 0.056 6.15 4.04 13.91
1/30/2024 2:15:00 PM 1.49 34.682 0.056 6.15 3.94 13.91
1/30/2024 2:30:00 PM 1.5 34.7 0.056 6.01 3.93 13.9
1/30/2024 2:45:00 PM 1.49 34.682 0.056 6.15 3.88 13.91
1/30/2024 3:00:00 PM 1.49 34.682 0.056 6.13 3.95 13.9
1/30/2024 3:15:00 PM 1.49 34.682 0.056 6.1 5.33 13.9
1/30/2024 3:30:00 PM 1.48 34.664 0.056 6.11 3.92 13.89
1/30/2024 3:45:00 PM 1.48 34.664 0.056 6.14 4.56 13.88
1/30/2024 4:00:00 PM 1.47 34.646 0.056 6.12 4.98 13.9
1/30/2024 4:15:00 PM 1.45 34.61 0.056 6.13 3.83 13.88
1/30/2024 4:30:00 PM 1.44 34.592 0.056 6.13 4.2 13.87
1/30/2024 4:45:00 PM 1.42 34.556 0.056 6.1 3.98 13.86
1/30/2024 5:00:00 PM 1.41 34.538 0.056 6.12 6.68 13.86
1/30/2024 5:15:00 PM 1.39 34.502 0.056 6.12 6.17 13.85
1/30/2024 5:30:00 PM 1.37 34.466 0.056 6.12 4.69 13.83
1/30/2024 5:45:00 PM 1.36 34.448 0.056 6.1 5.23 13.82
1/30/2024 6:00:00 PM 1.34 34.412 0.056 6.11 6.66 13.81
1/30/2024 6:15:00 PM 1.33 34.394 0.056 6.08 6.48 13.79
1/30/2024 6:30:00 PM 1.32 34.376 0.056 6.1 5.14 13.77
1/30/2024 6:45:00 PM 1.31 34.358 0.056 6 9.71 13.77
1/30/2024 7:00:00 PM 1.31 34.358 0.056 6.09 5.7 13.76
1/30/2024 7:15:00 PM 1.29 34.322 0.056 6.05 5.94 13.76
1/30/2024 7:30:00 PM 1.28 34.304 0.056 6.08 4.9 13.75
1/30/2024 7:45:00 PM 1.27 34.286 0.056 6.05 6.59 13.75
1/30/2024 8:00:00 PM 1.27 34.286 0.056 6.09 4.6 13.74
1/30/2024 8:15:00 PM 1.27 34.286 0.056 6.09 5.77 13.73
1/30/2024 8:30:00 PM 1.27 34.286 0.056 6.09 8.47 13.73
1/30/2024 8:45:00 PM 1.27 34.286 0.056 6.08 5.69 13.72
1/30/2024 9:00:00 PM 1.27 34.286 0.056 6.04 4.23 13.71
1/30/2024 9:15:00 PM 1.27 34.286 0.056 6.09 4.67 13.71
1/30/2024 9:30:00 PM 1.26 34.268 0.056 6.09 5.67 13.72
1/30/2024 9:45:00 PM 1.27 34.286 0.056 6.05 4.29 13.7
1/30/2024 10:00:00 PM 1.26 34.268 0.056 6.09 4.69 13.7
1/30/2024 10:15:00 PM 1.26 34.268 0.056 5.99 4.87 13.71
1/30/2024 10:30:00 PM 1.26 34.268 0.056 6.05 7.34 13.7
1/30/2024 10:45:00 PM 1.26 34.268 0.056 6.02 4.91 13.7
1/30/2024 11:00:00 PM 1.25 34.25 0.056 6.06 5.25 13.7
1/30/2024 11:15:00 PM 1.25 34.25 0.056 5.98 4.76 13.69
1/30/2024 11:30:00 PM 1.25 34.25 0.056 6.05 5.37 13.69
1/30/2024 11:45:00 PM 1.24 34.232 0.056 6.09 6.1 13.69
1/31/2024 12:00:00 AM 1.23 34.214 0.056 6.03 7.88 13.69
1/31/2024 12:15:00 AM 1.24 34.232 0.056 6.02 4.59 13.68
1/31/2024 12:30:00 AM 1.24 34.232 0.056 6.08 5.04 13.69
1/31/2024 12:45:00 AM 1.23 34.214 0.056 6.01 6.59 13.69
1/31/2024 1:00:00 AM 1.23 34.214 0.056 6.09 4.57 13.69
1/31/2024 1:15:00 AM 1.23 34.214 0.056 6.09 5.58 13.69
1/31/2024 1:30:00 AM 1.22 34.196 0.056 5.96 5.45 13.69
1/31/2024 1:45:00 AM 1.22 34.196 0.056 6.08 6.74 13.68
1/31/2024 2:00:00 AM 1.22 34.196 0.056 6.06 4.36 13.69
1/31/2024 2:15:00 AM 1.22 34.196 0.056 6.07 4.74 13.69
1/31/2024 2:30:00 AM 1.21 34.178 0.056 6.09 4.56 13.7
1/31/2024 2:45:00 AM 1.21 34.178 0.056 6.09 6.54 13.71
1/31/2024 3:00:00 AM 1.21 34.178 0.056 6.1 7.88 13.71
1/31/2024 3:15:00 AM 1.21 34.178 0.056 6.06 5.4 13.69
1/31/2024 3:30:00 AM 1.21 34.178 0.056 6.1 8.54 13.69
1/31/2024 3:45:00 AM 1.2 34.16 0.056 6.1 4.37 13.68
1/31/2024 4:00:00 AM 1.2 34.16 0.056 5.97 4.62 13.67
1/31/2024 4:15:00 AM 1.2 34.16 0.056 6.06 4.83 13.66
1/31/2024 4:30:00 AM 1.21 34.178 0.057 6.06 5.04 13.65
1/31/2024 4:45:00 AM 1.21 34.178 0.057 6.1 5.8 13.66
1/31/2024 5:00:00 AM 1.22 34.196 0.057 5.98 6.5 13.65
1/31/2024 5:15:00 AM 1.23 34.214 0.057 6.1 5.97 13.66
1/31/2024 5:30:00 AM 1.23 34.214 0.057 6.09 11.24 13.66
1/31/2024 5:45:00 AM 1.23 34.214 0.057 5.97 11.04 13.65
1/31/2024 6:00:00 AM 1.24 34.232 0.057 6.1 6.7 13.65
1/31/2024 6:15:00 AM 1.23 34.214 0.057 5.99 7.4 13.64
1/31/2024 6:30:00 AM 1.24 34.232 0.057 6.1 9.84 13.64
1/31/2024 6:45:00 AM 1.25 34.25 0.057 6.1 4.5 13.65
1/31/2024 7:00:00 AM 1.25 34.25 0.057 6.1 5.06 13.64
1/31/2024 7:15:00 AM 1.25 34.25 0.056 5.99 6.57 13.64
1/31/2024 7:30:00 AM 1.25 34.25 0.057 6.04 5.99 13.63
1/31/2024 7:45:00 AM 1.25 34.25 0.057 6.1 8.2 13.63
1/31/2024 8:00:00 AM 1.25 34.25 0.057 6.1 6.8 13.62
1/31/2024 8:15:00 AM 1.26 34.268 0.057 6.09 4.13 13.62
1/31/2024 8:30:00 AM 1.26 34.268 0.057 6 7.2 13.63
1/31/2024 8:45:00 AM 1.26 34.268 0.057 6.1 6.64 13.61
1/31/2024 9:00:00 AM 1.27 34.286 0.057 6.06 6.83 13.62
1/31/2024 9:15:00 AM 1.28 34.304 0.057 5.99 8.67 13.63
1/31/2024 9:30:00 AM 1.3 34.34 0.057 6.05 6.85 13.63
1/31/2024 9:45:00 AM 1.32 34.376 0.057 6.08 7.42 13.64
1/31/2024 10:00:00 AM 1.34 34.412 0.057 6.11 3.69 13.65
1/31/2024 10:15:00 AM 1.35 34.43 0.057 6.07 3.74 13.66
1/31/2024 10:30:00 AM 1.37 34.466 0.057 6.06 3.78 13.67
1/31/2024 10:45:00 AM 1.39 34.502 0.057 6.13 6.2 13.7
1/31/2024 11:00:00 AM 1.42 34.556 0.057 6.13 5.13 13.71
1/31/2024 11:15:00 AM 1.45 34.61 0.057 6 4.74 13.73
1/31/2024 11:30:00 AM 1.46 34.628 0.057 6.08 15.44 13.74
1/31/2024 11:45:00 AM 1.49 34.682 0.057 6.09 11.88 13.77
1/31/2024 12:00:00 PM 1.51 34.718 0.057 6.15 9.03 13.78
1/31/2024 12:15:00 PM 1.52 34.736 0.057 6.15 10.93 13.78
1/31/2024 12:30:00 PM 1.54 34.772 0.057 6.09 4.8 13.79
1/31/2024 12:45:00 PM 1.58 34.844 0.057 6.08 13.84 13.8
1/31/2024 1:00:00 PM 1.61 34.898 0.057 6.11 5.88 13.82
1/31/2024 1:15:00 PM 1.63 34.934 0.057 6.16 4.97 13.83
1/31/2024 1:30:00 PM 1.67 35.006 0.057 6.15 4.22 13.84
1/31/2024 1:45:00 PM 1.72 35.096 0.058 6.14 5.38 13.85
1/31/2024 2:00:00 PM 1.74 35.132 0.058 6.19 4.98 13.86
1/31/2024 2:15:00 PM 1.78 35.204 0.058 6.19 7.99 13.87
1/31/2024 2:30:00 PM 1.8 35.24 0.058 6.19 164.1 13.87
1/31/2024 2:45:00 PM 1.81 35.258 0.058 6.2 16.99 13.88
1/31/2024 3:00:00 PM 1.82 35.276 0.058 6.18 12.75 13.87
1/31/2024 3:15:00 PM 1.8 35.24 0.058 6.19 30.92 13.89
1/31/2024 3:30:00 PM 1.81 35.258 0.058 6.12 5.85 13.89
1/31/2024 3:45:00 PM 1.81 35.258 0.058 6.1 11.68 13.89
1/31/2024 4:00:00 PM 1.8 35.24 0.058 6.19 5.82 13.88
1/31/2024 4:15:00 PM 1.8 35.24 0.058 6.19 7.34 13.88
1/31/2024 4:30:00 PM 1.77 35.186 0.058 6.19 5.59 13.88
1/31/2024 4:45:00 PM 1.76 35.168 0.058 6.04 25.32 13.86
1/31/2024 5:00:00 PM 1.73 35.114 0.058 6.09 5.9 13.86
1/31/2024 5:15:00 PM 1.71 35.078 0.058 6.17 6.34 13.84
1/31/2024 5:30:00 PM 1.7 35.06 0.058 6.08 8.39 13.82
1/31/2024 5:45:00 PM 1.66 34.988 0.058 6.16 8.59 13.81
1/31/2024 6:00:00 PM 1.65 34.97 0.058 6.03 10.02 13.79
1/31/2024 6:15:00 PM 1.64 34.952 0.058 6.15 12.97 13.77
1/31/2024 6:30:00 PM 1.61 34.898 0.058 6.07 10.98 13.76
1/31/2024 6:45:00 PM 1.59 34.862 0.058 6.14 6.62 13.74
1/31/2024 7:00:00 PM 1.59 34.862 0.058 6.14 4.61 13.72
1/31/2024 7:15:00 PM 1.57 34.826 0.058 6.13 28.46 13.7
1/31/2024 7:30:00 PM 1.55 34.79 0.058 6.1 6.48 13.69
1/31/2024 7:45:00 PM 1.55 34.79 0.058 6.12 7.85 13.66
1/31/2024 8:00:00 PM 1.53 34.754 0.057 6.12 8.89 13.66
1/31/2024 8:15:00 PM 1.53 34.754 0.057 5.95 7.87 13.65
1/31/2024 8:30:00 PM 1.52 34.736 0.057 6.11 4.96 13.64
1/31/2024 8:45:00 PM 1.5 34.7 0.057 6.11 13.14 13.63
1/31/2024 9:00:00 PM 1.5 34.7 0.057 6.1 88.78 13.62
1/31/2024 9:15:00 PM 1.48 34.664 0.057 6 7.98 13.61
1/31/2024 9:30:00 PM 1.47 34.646 0.057 6.04 15.95 13.61
1/31/2024 9:45:00 PM 1.46 34.628 0.057 6.11 18.33 13.6
1/31/2024 10:00:00 PM 1.45 34.61 0.057 5.98 70.66 13.61
1/31/2024 10:15:00 PM 1.45 34.61 0.057 6.1 12.43 13.59
1/31/2024 10:30:00 PM 1.44 34.592 0.057 6 16.68 13.6
1/31/2024 10:45:00 PM 1.44 34.592 0.057 6.1 12.3 13.59
1/31/2024 11:00:00 PM 1.43 34.574 0.057 6.09 17.3 13.58
1/31/2024 11:15:00 PM 1.41 34.538 0.057 6.09 38.33 13.58
1/31/2024 11:30:00 PM 1.39 34.502 0.057 5.98 6.46 13.59
1/31/2024 11:45:00 PM 1.37 34.466 0.057 6.09 28.02 13.58
2/1/2024 12:00:00 AM 1.35 34.43 0.057 6.02 7.75 13.57
2/1/2024 12:15:00 AM 1.33 34.394 0.058 6.1 8.66 13.58
2/1/2024 12:30:00 AM 1.31 34.358 0.058 5.97 8.96 13.58
2/1/2024 12:45:00 AM 1.3 34.34 0.058 6.04 4.45 13.58
2/1/2024 1:00:00 AM 1.29 34.322 0.058 6.09 9.22 13.58
2/1/2024 1:15:00 AM 1.28 34.304 0.058 6.01 27.22 13.56
2/1/2024 1:30:00 AM 1.28 34.304 0.059 6.1 5.8 13.57
2/1/2024 1:45:00 AM 1.28 34.304 0.059 5.98 89.97 13.56
2/1/2024 2:00:00 AM 1.28 34.304 0.059 6.05 5.36 13.54
2/1/2024 2:15:00 AM 1.29 34.322 0.059 6.04 120.42 13.54
2/1/2024 2:30:00 AM 1.29 34.322 0.059 6.05 11.2 13.55
2/1/2024 2:45:00 AM 1.29 34.322 0.059 6.06 46.8 13.55
2/1/2024 3:00:00 AM 1.31 34.358 0.059 6.11 43.25 13.52
2/1/2024 3:15:00 AM 1.31 34.358 0.059 6.11 59.65 13.52
2/1/2024 3:30:00 AM 1.33 34.394 0.059 6.1 13.17 13.51
2/1/2024 3:45:00 AM 1.33 34.394 0.059 5.98 60.14 13.52
2/1/2024 4:00:00 AM 1.34 34.412 0.059 6.11 24.83 13.51
2/1/2024 4:15:00 AM 1.34 34.412 0.059 6.01 12.64 13.51
2/1/2024 4:30:00 AM 1.35 34.43 0.059 6.12 6.77 13.5
2/1/2024 4:45:00 AM 1.36 34.448 0.059 6.11 40.85 13.48
2/1/2024 5:00:00 AM 1.36 34.448 0.059 6.12 49.11 13.48
2/1/2024 5:15:00 AM 1.37 34.466 0.059 5.98 76.53 13.48
2/1/2024 5:30:00 AM 1.38 34.484 0.059 6.12 82.77 13.48
2/1/2024 5:45:00 AM 1.38 34.484 0.059 6.05 61.65 13.47
2/1/2024 6:00:00 AM 1.38 34.484 0.059 6.1 167.39 13.47
2/1/2024 6:15:00 AM 1.38 34.484 0.059 6.12 44.42 13.46
2/1/2024 6:30:00 AM 1.39 34.502 0.059 6.12 41.38 13.45
2/1/2024 6:45:00 AM 1.38 34.484 0.059 6.01 20.14 13.45
2/1/2024 7:00:00 AM 1.39 34.502 0.059 6.12 60.8 13.45
2/1/2024 7:15:00 AM 1.39 34.502 0.059 6.02 34.63 13.44
2/1/2024 7:30:00 AM 1.39 34.502 0.059 6.07 45.17 13.45
2/1/2024 7:45:00 AM 1.4 34.52 0.059 6.05 30.31 13.44
2/1/2024 8:00:00 AM 1.41 34.538 0.059 6.13 7.46 13.43
2/1/2024 8:15:00 AM 1.41 34.538 0.059 6.02 4.14 13.43
2/1/2024 8:30:00 AM 1.42 34.556 0.059 6.1 36.08 13.43
2/1/2024 8:45:00 AM 1.43 34.574 0.059 6.12 12.81 13.44
2/1/2024 9:00:00 AM 1.46 34.628 0.059 6.13 19.56 13.43
2/1/2024 9:15:00 AM 1.45 34.61 0.059 6 52.9 13.46
2/1/2024 9:30:00 AM 1.48 34.664 0.059 6.13 13.55 13.46
2/1/2024 9:45:00 AM 1.49 34.682 0.059 6.14 37.12 13.47
2/1/2024 10:00:00 AM 1.52 34.736 0.059 6.12 8.08 13.48
2/1/2024 10:15:00 AM 1.55 34.79 0.059 6.14 8.87 13.49
2/1/2024 10:30:00 AM 1.56 34.808 0.059 6.14 28.25 13.51
2/1/2024 10:45:00 AM 1.58 34.844 0.059 6.16 5.73 13.54
2/1/2024 11:00:00 AM 1.62 34.916 0.059 6.17 91.69 13.54
2/1/2024 11:15:00 AM 1.64 34.952 0.059 6.03 4.87 13.56
2/1/2024 11:30:00 AM 1.67 35.006 0.059 6.18 11.71 13.6
2/1/2024 11:45:00 AM 1.71 35.078 0.059 6.18 10.03 13.59
2/1/2024 12:00:00 PM 1.74 35.132 0.059 6.19 24.02 13.61
2/1/2024 12:15:00 PM 1.76 35.168 0.059 6.18 12.75 13.64
2/1/2024 12:30:00 PM 1.79 35.222 0.059 6.09 12.21 13.65
2/1/2024 12:45:00 PM 1.81 35.258 0.059 6.19 12.54 13.65
2/1/2024 1:00:00 PM 1.82 35.276 0.059 6.12 4.84 13.68
2/1/2024 1:15:00 PM 1.85 35.33 0.059 6.15 58.26 13.67
2/1/2024 1:30:00 PM 1.85 35.33 0.059 6.21 9.36 13.7
2/1/2024 1:45:00 PM 1.88 35.384 0.059 6.09 9.03 13.7
2/1/2024 2:00:00 PM 1.91 35.438 0.059 6.16 5.73 13.69
2/1/2024 2:15:00 PM 1.92 35.456 0.058 6.21 30.78 13.7
2/1/2024 2:30:00 PM 1.93 35.474 0.058 6.12 29.48 13.69
2/1/2024 2:45:00 PM 1.93 35.474 0.058 6.16 14.64 13.69
2/1/2024 3:00:00 PM 1.94 35.492 0.058 6.19 21.97 13.68
2/1/2024 3:15:00 PM 1.94 35.492 0.058 6.16 4.38 13.68
2/1/2024 3:30:00 PM 1.95 35.51 0.058 6.21 148.71 13.68
2/1/2024 3:45:00 PM 1.94 35.492 0.058 6.12 9.62 13.67
2/1/2024 4:00:00 PM 1.95 35.51 0.058 6.2 6.26 13.66
2/1/2024 4:15:00 PM 1.94 35.492 0.058 6.2 4.08 13.66
2/1/2024 4:30:00 PM 1.93 35.474 0.058 6.08 27.2 13.64
2/1/2024 4:45:00 PM 1.93 35.474 0.058 6.2 11.73 13.62
2/1/2024 5:00:00 PM 1.91 35.438 0.059 6.09 7.24 13.61
2/1/2024 5:15:00 PM 1.9 35.42 0.059 6.14 6.16 13.59
2/1/2024 5:30:00 PM 1.89 35.402 0.059 6.13 37.82 13.57
2/1/2024 5:45:00 PM 1.87 35.366 0.059 6.13 6.7 13.56
2/1/2024 6:00:00 PM 1.85 35.33 0.059 6.17 124.7 13.54
2/1/2024 6:15:00 PM 1.85 35.33 0.059 6.15 20.85 13.52
2/1/2024 6:30:00 PM 1.84 35.312 0.059 6.07 6.97 13.5
2/1/2024 6:45:00 PM 1.83 35.294 0.059 6.11 6.62 13.49
2/1/2024 7:00:00 PM 1.82 35.276 0.059 6.15 12.62 13.47
2/1/2024 7:15:00 PM 1.82 35.276 0.059 6.13 7.29 13.46
2/1/2024 7:30:00 PM 1.8 35.24 0.059 6.08 8.49 13.44
2/1/2024 7:45:00 PM 1.81 35.258 0.059 6.14 8.37 13.42
2/1/2024 8:00:00 PM 1.8 35.24 0.059 6.14 28.2 13.4
2/1/2024 8:15:00 PM 1.78 35.204 0.059 6.14 119.9 13.4
2/1/2024 8:30:00 PM 1.77 35.186 0.059 6.03 177.7 13.39
2/1/2024 8:45:00 PM 1.78 35.204 0.059 6.09 99.91 13.37
2/1/2024 9:00:00 PM 1.78 35.204 0.059 6.12 4.28 13.36
2/1/2024 9:15:00 PM 1.78 35.204 0.059 6.09 47.76 13.36
2/1/2024 9:30:00 PM 1.78 35.204 0.059 6.13 249.93 13.35
2/1/2024 9:45:00 PM 1.77 35.186 0.059 6.13 162.07 13.35
2/1/2024 10:00:00 PM 1.77 35.186 0.059 6.11 90.23 13.34
2/1/2024 10:15:00 PM 1.77 35.186 0.059 6.04 108.36 13.32
2/1/2024 10:30:00 PM 1.77 35.186 0.059 6.13 4.54 13.32
2/1/2024 10:45:00 PM 1.78 35.204 0.059 6.04 75.82 13.31
2/1/2024 11:00:00 PM 1.77 35.186 0.059 6.08 65.31 13.3
2/1/2024 11:15:00 PM 1.77 35.186 0.059 6.08 23.97 13.3
2/1/2024 11:30:00 PM 1.77 35.186 0.059 6.09 107.85 13.3
2/1/2024 11:45:00 PM 1.79 35.222 0.059 6.13 77.89 13.28
2/2/2024 12:00:00 AM 1.78 35.204 0.059 6.05 213.53 13.28
2/2/2024 12:15:00 AM 1.77 35.186 0.059 6.13 71.2 13.3
2/2/2024 12:30:00 AM 1.78 35.204 0.059 6.12 21.15 13.28
2/2/2024 12:45:00 AM 1.78 35.204 0.059 6.12 78.54 13.27
2/2/2024 1:00:00 AM 1.78 35.204 0.059 6.09 31.82 13.28
2/2/2024 1:15:00 AM 1.78 35.204 0.059 6.13 9.51 13.27
2/2/2024 1:30:00 AM 1.79 35.222 0.059 6.13 7.25 13.26
2/2/2024 1:45:00 AM 1.79 35.222 0.059 6.13 21.74 13.25
2/2/2024 2:00:00 AM 1.79 35.222 0.059 5.99 60.13 13.25
2/2/2024 2:15:00 AM 1.79 35.222 0.059 6.11 448.9 13.25
2/2/2024 2:30:00 AM 1.8 35.24 0.059 6.13 149.79 13.24
2/2/2024 2:45:00 AM 1.81 35.258 0.059 6.08 34.87 13.23
2/2/2024 3:00:00 AM 1.79 35.222 0.059 6.06 43.21 13.24
2/2/2024 3:15:00 AM 1.81 35.258 0.059 6.13 9.22 13.22
2/2/2024 3:30:00 AM 1.82 35.276 0.059 6.13 83.49 13.21
2/2/2024 3:45:00 AM 1.82 35.276 0.059 6.12 172.91 13.2
2/2/2024 4:00:00 AM 1.83 35.294 0.059 6.12 41.52 13.2
2/2/2024 4:15:00 AM 1.82 35.276 0.059 6.03 109.93 13.21
2/2/2024 4:30:00 AM 1.83 35.294 0.059 6.1 9.1 13.21
2/2/2024 4:45:00 AM 1.83 35.294 0.059 6.13 6.27 13.21
2/2/2024 5:00:00 AM 1.85 35.33 0.059 6.13 41.44 13.2
2/2/2024 5:15:00 AM 1.84 35.312 0.059 6.12 43.55 13.19
2/2/2024 5:30:00 AM 1.85 35.33 0.059 6.13 42.86 13.18
2/2/2024 5:45:00 AM 1.85 35.33 0.059 6.13 171.18 13.18
2/2/2024 6:00:00 AM 1.84 35.312 0.059 6.09 129.53 13.18
2/2/2024 6:15:00 AM 1.84 35.312 0.059 6.02 27.19 13.18
2/2/2024 6:30:00 AM 1.84 35.312 0.059 6.12 10.33 13.18
2/2/2024 6:45:00 AM 1.84 35.312 0.059 6.12 122.91 13.17
2/2/2024 7:00:00 AM 1.84 35.312 0.059 6.01 327.82 13.18
2/2/2024 7:15:00 AM 1.84 35.312 0.059 6.12 58.91 13.16
2/2/2024 7:30:00 AM 1.82 35.276 0.059 6.03 41.02 13.18
2/2/2024 7:45:00 AM 1.82 35.276 0.059 6.13 87.96 13.18
2/2/2024 8:00:00 AM 1.82 35.276 0.059 6.01 50.16 13.17
2/2/2024 8:15:00 AM 1.83 35.294 0.059 6.13 55.72 13.17
2/2/2024 8:30:00 AM 1.83 35.294 0.059 6.12 109.34 13.18
2/2/2024 8:45:00 AM 1.84 35.312 0.059 6.12 5.89 13.19
2/2/2024 9:00:00 AM 1.85 35.33 0.059 6.13 8.74 13.18
2/2/2024 9:15:00 AM 1.86 35.348 0.059 6.13 246.29 13.19
2/2/2024 9:30:00 AM 1.89 35.402 0.059 6.12 37.17 13.19
2/2/2024 9:45:00 AM 1.9 35.42 0.059 6.14 29.24 13.22
2/2/2024 10:00:00 AM 1.93 35.474 0.059 6.14 11.81 13.23
2/2/2024 10:15:00 AM 1.96 35.528 0.059 6.15 14.33 13.26
2/2/2024 10:30:00 AM 1.98 35.564 0.059 6.09 12.12 13.28
2/2/2024 10:45:00 AM 2 35.6 0.059 6.1 25.76 13.3
2/2/2024 11:00:00 AM 2.05 35.69 0.059 6.17 12.03 13.32
2/2/2024 11:15:00 AM 2.08 35.744 0.059 6.17 10.3 13.34
2/2/2024 11:30:00 AM 2.09 35.762 0.059 6.09 75.07 13.38
2/2/2024 11:45:00 AM 2.13 35.834 0.059 6.19 34.09 13.39
2/2/2024 12:00:00 PM 2.17 35.906 0.059 6.15 253.05 13.41
2/2/2024 12:15:00 PM 2.2 35.96 0.059 6.2 16.13 13.43
2/2/2024 12:30:00 PM 2.23 36.014 0.059 6.19 39.54 13.45
2/2/2024 12:45:00 PM 2.26 36.068 0.059 6.2 57.93 13.45
2/2/2024 1:00:00 PM 2.28 36.104 0.059 6.22 51.22 13.48
2/2/2024 1:15:00 PM 2.3 36.14 0.059 6.22 71.53 13.5
2/2/2024 1:30:00 PM 2.34 36.212 0.059 6.23 12.25 13.5
2/2/2024 1:45:00 PM 2.36 36.248 0.059 6.24 12.97 13.53
2/2/2024 2:00:00 PM 2.37 36.266 0.059 6.13 12.94 13.54
2/2/2024 2:15:00 PM 2.42 36.356 0.059 6.22 9.79 13.54
2/2/2024 2:30:00 PM 2.43 36.374 0.059 6.18 11.95 13.55
2/2/2024 2:45:00 PM 2.46 36.428 0.06 6.2 7.98 13.56
2/2/2024 3:00:00 PM 2.49 36.482 0.06 6.23 47.09 13.54
2/2/2024 3:15:00 PM 2.48 36.464 0.06 6.16 8.18 13.57
2/2/2024 3:30:00 PM 2.48 36.464 0.06 6.21 35.92 13.56
2/2/2024 3:45:00 PM 2.48 36.464 0.06 6.21 57.39 13.57
2/2/2024 4:00:00 PM 2.48 36.464 0.06 6.21 103.34 13.56
2/2/2024 4:15:00 PM 2.46 36.428 0.06 6.26 80.11 13.56
2/2/2024 4:30:00 PM 2.43 36.374 0.06 6.25 31.31 13.55
2/2/2024 4:45:00 PM 2.41 36.338 0.06 6.23 72.62 13.53
2/2/2024 5:00:00 PM 2.38 36.284 0.06 6.17 7.36 13.53
2/2/2024 5:15:00 PM 2.35 36.23 0.06 6.24 10.83 13.52
2/2/2024 5:30:00 PM 2.32 36.176 0.06 6.23 13.57 13.51
2/2/2024 5:45:00 PM 2.31 36.158 0.06 6.12 67.23 13.48
2/2/2024 6:00:00 PM 2.27 36.086 0.06 6.19 27.73 13.48
2/2/2024 6:15:00 PM 2.24 36.032 0.06 6.22 19.13 13.45
2/2/2024 6:30:00 PM 2.22 35.996 0.061 6.21 9.49 13.44
2/2/2024 6:45:00 PM 2.19 35.942 0.061 6.07 22.53 13.42
2/2/2024 7:00:00 PM 2.16 35.888 0.061 6.15 9.44 13.4
2/2/2024 7:15:00 PM 2.15 35.87 0.061 6.17 18.36 13.38
2/2/2024 7:30:00 PM 2.13 35.834 0.061 6.17 166.94 13.37
2/2/2024 7:45:00 PM 2.11 35.798 0.061 6.18 107.09 13.35
2/2/2024 8:00:00 PM 2.07 35.726 0.061 6.19 85.63 13.33
2/2/2024 8:15:00 PM 2.06 35.708 0.061 6.18 29.57 13.32
2/2/2024 8:30:00 PM 2.04 35.672 0.061 6.17 67.76 13.3
2/2/2024 8:45:00 PM 2.03 35.654 0.061 6.17 118.07 13.29
2/2/2024 9:00:00 PM 2.01 35.618 0.061 6.15 27.99 13.28
2/2/2024 9:15:00 PM 2 35.6 0.061 6.16 82.99 13.26
2/2/2024 9:30:00 PM 1.98 35.564 0.061 6.15 69.51 13.26
2/2/2024 9:45:00 PM 1.97 35.546 0.061 6.03 8.9 13.24
2/2/2024 10:00:00 PM 1.96 35.528 0.061 6.16 55.24 13.25
2/2/2024 10:15:00 PM 1.94 35.492 0.061 6.16 36.79 13.24
2/2/2024 10:30:00 PM 1.92 35.456 0.061 6.06 6.28 13.24
2/2/2024 10:45:00 PM 1.92 35.456 0.061 6.16 8.26 13.23
2/2/2024 11:00:00 PM 1.91 35.438 0.061 6.05 10.09 13.23
2/2/2024 11:15:00 PM 1.9 35.42 0.061 6.15 95.9 13.22
2/2/2024 11:30:00 PM 1.89 35.402 0.061 6.16 10.95 13.22
2/2/2024 11:45:00 PM 1.87 35.366 0.061 6.16 52.88 13.22
2/3/2024 12:00:00 AM 1.86 35.348 0.061 6.16 11.95 13.22
2/3/2024 12:15:00 AM 1.85 35.33 0.061 6.16 60.58 13.22
2/3/2024 12:30:00 AM 1.85 35.33 0.061 6.03 26.59 13.22
2/3/2024 12:45:00 AM 1.83 35.294 0.061 6.16 15.89 13.21
2/3/2024 1:00:00 AM 1.82 35.276 0.061 6.16 113.61 13.23
2/3/2024 1:15:00 AM 1.8 35.24 0.061 6.13 60.64 13.21
2/3/2024 1:30:00 AM 1.79 35.222 0.061 6.16 45.38 13.21
2/3/2024 1:45:00 AM 1.77 35.186 0.061 6.05 8.1 13.2
2/3/2024 2:00:00 AM 1.76 35.168 0.061 6.16 45.51 13.21
2/3/2024 2:15:00 AM 1.74 35.132 0.061 6.13 33.8 13.21
2/3/2024 2:30:00 AM 1.74 35.132 0.061 6.11 7.18 13.22
2/3/2024 2:45:00 AM 1.72 35.096 0.061 6.15 46.15 13.22
2/3/2024 3:00:00 AM 1.71 35.078 0.061 6.17 15.17 13.21
2/3/2024 3:15:00 AM 1.72 35.096 0.061 6.09 200.82 13.2
2/3/2024 3:30:00 AM 1.72 35.096 0.061 6.12 8.61 13.21
2/3/2024 3:45:00 AM 1.7 35.06 0.061 6.15 15.68 13.21
2/3/2024 4:00:00 AM 1.68 35.024 0.061 6.17 32.43 13.21
2/3/2024 4:15:00 AM 1.68 35.024 0.061 6.15 6.84 13.2
2/3/2024 4:30:00 AM 1.67 35.006 0.061 6.18 55.1 13.2
2/3/2024 4:45:00 AM 1.66 34.988 0.061 6.17 48.71 13.21
2/3/2024 5:00:00 AM 1.64 34.952 0.061 6.06 9.4 13.21
2/3/2024 5:15:00 AM 1.63 34.934 0.061 6.13 101.28 13.21
2/3/2024 5:30:00 AM 1.61 34.898 0.061 6.13 30.37 13.22
2/3/2024 5:45:00 AM 1.61 34.898 0.061 6.18 9.46 13.21
2/3/2024 6:00:00 AM 1.59 34.862 0.061 6.05 8.52 13.21
2/3/2024 6:15:00 AM 1.6 34.88 0.061 6.18 28.79 13.22
2/3/2024 6:30:00 AM 1.58 34.844 0.061 6.18 20.36 13.23
2/3/2024 6:45:00 AM 1.59 34.862 0.061 6.14 105.77 13.23
2/3/2024 7:00:00 AM 1.57 34.826 0.061 6.19 9.75 13.23
2/3/2024 7:15:00 AM 1.57 34.826 0.061 6.18 13.87 13.22
2/3/2024 7:30:00 AM 1.57 34.826 0.061 6.16 18.07 13.23
2/3/2024 7:45:00 AM 1.57 34.826 0.061 6.18 6.49 13.24
2/3/2024 8:00:00 AM 1.56 34.808 0.061 6.13 35.51 13.23
2/3/2024 8:15:00 AM 1.55 34.79 0.061 6.18 19.43 13.24
2/3/2024 8:30:00 AM 1.56 34.808 0.061 6.19 10.03 13.25
2/3/2024 8:45:00 AM 1.55 34.79 0.061 6.2 61.01 13.27
2/3/2024 9:00:00 AM 1.57 34.826 0.061 6.2 30.78 13.29
2/3/2024 9:15:00 AM 1.59 34.862 0.061 6.2 18.81 13.3
2/3/2024 9:30:00 AM 1.61 34.898 0.061 6.21 31.97 13.32
2/3/2024 9:45:00 AM 1.66 34.988 0.061 6.09 24.53 13.35
2/3/2024 10:00:00 AM 1.69 35.042 0.061 6.22 21.39 13.36
2/3/2024 10:15:00 AM 1.75 35.15 0.061 6.25 12.22 13.4
2/3/2024 10:30:00 AM 1.83 35.294 0.06 6.26 7.63 13.41
2/3/2024 10:45:00 AM 1.94 35.492 0.06 6.15 7.96 13.45
2/3/2024 11:00:00 AM 2.04 35.672 0.06 6.28 5.67 13.46
2/3/2024 11:15:00 AM 2.18 35.924 0.06 6.29 10.88 13.47
2/3/2024 11:30:00 AM 2.32 36.176 0.06 6.3 10.42 13.49
2/3/2024 11:45:00 AM 2.47 36.446 0.06 6.33 13.4 13.51
2/3/2024 12:00:00 PM 2.59 36.662 0.06 6.34 4.4 13.51
2/3/2024 12:15:00 PM 2.71 36.878 0.06 6.35 9.88 13.52
2/3/2024 12:30:00 PM 2.82 37.076 0.06 6.24 10.36 13.53
2/3/2024 12:45:00 PM 2.92 37.256 0.06 6.33 5.54 13.53
2/3/2024 1:00:00 PM 2.99 37.382 0.06 6.35 10.72 13.54
2/3/2024 1:15:00 PM 3.09 37.562 0.059 6.31 5.3 13.54
2/3/2024 1:30:00 PM 3.15 37.67 0.059 6.38 7.03 13.54
2/3/2024 1:45:00 PM 3.22 37.796 0.059 6.38 7.41 13.54
2/3/2024 2:00:00 PM 3.27 37.886 0.059 6.36 4.99 13.54
2/3/2024 2:15:00 PM 3.3 37.94 0.059 6.37 5.68 13.54
2/3/2024 2:30:00 PM 3.33 37.994 0.059 6.29 10.19 13.53
2/3/2024 2:45:00 PM 3.34 38.012 0.059 6.38 7.82 13.53
2/3/2024 3:00:00 PM 3.36 38.048 0.059 6.36 8.18 13.52
2/3/2024 3:15:00 PM 3.36 38.048 0.059 6.26 10.46 13.52
2/3/2024 3:30:00 PM 3.35 38.03 0.06 6.37 8.49 13.52
2/3/2024 3:45:00 PM 3.35 38.03 0.06 6.24 7.56 13.51
2/3/2024 4:00:00 PM 3.29 37.922 0.06 6.37 10.91 13.51
2/3/2024 4:15:00 PM 3.26 37.868 0.06 6.34 4.54 13.51
2/3/2024 4:30:00 PM 3.17 37.706 0.06 6.35 8.34 13.5
2/3/2024 4:45:00 PM 3.12 37.616 0.06 6.21 6.32 13.48
2/3/2024 5:00:00 PM 3.03 37.454 0.06 6.33 7.74 13.47
2/3/2024 5:15:00 PM 2.97 37.346 0.06 6.2 9.12 13.47
2/3/2024 5:30:00 PM 2.89 37.202 0.06 6.31 16.34 13.46
2/3/2024 5:45:00 PM 2.79 37.022 0.06 6.18 9.18 13.44
2/3/2024 6:00:00 PM 2.7 36.86 0.06 6.28 10.79 13.43
2/3/2024 6:15:00 PM 2.62 36.716 0.06 6.15 7.64 13.42
2/3/2024 6:30:00 PM 2.56 36.608 0.06 6.22 6.1 13.38
2/3/2024 6:45:00 PM 2.47 36.446 0.06 6.23 8.82 13.38
2/3/2024 7:00:00 PM 2.42 36.356 0.06 6.1 8.61 13.36
2/3/2024 7:15:00 PM 2.33 36.194 0.061 6.2 7.55 13.36
2/3/2024 7:30:00 PM 2.27 36.086 0.061 6.18 11.89 13.35
2/3/2024 7:45:00 PM 2.22 35.996 0.061 6.08 8.57 13.33
2/3/2024 8:00:00 PM 2.18 35.924 0.061 6.17 7.13 13.3
2/3/2024 8:15:00 PM 2.13 35.834 0.061 6.16 9.3 13.29
2/3/2024 8:30:00 PM 2.11 35.798 0.061 6.06 8.68 13.27
2/3/2024 8:45:00 PM 2.08 35.744 0.061 6.16 9.1 13.26
2/3/2024 9:00:00 PM 2.05 35.69 0.061 6.06 9.83 13.25
2/3/2024 9:15:00 PM 2.04 35.672 0.061 6.1 11.7 13.24
2/3/2024 9:30:00 PM 2.03 35.654 0.062 6.15 11.21 13.21
2/3/2024 9:45:00 PM 2.01 35.618 0.062 6.14 6.13 13.21
2/3/2024 10:00:00 PM 2 35.6 0.062 6.15 8.89 13.2
2/3/2024 10:15:00 PM 1.98 35.564 0.062 6.16 7.64 13.2
2/3/2024 10:30:00 PM 1.98 35.564 0.062 6.16 9.38 13.19
2/3/2024 10:45:00 PM 1.96 35.528 0.062 6.16 11.92 13.19
2/3/2024 11:00:00 PM 1.95 35.51 0.062 6.16 6.5 13.18
2/3/2024 11:15:00 PM 1.94 35.492 0.062 6.13 11.56 13.17
2/3/2024 11:30:00 PM 1.92 35.456 0.062 6.16 5.7 13.18
2/3/2024 11:45:00 PM 1.9 35.42 0.062 6.16 7.13 13.16
2/4/2024 12:00:00 AM 1.89 35.402 0.062 6.05 5.32 13.17
2/4/2024 12:15:00 AM 1.87 35.366 0.062 6.17 5.98 13.18
2/4/2024 12:30:00 AM 1.85 35.33 0.062 6.06 5.22 13.16
2/4/2024 12:45:00 AM 1.82 35.276 0.062 6.13 5.27 13.15
2/4/2024 1:00:00 AM 1.8 35.24 0.062 6.12 13.05 13.15
2/4/2024 1:15:00 AM 1.79 35.222 0.062 6.17 6.57 13.15
2/4/2024 1:30:00 AM 1.78 35.204 0.062 6.17 6.13 13.15
2/4/2024 1:45:00 AM 1.76 35.168 0.062 6.11 7.72 13.15
2/4/2024 2:00:00 AM 1.73 35.114 0.062 6.17 6.76 13.15
2/4/2024 2:15:00 AM 1.71 35.078 0.062 6.09 5.22 13.13
2/4/2024 2:30:00 AM 1.69 35.042 0.062 6.16 6.63 13.14
2/4/2024 2:45:00 AM 1.68 35.024 0.062 6.17 7.4 13.16
2/4/2024 3:00:00 AM 1.67 35.006 0.062 6.18 5.28 13.15
2/4/2024 3:15:00 AM 1.65 34.97 0.062 6.18 7.04 13.15
2/4/2024 3:30:00 AM 1.64 34.952 0.062 6.18 6.64 13.14
2/4/2024 3:45:00 AM 1.61 34.898 0.062 6.18 6.49 13.13
2/4/2024 4:00:00 AM 1.6 34.88 0.062 6.11 5.81 13.14
2/4/2024 4:15:00 AM 1.59 34.862 0.062 6.17 5.07 13.13
2/4/2024 4:30:00 AM 1.57 34.826 0.063 6.17 5.32 13.13
2/4/2024 4:45:00 AM 1.58 34.844 0.063 6.17 5.13 13.13
2/4/2024 5:00:00 AM 1.57 34.826 0.063 6.16 5.09 13.13
2/4/2024 5:15:00 AM 1.55 34.79 0.063 6.07 5.28 13.12
2/4/2024 5:30:00 AM 1.54 34.772 0.063 6.17 4.82 13.12
2/4/2024 5:45:00 AM 1.52 34.736 0.063 6.17 5.55 13.12
2/4/2024 6:00:00 AM 1.5 34.7 0.063 6.1 5.09 13.12
2/4/2024 6:15:00 AM 1.5 34.7 0.063 6.11 9.72 13.12
2/4/2024 6:30:00 AM 1.5 34.7 0.063 6.18 7.26 13.13
2/4/2024 6:45:00 AM 1.49 34.682 0.063 6.07 5.37 13.14
2/4/2024 7:00:00 AM 1.48 34.664 0.063 6.17 8.08 13.12
2/4/2024 7:15:00 AM 1.47 34.646 0.063 6.14 4.68 13.13
2/4/2024 7:30:00 AM 1.45 34.61 0.063 6.17 5.98 13.13
2/4/2024 7:45:00 AM 1.43 34.574 0.063 6.17 4.76 13.13
2/4/2024 8:00:00 AM 1.43 34.574 0.063 6.18 4.44 13.13
2/4/2024 8:15:00 AM 1.42 34.556 0.063 6.15 5.65 13.13
2/4/2024 8:30:00 AM 1.43 34.574 0.063 6.08 4.3 13.15
2/4/2024 8:45:00 AM 1.46 34.628 0.063 6.18 9.12 13.16
2/4/2024 9:00:00 AM 1.48 34.664 0.063 6.09 5.07 13.17
2/4/2024 9:15:00 AM 1.53 34.754 0.063 6.2 5.25 13.2
2/4/2024 9:30:00 AM 1.62 34.916 0.063 6.22 4.08 13.22
2/4/2024 9:45:00 AM 1.71 35.078 0.063 6.12 4.24 13.23
2/4/2024 10:00:00 AM 1.82 35.276 0.063 6.23 5.51 13.25
2/4/2024 10:15:00 AM 1.95 35.51 0.063 6.26 4.16 13.28
2/4/2024 10:30:00 AM 2.1 35.78 0.063 6.17 4.97 13.3
2/4/2024 10:45:00 AM 2.26 36.068 0.063 6.3 4.38 13.3
2/4/2024 11:00:00 AM 2.41 36.338 0.063 6.23 4.14 13.32
2/4/2024 11:15:00 AM 2.56 36.608 0.063 6.32 4.71 13.35
2/4/2024 11:30:00 AM 2.71 36.878 0.063 6.31 13.16 13.36
2/4/2024 11:45:00 AM 2.84 37.112 0.063 6.34 4.63 13.37
2/4/2024 12:00:00 PM 2.98 37.364 0.063 6.33 6.05 13.38
2/4/2024 12:15:00 PM 3.09 37.562 0.063 6.36 4.05 13.38
2/4/2024 12:30:00 PM 3.21 37.778 0.063 6.29 7.45 13.39
2/4/2024 12:45:00 PM 3.31 37.958 0.063 6.36 7.33 13.39
2/4/2024 1:00:00 PM 3.42 38.156 0.063 6.34 4.09 13.4
2/4/2024 1:15:00 PM 3.51 38.318 0.063 6.31 4.82 13.42
2/4/2024 1:30:00 PM 3.58 38.444 0.063 6.33 5.32 13.42
2/4/2024 1:45:00 PM 3.66 38.588 0.063 6.37 4.2 13.42
2/4/2024 2:00:00 PM 3.75 38.75 0.063 6.28 4.95 13.42
2/4/2024 2:15:00 PM 3.78 38.804 0.063 6.38 4.36 13.42
2/4/2024 2:30:00 PM 3.81 38.858 0.063 6.36 4.27 13.42
2/4/2024 2:45:00 PM 3.82 38.876 0.063 6.3 5.55 13.42
2/4/2024 3:00:00 PM 3.83 38.894 0.063 6.33 4.52 13.42
2/4/2024 3:15:00 PM 3.86 38.948 0.064 6.37 4.61 13.41
2/4/2024 3:30:00 PM 3.83 38.894 0.064 6.37 4.42 13.41
2/4/2024 3:45:00 PM 3.79 38.822 0.064 6.35 4.4 13.4
2/4/2024 4:00:00 PM 3.73 38.714 0.064 6.26 4.22 13.39
2/4/2024 4:15:00 PM 3.68 38.624 0.064 6.36 4.88 13.39
2/4/2024 4:30:00 PM 3.65 38.57 0.064 6.29 4.38 13.37
2/4/2024 4:45:00 PM 3.57 38.426 0.064 6.34 4.15 13.37
2/4/2024 5:00:00 PM 3.49 38.282 0.064 6.26 4.1 13.36
2/4/2024 5:15:00 PM 3.4 38.12 0.064 6.26 7.84 13.35
2/4/2024 5:30:00 PM 3.31 37.958 0.064 6.29 3.97 13.33
2/4/2024 5:45:00 PM 3.19 37.742 0.064 6.24 4.45 13.34
2/4/2024 6:00:00 PM 3.09 37.562 0.064 6.27 6.59 13.31
2/4/2024 6:15:00 PM 3.03 37.454 0.064 6.15 3.88 13.29
2/4/2024 6:30:00 PM 2.94 37.292 0.064 6.24 4.91 13.28
2/4/2024 6:45:00 PM 2.88 37.184 0.064 6.22 4.59 13.26
2/4/2024 7:00:00 PM 2.81 37.058 0.064 6.19 4.69 13.24
2/4/2024 7:15:00 PM 2.73 36.914 0.064 6.19 6.74 13.23
2/4/2024 7:30:00 PM 2.65 36.77 0.064 6.18 6.79 13.22
2/4/2024 7:45:00 PM 2.59 36.662 0.064 6.09 5.21 13.19
2/4/2024 8:00:00 PM 2.52 36.536 0.064 6.11 4.64 13.18
2/4/2024 8:15:00 PM 2.46 36.428 0.064 6.15 6.81 13.17
2/4/2024 8:30:00 PM 2.41 36.338 0.064 6.15 4.96 13.16
2/4/2024 8:45:00 PM 2.36 36.248 0.064 6.15 4.95 13.15
2/4/2024 9:00:00 PM 2.31 36.158 0.064 6.04 5.62 13.14
2/4/2024 9:15:00 PM 2.27 36.086 0.064 6.14 6.7 13.13
2/4/2024 9:30:00 PM 2.21 35.978 0.064 6.14 6.02 13.13
2/4/2024 9:45:00 PM 2.2 35.96 0.064 6.03 5.29 13.11
2/4/2024 10:00:00 PM 2.15 35.87 0.064 6.13 5.49 13.11
2/4/2024 10:15:00 PM 2.11 35.798 0.064 6.04 5.02 13.09
2/4/2024 10:30:00 PM 2.09 35.762 0.064 6.13 5.49 13.08
2/4/2024 10:45:00 PM 2.04 35.672 0.064 6.15 5.52 13.08
2/4/2024 11:00:00 PM 2.02 35.636 0.064 6.13 5.34 13.07
2/4/2024 11:15:00 PM 1.99 35.582 0.064 6.04 5.34 13.07
2/4/2024 11:30:00 PM 1.97 35.546 0.065 6.14 5.27 13.06
2/4/2024 11:45:00 PM 1.94 35.492 0.065 6.14 5.32 13.05
2/5/2024 12:00:00 AM 1.91 35.438 0.065 6.15 5.91 13.04
2/5/2024 12:15:00 AM 1.89 35.402 0.065 6.09 6.73 13.05
2/5/2024 12:30:00 AM 1.87 35.366 0.065 6.14 7.57 13.06
2/5/2024 12:45:00 AM 1.85 35.33 0.065 6.11 5.17 13.04
2/5/2024 1:00:00 AM 1.81 35.258 0.065 6.15 5.89 13.04
2/5/2024 1:15:00 AM 1.79 35.222 0.065 6.06 5.48 13.05
2/5/2024 1:30:00 AM 1.76 35.168 0.065 6.12 5.79 13.05
2/5/2024 1:45:00 AM 1.73 35.114 0.065 6.11 5.91 13.04
2/5/2024 2:00:00 AM 1.7 35.06 0.065 6.13 6.05 13.04
2/5/2024 2:15:00 AM 1.69 35.042 0.065 6.16 6.54 13.04
2/5/2024 2:30:00 AM 1.66 34.988 0.065 6.09 6.66 13.05
2/5/2024 2:45:00 AM 1.65 34.97 0.064 6.14 7.53 13.05
2/5/2024 3:00:00 AM 1.64 34.952 0.064 6.17 5.55 13.07
2/5/2024 3:15:00 AM 1.63 34.934 0.064 6.08 5.59 13.06
2/5/2024 3:30:00 AM 1.63 34.934 0.064 6.17 6.06 13.05
2/5/2024 3:45:00 AM 1.64 34.952 0.064 6.17 5.92 13.05
2/5/2024 4:00:00 AM 1.64 34.952 0.064 6.07 5.3 13.07
2/5/2024 4:15:00 AM 1.63 34.934 0.064 6.18 5.75 13.07
2/5/2024 4:30:00 AM 1.62 34.916 0.064 6.18 6.63 13.07
2/5/2024 4:45:00 AM 1.61 34.898 0.064 6.18 6.47 13.05
2/5/2024 5:00:00 AM 1.61 34.898 0.064 6.18 5.71 13.04
2/5/2024 5:15:00 AM 1.6 34.88 0.064 6.19 8.94 13.04
2/5/2024 5:30:00 AM 1.61 34.898 0.065 6.19 5.8 13.03
2/5/2024 5:45:00 AM 1.61 34.898 0.065 6.18 7.28 13.04
2/5/2024 6:00:00 AM 1.61 34.898 0.065 6.11 5.78 13.03
2/5/2024 6:15:00 AM 1.64 34.952 0.065 6.2 5.08 13.04
2/5/2024 6:30:00 AM 1.64 34.952 0.065 6.21 7.27 13.04
2/5/2024 6:45:00 AM 1.66 34.988 0.065 6.13 6.4 13.04
2/5/2024 7:00:00 AM 1.66 34.988 0.065 6.21 5.23 13.04
2/5/2024 7:15:00 AM 1.67 35.006 0.065 6.2 5.4 13.02
2/5/2024 7:30:00 AM 1.68 35.024 0.065 6.21 5.8 13.03
2/5/2024 7:45:00 AM 1.68 35.024 0.065 6.21 4.41 13.04
2/5/2024 8:00:00 AM 1.69 35.042 0.065 6.09 4.49 13.04
2/5/2024 8:15:00 AM 1.69 35.042 0.065 6.22 5.69 13.05
2/5/2024 8:30:00 AM 1.68 35.024 0.065 6.22 4.4 13.07
2/5/2024 8:45:00 AM 1.68 35.024 0.065 6.22 5.79 13.07
2/5/2024 9:00:00 AM 1.71 35.078 0.065 6.21 4.78 13.08
2/5/2024 9:15:00 AM 1.74 35.132 0.065 6.23 4.55 13.1
2/5/2024 9:30:00 AM 1.81 35.258 0.065 6.24 4.67 13.13
2/5/2024 9:45:00 AM 1.89 35.402 0.065 6.27 4.76 13.17
2/5/2024 10:00:00 AM 2 35.6 0.065 6.28 12.02 13.2
2/5/2024 10:15:00 AM 2.13 35.834 0.065 6.3 6.19 13.23
2/5/2024 10:30:00 AM 2.26 36.068 0.065 6.31 4.33 13.26
2/5/2024 10:45:00 AM 2.41 36.338 0.065 6.21 4.4 13.27
2/5/2024 11:00:00 AM 2.55 36.59 0.065 6.29 4.52 13.29
2/5/2024 11:15:00 AM 2.69 36.842 0.065 6.35 4.51 13.31
2/5/2024 11:30:00 AM 2.83 37.094 0.065 6.26 4.66 13.32
2/5/2024 11:45:00 AM 2.96 37.328 0.065 6.36 4.26 13.34
2/5/2024 12:00:00 PM 3.08 37.544 0.065 6.3 5.03 13.37
2/5/2024 12:15:00 PM 3.21 37.778 0.065 6.38 3.95 13.38
2/5/2024 12:30:00 PM 3.33 37.994 0.065 6.28 4.4 13.39
2/5/2024 12:45:00 PM 3.43 38.174 0.065 6.37 4.49 13.41
2/5/2024 1:00:00 PM 3.55 38.39 0.065 6.32 4.08 13.4
2/5/2024 1:15:00 PM 3.65 38.57 0.065 6.4 5.13 13.42
2/5/2024 1:30:00 PM 3.71 38.678 0.065 6.31 4.4 13.41
2/5/2024 1:45:00 PM 3.77 38.786 0.065 6.33 4.79 13.43
2/5/2024 2:00:00 PM 3.82 38.876 0.065 6.34 4.39 13.43
2/5/2024 2:15:00 PM 3.83 38.894 0.065 6.36 4.91 13.44
2/5/2024 2:30:00 PM 3.91 39.038 0.065 6.39 4.11 13.43
2/5/2024 2:45:00 PM 3.93 39.074 0.065 6.38 4.47 13.42
2/5/2024 3:00:00 PM 3.94 39.092 0.065 6.4 4.36 13.43
2/5/2024 3:15:00 PM 3.94 39.092 0.065 6.41 4.42 13.42
2/5/2024 3:30:00 PM 3.93 39.074 0.065 6.28 5.42 13.41
2/5/2024 3:45:00 PM 3.9 39.02 0.065 6.35 4.54 13.41
2/5/2024 4:00:00 PM 3.86 38.948 0.065 6.39 4.44 13.4
2/5/2024 4:15:00 PM 3.79 38.822 0.065 6.38 4.89 13.39
2/5/2024 4:30:00 PM 3.74 38.732 0.065 6.25 4.47 13.38
2/5/2024 4:45:00 PM 3.68 38.624 0.065 6.36 4.55 13.36
2/5/2024 5:00:00 PM 3.62 38.516 0.065 6.36 4.59 13.35
2/5/2024 5:15:00 PM 3.51 38.318 0.065 6.32 4.51 13.35
2/5/2024 5:30:00 PM 3.42 38.156 0.065 6.24 4.55 13.33
2/5/2024 5:45:00 PM 3.32 37.976 0.065 6.32 4.61 13.32
2/5/2024 6:00:00 PM 3.22 37.796 0.065 6.17 5 13.31
2/5/2024 6:15:00 PM 3.13 37.634 0.065 6.29 4.87 13.29
2/5/2024 6:30:00 PM 3.02 37.436 0.065 6.27 4.44 13.28
2/5/2024 6:45:00 PM 2.94 37.292 0.065 6.24 4.49 13.26
2/5/2024 7:00:00 PM 2.87 37.166 0.066 6.24 4.56 13.25
2/5/2024 7:15:00 PM 2.81 37.058 0.066 6.23 4.4 13.22
2/5/2024 7:30:00 PM 2.75 36.95 0.066 6.21 4.81 13.21
2/5/2024 7:45:00 PM 2.67 36.806 0.066 6.15 5.04 13.19
2/5/2024 8:00:00 PM 2.6 36.68 0.066 6.17 5.12 13.18
2/5/2024 8:15:00 PM 2.53 36.554 0.066 6.18 5.19 13.17
2/5/2024 8:30:00 PM 2.47 36.446 0.066 6.05 4.93 13.16
2/5/2024 8:45:00 PM 2.41 36.338 0.066 6.16 5.11 13.14
2/5/2024 9:00:00 PM 2.36 36.248 0.066 6.15 4.79 13.13
2/5/2024 9:15:00 PM 2.31 36.158 0.066 6.15 4.79 13.12
2/5/2024 9:30:00 PM 2.25 36.05 0.066 6.16 5.24 13.11
2/5/2024 9:45:00 PM 2.21 35.978 0.066 6.14 5.25 13.09
2/5/2024 10:00:00 PM 2.16 35.888 0.066 6.15 5.09 13.09
2/5/2024 10:15:00 PM 2.12 35.816 0.066 6.16 5.25 13.09
2/5/2024 10:30:00 PM 2.07 35.726 0.066 6.16 5.13 13.08
2/5/2024 10:45:00 PM 2.03 35.654 0.066 6.15 5.36 13.07
2/5/2024 11:00:00 PM 1.99 35.582 0.066 6.04 5.92 13.06
2/5/2024 11:15:00 PM 1.95 35.51 0.066 6.15 5.69 13.06
2/5/2024 11:30:00 PM 1.92 35.456 0.066 6.14 5.45 13.06
2/5/2024 11:45:00 PM 1.89 35.402 0.066 6.16 5.18 13.07
2/6/2024 12:00:00 AM 1.87 35.366 0.066 6.07 5.34 13.06
2/6/2024 12:15:00 AM 1.84 35.312 0.066 6.16 5.18 13.04
2/6/2024 12:30:00 AM 1.82 35.276 0.066 6.16 5.29 13.05
2/6/2024 12:45:00 AM 1.79 35.222 0.066 6.16 5.64 13.05
2/6/2024 1:00:00 AM 1.76 35.168 0.066 6.06 5.23 13.04
2/6/2024 1:15:00 AM 1.74 35.132 0.066 6.17 5.84 13.04
2/6/2024 1:30:00 AM 1.71 35.078 0.066 6.17 5.46 13.05
2/6/2024 1:45:00 AM 1.68 35.024 0.066 6.06 8.26 13.04
2/6/2024 2:00:00 AM 1.65 34.97 0.066 6.18 5.79 13.06
2/6/2024 2:15:00 AM 1.62 34.916 0.066 6.17 5.82 13.06
2/6/2024 2:30:00 AM 1.59 34.862 0.066 6.18 5.86 13.06
2/6/2024 2:45:00 AM 1.58 34.844 0.066 6.07 5.28 13.07
2/6/2024 3:00:00 AM 1.56 34.808 0.066 6.18 5.3 13.07
2/6/2024 3:15:00 AM 1.54 34.772 0.066 6.13 5.97 13.07
2/6/2024 3:30:00 AM 1.52 34.736 0.066 6.18 5.97 13.07
2/6/2024 3:45:00 AM 1.51 34.718 0.065 6.19 5.94 13.07
2/6/2024 4:00:00 AM 1.49 34.682 0.065 6.19 5.54 13.07
2/6/2024 4:15:00 AM 1.47 34.646 0.065 6.13 5.53 13.08
2/6/2024 4:30:00 AM 1.47 34.646 0.065 6.2 5.85 13.08
2/6/2024 4:45:00 AM 1.46 34.628 0.065 6.18 6.32 13.07
2/6/2024 5:00:00 AM 1.45 34.61 0.065 6.11 5.77 13.07
2/6/2024 5:15:00 AM 1.45 34.61 0.065 6.16 5.37 13.06
2/6/2024 5:30:00 AM 1.44 34.592 0.065 6.21 5.52 13.07
2/6/2024 5:45:00 AM 1.43 34.574 0.065 6.21 6.27 13.08
2/6/2024 6:00:00 AM 1.43 34.574 0.065 6.19 5.33 13.08
2/6/2024 6:15:00 AM 1.42 34.556 0.066 6.21 5.15 13.07
2/6/2024 6:30:00 AM 1.43 34.574 0.066 6.12 4.97 13.08
2/6/2024 6:45:00 AM 1.43 34.574 0.066 6.18 5.16 13.09
2/6/2024 7:00:00 AM 1.43 34.574 0.066 6.22 5.06 13.09
2/6/2024 7:15:00 AM 1.4 34.52 0.066 6.19 4.73 13.1
2/6/2024 7:30:00 AM 1.41 34.538 0.066 6.16 4.75 13.1
2/6/2024 7:45:00 AM 1.41 34.538 0.066 6.23 4.63 13.11
2/6/2024 8:00:00 AM 1.42 34.556 0.066 6.23 4.54 13.11
2/6/2024 8:15:00 AM 1.43 34.574 0.066 6.14 5.01 13.11
2/6/2024 8:30:00 AM 1.43 34.574 0.066 6.24 4.54 13.12
2/6/2024 8:45:00 AM 1.43 34.574 0.066 6.24 4.41 13.13
2/6/2024 9:00:00 AM 1.47 34.646 0.066 6.13 4.61 13.15
2/6/2024 9:15:00 AM 1.52 34.736 0.066 6.25 4.44 13.17
2/6/2024 9:30:00 AM 1.57 34.826 0.066 6.22 4.93 13.18
2/6/2024 9:45:00 AM 1.67 35.006 0.066 6.28 5.12 13.21
2/6/2024 10:00:00 AM 1.77 35.186 0.066 6.21 4.63 13.23
2/6/2024 10:15:00 AM 1.91 35.438 0.066 6.32 4.94 13.26
2/6/2024 10:30:00 AM 2.04 35.672 0.065 6.31 4.83 13.29
2/6/2024 10:45:00 AM 2.19 35.942 0.065 6.33 5.08 13.3
2/6/2024 11:00:00 AM 2.35 36.23 0.065 6.27 5.13 13.31
2/6/2024 11:15:00 AM 2.51 36.518 0.065 6.33 5.2 13.34
2/6/2024 11:30:00 AM 2.65 36.77 0.065 6.34 5.08 13.35
2/6/2024 11:45:00 AM 2.81 37.058 0.065 6.34 4.87 13.38
2/6/2024 12:00:00 PM 2.95 37.31 0.065 6.35 4.77 13.39
2/6/2024 12:15:00 PM 3.12 37.616 0.065 6.4 4.58 13.4
2/6/2024 12:30:00 PM 3.23 37.814 0.065 6.41 4.76 13.43
2/6/2024 12:45:00 PM 3.36 38.048 0.065 6.31 4.24 13.44
2/6/2024 1:00:00 PM 3.45 38.21 0.065 6.41 4.6 13.45
2/6/2024 1:15:00 PM 3.55 38.39 0.065 6.42 4.97 13.46
2/6/2024 1:30:00 PM 3.62 38.516 0.065 6.42 4.51 13.48
2/6/2024 1:45:00 PM 3.69 38.642 0.065 6.41 4.51 13.48
2/6/2024 2:00:00 PM 3.75 38.75 0.065 6.43 4.59 13.48
2/6/2024 2:15:00 PM 3.8 38.84 0.065 6.3 4.68 13.49
2/6/2024 2:30:00 PM 3.86 38.948 0.065 6.43 4.54 13.48
2/6/2024 2:45:00 PM 3.9 39.02 0.065 6.43 4.59 13.48
2/6/2024 3:00:00 PM 3.91 39.038 0.065 6.43 4.68 13.48
2/6/2024 3:15:00 PM 3.93 39.074 0.065 6.3 4.62 13.48
2/6/2024 3:30:00 PM 3.91 39.038 0.065 6.43 4.26 13.47
2/6/2024 3:45:00 PM 3.87 38.966 0.066 6.37 4.28 13.47
2/6/2024 4:00:00 PM 3.84 38.912 0.066 6.42 4.62 13.46
2/6/2024 4:15:00 PM 3.81 38.858 0.066 6.4 5.1 13.46
2/6/2024 4:30:00 PM 3.75 38.75 0.066 6.4 4.76 13.45
2/6/2024 4:45:00 PM 3.71 38.678 0.066 6.39 4.45 13.43
2/6/2024 5:00:00 PM 3.62 38.516 0.066 6.39 4.73 13.43
2/6/2024 5:15:00 PM 3.54 38.372 0.066 6.33 4.65 13.43
2/6/2024 5:30:00 PM 3.47 38.246 0.066 6.28 4.85 13.41
2/6/2024 5:45:00 PM 3.37 38.066 0.066 6.36 4.62 13.41
2/6/2024 6:00:00 PM 3.26 37.868 0.066 6.29 4.5 13.4
2/6/2024 6:15:00 PM 3.17 37.706 0.066 6.19 4.82 13.39
2/6/2024 6:30:00 PM 3.09 37.562 0.066 6.3 4.89 13.37
2/6/2024 6:45:00 PM 3.04 37.472 0.066 6.29 4.83 13.35
2/6/2024 7:00:00 PM 2.97 37.346 0.066 6.28 4.67 13.32
2/6/2024 7:15:00 PM 2.89 37.202 0.066 6.23 5.13 13.31
2/6/2024 7:30:00 PM 2.83 37.094 0.066 6.18 5.35 13.28
2/6/2024 7:45:00 PM 2.74 36.932 0.067 6.24 4.62 13.28
2/6/2024 8:00:00 PM 2.67 36.806 0.067 6.21 4.58 13.26
2/6/2024 8:15:00 PM 2.6 36.68 0.067 6.19 4.73 13.24
2/6/2024 8:30:00 PM 2.53 36.554 0.067 6.21 5.04 13.23
2/6/2024 8:45:00 PM 2.45 36.41 0.067 6.12 4.84 13.23
2/6/2024 9:00:00 PM 2.41 36.338 0.067 6.19 5.14 13.2
2/6/2024 9:15:00 PM 2.35 36.23 0.067 6.19 5.19 13.19
2/6/2024 9:30:00 PM 2.3 36.14 0.067 6.18 5.15 13.18
2/6/2024 9:45:00 PM 2.25 36.05 0.067 6.05 5.01 13.16
2/6/2024 10:00:00 PM 2.21 35.978 0.067 6.18 4.81 13.16
2/6/2024 10:15:00 PM 2.17 35.906 0.067 6.17 4.97 13.15
2/6/2024 10:30:00 PM 2.13 35.834 0.067 6.18 5.25 13.13
2/6/2024 10:45:00 PM 2.1 35.78 0.067 6.18 5.42 13.13
2/6/2024 11:00:00 PM 2.07 35.726 0.067 6.18 5.72 13.12
2/6/2024 11:15:00 PM 2.04 35.672 0.067 6.18 5.93 13.12
2/6/2024 11:30:00 PM 2.01 35.618 0.067 6.18 5.69 13.12
2/6/2024 11:45:00 PM 1.97 35.546 0.067 6.11 5.95 13.1
2/7/2024 12:00:00 AM 1.95 35.51 0.067 6.19 5.89 13.1
2/7/2024 12:15:00 AM 1.92 35.456 0.067 6.19 6.01 13.1
2/7/2024 12:30:00 AM 1.88 35.384 0.067 6.07 5.98 13.1
2/7/2024 12:45:00 AM 1.85 35.33 0.067 6.19 6.05 13.1
2/7/2024 1:00:00 AM 1.83 35.294 0.067 6.2 6.42 13.1
2/7/2024 1:15:00 AM 1.81 35.258 0.067 6.1 6.2 13.09
2/7/2024 1:30:00 AM 1.79 35.222 0.067 6.2 5.99 13.1
2/7/2024 1:45:00 AM 1.77 35.186 0.067 6.18 6.11 13.08
2/7/2024 2:00:00 AM 1.75 35.15 0.067 6.09 5.71 13.09
2/7/2024 2:15:00 AM 1.73 35.114 0.067 6.2 6.02 13.08
2/7/2024 2:30:00 AM 1.71 35.078 0.067 6.2 5.89 13.09
2/7/2024 2:45:00 AM 1.7 35.06 0.067 6.13 5.61 13.09
2/7/2024 3:00:00 AM 1.69 35.042 0.067 6.22 5.82 13.09
2/7/2024 3:15:00 AM 1.67 35.006 0.067 6.2 5.79 13.08
2/7/2024 3:30:00 AM 1.66 34.988 0.067 6.22 5.77 13.08
2/7/2024 3:45:00 AM 1.64 34.952 0.067 6.19 5.7 13.08
2/7/2024 4:00:00 AM 1.64 34.952 0.067 6.19 5.95 13.08
2/7/2024 4:15:00 AM 1.63 34.934 0.067 6.17 5.6 13.09
2/7/2024 4:30:00 AM 1.62 34.916 0.067 6.22 5.48 13.08
2/7/2024 4:45:00 AM 1.61 34.898 0.067 6.18 5.68 13.09
2/7/2024 5:00:00 AM 1.6 34.88 0.067 6.23 5.32 13.09
2/7/2024 5:15:00 AM 1.59 34.862 0.067 6.12 5.15 13.09
2/7/2024 5:30:00 AM 1.59 34.862 0.067 6.18 5.48 13.08
2/7/2024 5:45:00 AM 1.57 34.826 0.067 6.22 5.25 13.09
2/7/2024 6:00:00 AM 1.55 34.79 0.067 6.23 5.21 13.09
2/7/2024 6:15:00 AM 1.55 34.79 0.067 6.23 5.07 13.09
2/7/2024 6:30:00 AM 1.54 34.772 0.067 6.23 5.08 13.1
2/7/2024 6:45:00 AM 1.53 34.754 0.067 6.15 4.95 13.09
2/7/2024 7:00:00 AM 1.51 34.718 0.067 6.23 4.88 13.11
2/7/2024 7:15:00 AM 1.5 34.7 0.067 6.23 4.74 13.12
2/7/2024 7:30:00 AM 1.48 34.664 0.067 6.23 4.53 13.11
2/7/2024 7:45:00 AM 1.47 34.646 0.067 6.11 4.58 13.11
2/7/2024 8:00:00 AM 1.47 34.646 0.067 6.24 4.51 13.1
2/7/2024 8:15:00 AM 1.46 34.628 0.067 6.23 4.38 13.11
2/7/2024 8:30:00 AM 1.46 34.628 0.067 6.24 4.34 13.13
2/7/2024 8:45:00 AM 1.46 34.628 0.067 6.14 4.36 13.14
2/7/2024 9:00:00 AM 1.49 34.682 0.067 6.25 4.33 13.14
2/7/2024 9:15:00 AM 1.52 34.736 0.067 6.26 4.35 13.18
2/7/2024 9:30:00 AM 1.59 34.862 0.067 6.25 4.51 13.2
2/7/2024 9:45:00 AM 1.7 35.06 0.067 6.29 4.49 13.23
2/7/2024 10:00:00 AM 1.81 35.258 0.067 6.26 4.27 13.27
2/7/2024 10:15:00 AM 1.95 35.51 0.067 6.33 4.2 13.29
2/7/2024 10:30:00 AM 2.09 35.762 0.067 6.34 4.4 13.32
2/7/2024 10:45:00 AM 2.25 36.05 0.066 6.35 4.48 13.33
2/7/2024 11:00:00 AM 2.41 36.338 0.066 6.36 4.2 13.36
2/7/2024 11:15:00 AM 2.6 36.68 0.066 6.35 4.44 13.4
2/7/2024 11:30:00 AM 2.76 36.968 0.066 6.34 4.33 13.42
2/7/2024 11:45:00 AM 2.96 37.328 0.066 6.41 4.48 13.43
2/7/2024 12:00:00 PM 3.11 37.598 0.066 6.41 7.76 13.46
2/7/2024 12:15:00 PM 3.27 37.886 0.066 6.42 5.44 13.45
2/7/2024 12:30:00 PM 3.41 38.138 0.066 6.34 5.22 13.47
2/7/2024 12:45:00 PM 3.54 38.372 0.066 6.45 4.83 13.49
2/7/2024 1:00:00 PM 3.68 38.624 0.066 6.45 4.65 13.49
2/7/2024 1:15:00 PM 3.78 38.804 0.066 6.43 4.55 13.51
2/7/2024 1:30:00 PM 3.88 38.984 0.066 6.45 4.63 13.51
2/7/2024 1:45:00 PM 3.92 39.056 0.066 6.34 4.73 13.52
2/7/2024 2:00:00 PM 3.99 39.182 0.066 6.46 4.64 13.53
2/7/2024 2:15:00 PM 4.02 39.236 0.066 6.33 4.66 13.53
2/7/2024 2:30:00 PM 4.06 39.308 0.066 6.46 4.64 13.54
2/7/2024 2:45:00 PM 4.11 39.398 0.066 6.44 4.62 13.55
2/7/2024 3:00:00 PM 4.12 39.416 0.066 6.45 4.52 13.56
2/7/2024 3:15:00 PM 4.17 39.506 0.066 6.43 4.71 13.55
2/7/2024 3:30:00 PM 4.15 39.47 0.066 6.44 4.67 13.55
2/7/2024 3:45:00 PM 4.09 39.362 0.066 6.42 4.62 13.56
2/7/2024 4:00:00 PM 4.16 39.488 0.066 6.43 4.83 13.54
2/7/2024 4:15:00 PM 4.19 39.542 0.066 6.32 4.75 13.54
2/7/2024 4:30:00 PM 4.17 39.506 0.066 6.43 4.77 13.53
2/7/2024 4:45:00 PM 4.13 39.434 0.066 6.37 4.81 13.52
2/7/2024 5:00:00 PM 4.12 39.416 0.067 6.4 4.56 13.51
2/7/2024 5:15:00 PM 4.05 39.29 0.067 6.4 4.37 13.5
2/7/2024 5:30:00 PM 4.02 39.236 0.067 6.39 4.31 13.48
2/7/2024 5:45:00 PM 3.91 39.038 0.067 6.39 4.24 13.46
2/7/2024 6:00:00 PM 3.82 38.876 0.067 6.37 4.26 13.46
2/7/2024 6:15:00 PM 3.73 38.714 0.067 6.35 4.42 13.44
2/7/2024 6:30:00 PM 3.65 38.57 0.067 6.27 4.28 13.43
2/7/2024 6:45:00 PM 3.58 38.444 0.067 6.23 4.58 13.39
2/7/2024 7:00:00 PM 3.48 38.264 0.067 6.22 4.75 13.38
2/7/2024 7:15:00 PM 3.38 38.084 0.067 6.26 4.96 13.35
2/7/2024 7:30:00 PM 3.31 37.958 0.067 6.27 5.05 13.33
2/7/2024 7:45:00 PM 3.23 37.814 0.067 6.19 4.94 13.31
2/7/2024 8:00:00 PM 3.16 37.688 0.067 6.25 4.85 13.29
2/7/2024 8:15:00 PM 3.11 37.598 0.068 6.24 4.85 13.27
2/7/2024 8:30:00 PM 3.03 37.454 0.068 6.23 5.21 13.26
2/7/2024 8:45:00 PM 2.97 37.346 0.068 6.23 5.35 13.24
2/7/2024 9:00:00 PM 2.92 37.256 0.068 6.22 5.2 13.22
2/7/2024 9:15:00 PM 2.86 37.148 0.068 6.1 5.38 13.21
2/7/2024 9:30:00 PM 2.8 37.04 0.068 6.21 6.03 13.19
2/7/2024 9:45:00 PM 2.74 36.932 0.068 6.18 5.63 13.18
2/7/2024 10:00:00 PM 2.69 36.842 0.068 6.19 5.61 13.16
2/7/2024 10:15:00 PM 2.65 36.77 0.068 6.19 5.58 13.14
2/7/2024 10:30:00 PM 2.61 36.698 0.068 6.07 5.8 13.14
2/7/2024 10:45:00 PM 2.58 36.644 0.068 6.15 5.7 13.12
2/7/2024 11:00:00 PM 2.57 36.626 0.069 6.2 5.81 13.09
2/7/2024 11:15:00 PM 2.54 36.572 0.069 6.2 6.07 13.09
2/7/2024 11:30:00 PM 2.51 36.518 0.069 6.2 5.83 13.07
2/7/2024 11:45:00 PM 2.49 36.482 0.069 6.1 5.85 13.07
2/8/2024 12:00:00 AM 2.46 36.428 0.069 6.21 5.91 13.06
2/8/2024 12:15:00 AM 2.44 36.392 0.069 6.21 5.66 13.05
2/8/2024 12:30:00 AM 2.42 36.356 0.069 6.22 5.84 13.05
2/8/2024 12:45:00 AM 2.41 36.338 0.069 6.19 6.32 13.04
2/8/2024 1:00:00 AM 2.39 36.302 0.068 6.23 6.14 13.04
2/8/2024 1:15:00 AM 2.38 36.284 0.068 6.15 6.29 13.03
2/8/2024 1:30:00 AM 2.36 36.248 0.068 6.18 6.07 13.03
2/8/2024 1:45:00 AM 2.35 36.23 0.068 6.19 5.71 13.03
2/8/2024 2:00:00 AM 2.33 36.194 0.068 6.24 5.72 13.03
2/8/2024 2:15:00 AM 2.31 36.158 0.068 6.15 5.47 13.03
2/8/2024 2:30:00 AM 2.29 36.122 0.068 6.24 5.9 13.04
2/8/2024 2:45:00 AM 2.28 36.104 0.068 6.24 5.89 13.04
2/8/2024 3:00:00 AM 2.27 36.086 0.068 6.24 5.94 13.03
2/8/2024 3:15:00 AM 2.25 36.05 0.068 6.24 6.21 13.03
2/8/2024 3:30:00 AM 2.22 35.996 0.068 6.24 5.75 13.03
2/8/2024 3:45:00 AM 2.21 35.978 0.068 6.24 6.25 13.03
2/8/2024 4:00:00 AM 2.18 35.924 0.068 6.25 5.78 13.03
2/8/2024 4:15:00 AM 2.16 35.888 0.068 6.14 5.77 13.01
2/8/2024 4:30:00 AM 2.14 35.852 0.068 6.19 6.15 13.01
2/8/2024 4:45:00 AM 2.12 35.816 0.068 6.24 6.57 13.01
2/8/2024 5:00:00 AM 2.12 35.816 0.068 6.24 6.19 13.01
2/8/2024 5:15:00 AM 2.09 35.762 0.068 6.14 5.93 13
2/8/2024 5:30:00 AM 2.09 35.762 0.068 6.19 5.31 12.98
2/8/2024 5:45:00 AM 2.06 35.708 0.068 6.19 5.8 12.99
2/8/2024 6:00:00 AM 2.04 35.672 0.068 6.24 5.48 12.97
2/8/2024 6:15:00 AM 2.02 35.636 0.068 6.15 5.75 12.97
2/8/2024 6:30:00 AM 2 35.6 0.068 6.21 5.54 12.97
2/8/2024 6:45:00 AM 1.99 35.582 0.068 6.18 5.6 12.95
2/8/2024 7:00:00 AM 1.97 35.546 0.068 6.19 5.58 12.96
2/8/2024 7:15:00 AM 1.95 35.51 0.068 6.19 5.4 12.94
2/8/2024 7:30:00 AM 1.94 35.492 0.068 6.23 5.55 12.93
2/8/2024 7:45:00 AM 1.92 35.456 0.068 6.23 5.06 12.95
2/8/2024 8:00:00 AM 1.91 35.438 0.068 6.23 5.01 12.96
2/8/2024 8:15:00 AM 1.9 35.42 0.068 6.23 4.85 12.98
2/8/2024 8:30:00 AM 1.89 35.402 0.068 6.19 4.83 12.97
2/8/2024 8:45:00 AM 1.89 35.402 0.068 6.24 4.64 13
2/8/2024 9:00:00 AM 1.91 35.438 0.068 6.26 4.63 13.02
2/8/2024 9:15:00 AM 1.95 35.51 0.068 6.27 4.75 13.04
2/8/2024 9:30:00 AM 2 35.6 0.068 6.27 4.63 13.06
2/8/2024 9:45:00 AM 2.1 35.78 0.068 6.3 4.8 13.09
2/8/2024 10:00:00 AM 2.21 35.978 0.068 6.32 4.67 13.12
2/8/2024 10:15:00 AM 2.35 36.23 0.068 6.23 4.72 13.15
2/8/2024 10:30:00 AM 2.5 36.5 0.068 6.35 4.56 13.19
2/8/2024 10:45:00 AM 2.65 36.77 0.068 6.29 4.61 13.21
2/8/2024 11:00:00 AM 2.82 37.076 0.068 6.34 4.56 13.24
2/8/2024 11:15:00 AM 3 37.4 0.068 6.36 4.88 13.26
2/8/2024 11:30:00 AM 3.16 37.688 0.068 6.41 4.57 13.3
2/8/2024 11:45:00 AM 3.34 38.012 0.067 6.42 4.83 13.3
2/8/2024 12:00:00 PM 3.5 38.3 0.067 6.42 4.7 13.31
2/8/2024 12:15:00 PM 3.64 38.552 0.067 6.34 4.56 13.34
2/8/2024 12:30:00 PM 3.76 38.768 0.067 6.45 4.68 13.37
2/8/2024 12:45:00 PM 3.9 39.02 0.067 6.46 4.59 13.36
2/8/2024 1:00:00 PM 4 39.2 0.067 6.45 4.48 13.39
2/8/2024 1:15:00 PM 4.09 39.362 0.067 6.47 4.72 13.39
2/8/2024 1:30:00 PM 4.19 39.542 0.067 6.47 4.73 13.4
2/8/2024 1:45:00 PM 4.28 39.704 0.067 6.47 4.53 13.39
2/8/2024 2:00:00 PM 4.3 39.74 0.067 6.46 4.56 13.42
2/8/2024 2:15:00 PM 4.38 39.884 0.067 6.47 4.72 13.41
2/8/2024 2:30:00 PM 4.41 39.938 0.067 6.47 4.65 13.44
2/8/2024 2:45:00 PM 4.42 39.956 0.067 6.35 4.47 13.46
2/8/2024 3:00:00 PM 4.41 39.938 0.067 6.47 4.55 13.48
2/8/2024 3:15:00 PM 4.43 39.974 0.067 6.45 4.44 13.51
2/8/2024 3:30:00 PM 4.42 39.956 0.067 6.45 4.41 13.5
2/8/2024 3:45:00 PM 4.45 40.01 0.067 6.36 4.35 13.51
2/8/2024 4:00:00 PM 4.45 40.01 0.067 6.46 4.52 13.52
2/8/2024 4:15:00 PM 4.48 40.064 0.067 6.44 4.45 13.51
2/8/2024 4:30:00 PM 4.49 40.082 0.067 6.33 4.28 13.51
2/8/2024 4:45:00 PM 4.5 40.1 0.067 6.45 4.43 13.52
2/8/2024 5:00:00 PM 4.48 40.064 0.067 6.32 4.41 13.51
2/8/2024 5:15:00 PM 4.42 39.956 0.067 6.44 4.46 13.49
2/8/2024 5:30:00 PM 4.35 39.83 0.067 6.41 4.44 13.48
2/8/2024 5:45:00 PM 4.24 39.632 0.067 6.31 4.41 13.49
2/8/2024 6:00:00 PM 4.16 39.488 0.067 6.4 4.43 13.45
2/8/2024 6:15:00 PM 4.01 39.218 0.067 6.28 4.42 13.46
2/8/2024 6:30:00 PM 3.94 39.092 0.067 6.31 4.49 13.42
2/8/2024 6:45:00 PM 3.88 38.984 0.067 6.3 4.4 13.39
2/8/2024 7:00:00 PM 3.79 38.822 0.067 6.29 4.46 13.36
2/8/2024 7:15:00 PM 3.73 38.714 0.068 6.32 4.57 13.34
2/8/2024 7:30:00 PM 3.62 38.516 0.068 6.2 4.7 13.32
2/8/2024 7:45:00 PM 3.56 38.408 0.068 6.24 4.71 13.3
2/8/2024 8:00:00 PM 3.5 38.3 0.068 6.24 4.91 13.27
2/8/2024 8:15:00 PM 3.43 38.174 0.068 6.28 4.94 13.26
2/8/2024 8:30:00 PM 3.37 38.066 0.068 6.16 4.84 13.24
2/8/2024 8:45:00 PM 3.34 38.012 0.068 6.26 5.15 13.21
2/8/2024 9:00:00 PM 3.31 37.958 0.068 6.25 5.32 13.18
2/8/2024 9:15:00 PM 3.25 37.85 0.068 6.25 5.34 13.17
2/8/2024 9:30:00 PM 3.21 37.778 0.068 6.24 5.55 13.15
2/8/2024 9:45:00 PM 3.17 37.706 0.068 6.23 5.89 13.12
2/8/2024 10:00:00 PM 3.15 37.67 0.068 6.13 5.66 13.11
2/8/2024 10:15:00 PM 3.09 37.562 0.068 6.24 5.76 13.09
2/8/2024 10:30:00 PM 3.05 37.49 0.068 6.22 5.7 13.06
2/8/2024 10:45:00 PM 3.01 37.418 0.068 6.14 5.68 13.05
2/8/2024 11:00:00 PM 2.98 37.364 0.068 6.19 5.73 13.03
2/8/2024 11:15:00 PM 2.95 37.31 0.068 6.18 5.85 13.01
2/8/2024 11:30:00 PM 2.9 37.22 0.068 6.19 5.73 13.02
2/8/2024 11:45:00 PM 2.87 37.166 0.068 6.18 5.83 13
2/9/2024 12:00:00 AM 2.84 37.112 0.068 6.21 5.96 12.98
2/9/2024 12:15:00 AM 2.81 37.058 0.068 6.16 6.12 12.97
2/9/2024 12:30:00 AM 2.77 36.986 0.068 6.23 5.99 12.98
2/9/2024 12:45:00 AM 2.73 36.914 0.068 6.18 5.98 12.97
2/9/2024 1:00:00 AM 2.71 36.878 0.068 6.2 5.87 12.97
2/9/2024 1:15:00 AM 2.7 36.86 0.068 6.21 6 12.95
2/9/2024 1:30:00 AM 2.68 36.824 0.068 6.18 6.01 12.95
2/9/2024 1:45:00 AM 2.66 36.788 0.068 6.2 6.16 12.95
2/9/2024 2:00:00 AM 2.66 36.788 0.068 6.21 6.11 12.95
2/9/2024 2:15:00 AM 2.66 36.788 0.068 6.21 6.28 12.93
2/9/2024 2:30:00 AM 2.66 36.788 0.068 6.26 6.24 12.94
2/9/2024 2:45:00 AM 2.66 36.788 0.068 6.26 6.16 12.92
2/9/2024 3:00:00 AM 2.66 36.788 0.068 6.26 6.14 12.9
2/9/2024 3:15:00 AM 2.66 36.788 0.068 6.26 6.24 12.9
2/9/2024 3:30:00 AM 2.66 36.788 0.068 6.27 6.1 12.88
2/9/2024 3:45:00 AM 2.66 36.788 0.068 6.27 5.9 12.88
2/9/2024 4:00:00 AM 2.65 36.77 0.068 6.16 6.16 12.89
2/9/2024 4:15:00 AM 2.64 36.752 0.068 6.28 6.08 12.88
2/9/2024 4:30:00 AM 2.63 36.734 0.068 6.28 6.16 12.88
2/9/2024 4:45:00 AM 2.63 36.734 0.068 6.18 6.29 12.87
2/9/2024 5:00:00 AM 2.63 36.734 0.068 6.24 6.05 12.87
2/9/2024 5:15:00 AM 2.62 36.716 0.068 6.24 5.9 12.87
2/9/2024 5:30:00 AM 2.62 36.716 0.068 6.25 6.13 12.85
2/9/2024 5:45:00 AM 2.62 36.716 0.067 6.25 5.92 12.84
2/9/2024 6:00:00 AM 2.63 36.734 0.067 6.29 5.86 12.83
2/9/2024 6:15:00 AM 2.64 36.752 0.067 6.25 5.93 12.82
2/9/2024 6:30:00 AM 2.64 36.752 0.067 6.29 5.91 12.82
2/9/2024 6:45:00 AM 2.65 36.77 0.067 6.29 6.03 12.81
2/9/2024 7:00:00 AM 2.65 36.77 0.068 6.23 5.92 12.8
2/9/2024 7:15:00 AM 2.66 36.788 0.068 6.3 5.87 12.8
2/9/2024 7:30:00 AM 2.66 36.788 0.068 6.3 5.55 12.78
2/9/2024 7:45:00 AM 2.66 36.788 0.068 6.19 5.9 12.8
2/9/2024 8:00:00 AM 2.65 36.77 0.068 6.26 5.6 12.81
2/9/2024 8:15:00 AM 2.65 36.77 0.068 6.25 5.41 12.79
2/9/2024 8:30:00 AM 2.64 36.752 0.068 6.25 5.2 12.81
2/9/2024 8:45:00 AM 2.64 36.752 0.068 6.29 5.08 12.81
2/9/2024 9:00:00 AM 2.67 36.806 0.068 6.26 4.94 12.84
2/9/2024 9:15:00 AM 2.69 36.842 0.068 6.24 5.22 12.84
2/9/2024 9:30:00 AM 2.71 36.878 0.068 6.31 4.79 12.84
2/9/2024 9:45:00 AM 2.78 37.004 0.068 6.3 4.72 12.9
2/9/2024 10:00:00 AM 2.84 37.112 0.068 6.33 4.84 12.92
2/9/2024 10:15:00 AM 2.92 37.256 0.068 6.25 4.74 12.92
2/9/2024 10:30:00 AM 3.02 37.436 0.068 6.36 4.82 12.96
2/9/2024 10:45:00 AM 3.11 37.598 0.068 6.33 4.66 12.99
2/9/2024 11:00:00 AM 3.21 37.778 0.068 6.33 4.44 13.01
2/9/2024 11:15:00 AM 3.32 37.976 0.068 6.34 4.36 13.02
2/9/2024 11:30:00 AM 3.45 38.21 0.069 6.4 4.5 13.05
2/9/2024 11:45:00 AM 3.56 38.408 0.068 6.34 4.45 13.1
2/9/2024 12:00:00 PM 3.64 38.552 0.068 6.42 4.45 13.13
2/9/2024 12:15:00 PM 3.71 38.678 0.068 6.33 4.32 13.14
2/9/2024 12:30:00 PM 3.82 38.876 0.068 6.39 4.3 13.19
2/9/2024 12:45:00 PM 3.97 39.146 0.068 6.4 4.16 13.22
2/9/2024 1:00:00 PM 4.09 39.362 0.068 6.42 4.42 13.23
2/9/2024 1:15:00 PM 4.21 39.578 0.068 6.44 4.4 13.22
2/9/2024 1:30:00 PM 4.29 39.722 0.068 6.42 4.4 13.23
2/9/2024 1:45:00 PM 4.34 39.812 0.068 6.43 4.53 13.26
2/9/2024 2:00:00 PM 4.38 39.884 0.068 6.44 4.41 13.28
2/9/2024 2:15:00 PM 4.49 40.082 0.068 6.47 4.77 13.26
2/9/2024 2:30:00 PM 4.55 40.19 0.068 6.48 4.58 13.26
2/9/2024 2:45:00 PM 4.6 40.28 0.068 6.38 4.54 13.29
2/9/2024 3:00:00 PM 4.66 40.388 0.068 6.47 4.41 13.3
2/9/2024 3:15:00 PM 4.71 40.478 0.068 6.43 4.54 13.32
2/9/2024 3:30:00 PM 4.73 40.514 0.068 6.49 4.37 13.35
2/9/2024 3:45:00 PM 4.78 40.604 0.068 6.45 4.72 13.35
2/9/2024 4:00:00 PM 4.79 40.622 0.068 6.43 4.54 13.34
2/9/2024 4:15:00 PM 4.79 40.622 0.068 6.45 4.58 13.36
2/9/2024 4:30:00 PM 4.79 40.622 0.068 6.5 4.38 13.35
2/9/2024 4:45:00 PM 4.74 40.532 0.068 6.44 4.46 13.34
2/9/2024 5:00:00 PM 4.65 40.37 0.068 6.42 4.65 13.34
2/9/2024 5:15:00 PM 4.59 40.262 0.068 6.47 4.48 13.33
2/9/2024 5:30:00 PM 4.52 40.136 0.068 6.35 4.46 13.33
2/9/2024 5:45:00 PM 4.47 40.046 0.068 6.4 4.28 13.31
2/9/2024 6:00:00 PM 4.43 39.974 0.068 6.44 4.43 13.29
2/9/2024 6:15:00 PM 4.36 39.848 0.068 6.33 4.47 13.29
2/9/2024 6:30:00 PM 4.32 39.776 0.068 6.41 4.49 13.25
2/9/2024 6:45:00 PM 4.22 39.596 0.068 6.38 4.54 13.24
2/9/2024 7:00:00 PM 4.16 39.488 0.068 6.38 4.65 13.21
2/9/2024 7:15:00 PM 4.09 39.362 0.068 6.25 4.89 13.18
2/9/2024 7:30:00 PM 4.01 39.218 0.068 6.35 4.96 13.16
2/9/2024 7:45:00 PM 3.93 39.074 0.068 6.28 4.53 13.13
2/9/2024 8:00:00 PM 3.86 38.948 0.068 6.27 4.95 13.11
2/9/2024 8:15:00 PM 3.81 38.858 0.068 6.32 4.89 13.09
2/9/2024 8:30:00 PM 3.77 38.786 0.068 6.26 4.93 13.05
2/9/2024 8:45:00 PM 3.7 38.66 0.068 6.28 5.06 13.03
2/9/2024 9:00:00 PM 3.63 38.534 0.068 6.27 4.8 13.01
2/9/2024 9:15:00 PM 3.55 38.39 0.068 6.19 4.92 13
2/9/2024 9:30:00 PM 3.51 38.318 0.068 6.22 5.13 12.97
2/9/2024 9:45:00 PM 3.48 38.264 0.068 6.24 5.22 12.95
2/9/2024 10:00:00 PM 3.44 38.192 0.068 6.25 5.54 12.93
2/9/2024 10:15:00 PM 3.42 38.156 0.068 6.18 5.34 12.9
2/9/2024 10:30:00 PM 3.41 38.138 0.069 6.22 5.77 12.87
2/9/2024 10:45:00 PM 3.37 38.066 0.069 6.26 5.59 12.84
2/9/2024 11:00:00 PM 3.32 37.976 0.069 6.25 5.74 12.82
2/9/2024 11:15:00 PM 3.3 37.94 0.069 6.24 5.57 12.79
2/9/2024 11:30:00 PM 3.26 37.868 0.069 6.15 5.56 12.77
2/9/2024 11:45:00 PM 3.23 37.814 0.069 6.25 5.79 12.75
2/10/2024 12:00:00 AM 3.2 37.76 0.069 6.24 5.88 12.74
2/10/2024 12:15:00 AM 3.16 37.688 0.069 6.24 5.99 12.74
2/10/2024 12:30:00 AM 3.13 37.634 0.069 6.12 5.71 12.72
2/10/2024 12:45:00 AM 3.1 37.58 0.069 6.2 5.96 12.72
2/10/2024 1:00:00 AM 3.07 37.526 0.069 6.24 5.98 12.71
2/10/2024 1:15:00 AM 3.04 37.472 0.069 6.15 5.75 12.7
2/10/2024 1:30:00 AM 3 37.4 0.069 6.24 5.76 12.69
2/10/2024 1:45:00 AM 2.97 37.346 0.069 6.24 5.61 12.7
2/10/2024 2:00:00 AM 2.95 37.31 0.069 6.15 5.85 12.69
2/10/2024 2:15:00 AM 2.92 37.256 0.068 6.2 5.47 12.69
2/10/2024 2:30:00 AM 2.89 37.202 0.068 6.22 5.64 12.69
2/10/2024 2:45:00 AM 2.85 37.13 0.068 6.2 5.6 12.7
2/10/2024 3:00:00 AM 2.82 37.076 0.068 6.21 6.05 12.69
2/10/2024 3:15:00 AM 2.79 37.022 0.068 6.25 6.09 12.69
2/10/2024 3:30:00 AM 2.77 36.986 0.068 6.24 5.93 12.7
2/10/2024 3:45:00 AM 2.76 36.968 0.068 6.17 5.86 12.68
2/10/2024 4:00:00 AM 2.74 36.932 0.068 6.25 5.76 12.7
2/10/2024 4:15:00 AM 2.72 36.896 0.068 6.17 5.89 12.7
2/10/2024 4:30:00 AM 2.71 36.878 0.068 6.22 5.92 12.69
2/10/2024 4:45:00 AM 2.7 36.86 0.068 6.23 5.97 12.69
2/10/2024 5:00:00 AM 2.7 36.86 0.068 6.27 5.59 12.68
2/10/2024 5:15:00 AM 2.7 36.86 0.068 6.27 5.76 12.67
2/10/2024 5:30:00 AM 2.69 36.842 0.068 6.27 5.53 12.68
2/10/2024 5:45:00 AM 2.68 36.824 0.068 6.18 5.53 12.66
2/10/2024 6:00:00 AM 2.66 36.788 0.068 6.23 5.63 12.67
2/10/2024 6:15:00 AM 2.66 36.788 0.068 6.24 5.25 12.67
2/10/2024 6:30:00 AM 2.64 36.752 0.068 6.27 5.22 12.65
2/10/2024 6:45:00 AM 2.64 36.752 0.068 6.27 5.56 12.64
2/10/2024 7:00:00 AM 2.63 36.734 0.068 6.28 5.37 12.62
2/10/2024 7:15:00 AM 2.62 36.716 0.068 6.28 5.38 12.62
2/10/2024 7:30:00 AM 2.63 36.734 0.068 6.28 5.48 12.6
2/10/2024 7:45:00 AM 2.63 36.734 0.068 6.3 5.34 12.62
2/10/2024 8:00:00 AM 2.63 36.734 0.068 6.29 5.12 12.61
2/10/2024 8:15:00 AM 2.63 36.734 0.068 6.27 4.97 12.61
2/10/2024 8:30:00 AM 2.63 36.734 0.068 6.2 5.01 12.59
2/10/2024 8:45:00 AM 2.66 36.788 0.068 6.26 4.77 12.61
2/10/2024 9:00:00 AM 2.69 36.842 0.067 6.29 4.78 12.63
2/10/2024 9:15:00 AM 2.73 36.914 0.067 6.32 4.75 12.64
2/10/2024 9:30:00 AM 2.8 37.04 0.067 6.31 4.79 12.68
2/10/2024 9:45:00 AM 2.91 37.238 0.067 6.35 4.64 12.71
2/10/2024 10:00:00 AM 3 37.4 0.067 6.38 4.56 12.73
2/10/2024 10:15:00 AM 3.12 37.616 0.067 6.38 4.79 12.76
2/10/2024 10:30:00 AM 3.24 37.832 0.067 6.4 4.79 12.78
2/10/2024 10:45:00 AM 3.35 38.03 0.067 6.3 4.77 12.8
2/10/2024 11:00:00 AM 3.47 38.246 0.067 6.42 4.83 12.81
2/10/2024 11:15:00 AM 3.61 38.498 0.067 6.34 4.62 12.85
2/10/2024 11:30:00 AM 3.75 38.75 0.067 6.44 4.79 12.87
2/10/2024 11:45:00 AM 3.88 38.984 0.067 6.36 4.67 12.88
2/10/2024 12:00:00 PM 4 39.2 0.067 6.42 4.75 12.89
2/10/2024 12:15:00 PM 4.12 39.416 0.067 6.47 4.67 12.9
2/10/2024 12:30:00 PM 4.23 39.614 0.067 6.47 4.79 12.92
2/10/2024 12:45:00 PM 4.31 39.758 0.067 6.48 4.74 12.95
2/10/2024 1:00:00 PM 4.39 39.902 0.067 6.46 4.66 12.98
2/10/2024 1:15:00 PM 4.4 39.92 0.067 6.49 4.53 13
2/10/2024 1:30:00 PM 4.5 40.1 0.067 6.38 4.51 13.01
2/10/2024 1:45:00 PM 4.57 40.226 0.067 6.44 4.63 13.01
2/10/2024 2:00:00 PM 4.65 40.37 0.067 6.45 4.69 13.02
2/10/2024 2:15:00 PM 4.71 40.478 0.067 6.47 4.56 13.06
2/10/2024 2:30:00 PM 4.8 40.64 0.067 6.51 4.76 13.08
2/10/2024 2:45:00 PM 4.86 40.748 0.068 6.5 4.62 13.09
2/10/2024 3:00:00 PM 4.89 40.802 0.068 6.41 4.61 13.1
2/10/2024 3:15:00 PM 4.93 40.874 0.068 6.51 4.46 13.11
2/10/2024 3:30:00 PM 4.93 40.874 0.068 6.51 4.33 13.12
2/10/2024 3:45:00 PM 4.95 40.91 0.068 6.38 4.45 13.14
2/10/2024 4:00:00 PM 4.94 40.892 0.068 6.46 5.28 13.12
2/10/2024 4:15:00 PM 4.94 40.892 0.068 6.47 4.87 13.11
2/10/2024 4:30:00 PM 4.96 40.928 0.068 6.45 5.19 13.07
2/10/2024 4:45:00 PM 4.99 40.982 0.068 6.45 4.98 13.04
2/10/2024 5:00:00 PM 5.01 41.018 0.068 6.45 5.72 12.99
2/10/2024 5:15:00 PM 4.85 40.73 0.069 6.48 5.6 12.99
2/10/2024 5:30:00 PM 4.77 40.586 0.069 6.47 5.86 12.96
2/10/2024 5:45:00 PM 4.74 40.532 0.069 6.4 5.78 12.9
2/10/2024 6:00:00 PM 4.68 40.424 0.069 6.41 5.03 12.9
2/10/2024 6:15:00 PM 4.64 40.352 0.069 6.37 5.16 12.88
2/10/2024 6:30:00 PM 4.59 40.262 0.069 6.37 5.44 12.89
2/10/2024 6:45:00 PM 4.54 40.172 0.069 6.4 5.16 12.88
2/10/2024 7:00:00 PM 4.47 40.046 0.069 6.27 5.22 12.87
2/10/2024 7:15:00 PM 4.41 39.938 0.069 6.37 5.27 12.84
2/10/2024 7:30:00 PM 4.35 39.83 0.069 6.34 5.22 12.81
2/10/2024 7:45:00 PM 4.29 39.722 0.069 6.32 5.11 12.8
2/10/2024 8:00:00 PM 4.23 39.614 0.069 6.31 4.98 12.78
2/10/2024 8:15:00 PM 4.16 39.488 0.069 6.25 5.52 12.77
2/10/2024 8:30:00 PM 4.11 39.398 0.069 6.31 5.65 12.76
2/10/2024 8:45:00 PM 4.06 39.308 0.069 6.3 5.61 12.72
2/10/2024 9:00:00 PM 4.01 39.218 0.069 6.18 5.71 12.71
2/10/2024 9:15:00 PM 3.96 39.128 0.069 6.24 5.69 12.69
2/10/2024 9:30:00 PM 3.91 39.038 0.069 6.23 5.97 12.67
2/10/2024 9:45:00 PM 3.86 38.948 0.069 6.25 5.98 12.66
2/10/2024 10:00:00 PM 3.82 38.876 0.07 6.25 5.87 12.64
2/10/2024 10:15:00 PM 3.77 38.786 0.07 6.21 5.94 12.63
2/10/2024 10:30:00 PM 3.71 38.678 0.07 6.21 5.95 12.63
2/10/2024 10:45:00 PM 3.67 38.606 0.07 6.25 5.99 12.61
2/10/2024 11:00:00 PM 3.62 38.516 0.07 6.16 5.95 12.61
2/10/2024 11:15:00 PM 3.57 38.426 0.07 6.2 5.83 12.62
2/10/2024 11:30:00 PM 3.56 38.408 0.07 6.24 5.99 12.6
2/10/2024 11:45:00 PM 3.54 38.372 0.07 6.21 5.79 12.59
2/11/2024 12:00:00 AM 3.53 38.354 0.07 6.25 6.4 12.59
2/11/2024 12:15:00 AM 3.51 38.318 0.07 6.16 6.52 12.58
2/11/2024 12:30:00 AM 3.5 38.3 0.071 6.22 6.63 12.55
2/11/2024 12:45:00 AM 3.48 38.264 0.071 6.21 6.34 12.56
2/11/2024 1:00:00 AM 3.45 38.21 0.071 6.26 6.52 12.56
2/11/2024 1:15:00 AM 3.42 38.156 0.071 6.17 6.13 12.57
2/11/2024 1:30:00 AM 3.41 38.138 0.071 6.26 6.47 12.59
2/11/2024 1:45:00 AM 3.39 38.102 0.071 6.23 5.61 12.6
2/11/2024 2:00:00 AM 3.36 38.048 0.071 6.25 5.46 12.6
2/11/2024 2:15:00 AM 3.33 37.994 0.071 6.23 5.5 12.6
2/11/2024 2:30:00 AM 3.3 37.94 0.071 6.25 5.96 12.61
2/11/2024 2:45:00 AM 3.28 37.904 0.07 6.27 6.24 12.61
2/11/2024 3:00:00 AM 3.27 37.886 0.07 6.25 6.14 12.57
2/11/2024 3:15:00 AM 3.27 37.886 0.07 6.28 6.05 12.55
2/11/2024 3:30:00 AM 3.26 37.868 0.07 6.18 6.03 12.55
2/11/2024 3:45:00 AM 3.26 37.868 0.07 6.25 5.97 12.54
2/11/2024 4:00:00 AM 3.26 37.868 0.069 6.25 6.08 12.52
2/11/2024 4:15:00 AM 3.26 37.868 0.069 6.26 6.22 12.52
2/11/2024 4:30:00 AM 3.26 37.868 0.069 6.28 6.15 12.52
2/11/2024 4:45:00 AM 3.25 37.85 0.069 6.3 6.2 12.51
2/11/2024 5:00:00 AM 3.26 37.868 0.069 6.28 6.44 12.48
2/11/2024 5:15:00 AM 3.26 37.868 0.069 6.21 6.45 12.49
2/11/2024 5:30:00 AM 3.25 37.85 0.069 6.26 6.54 12.48
2/11/2024 5:45:00 AM 3.23 37.814 0.069 6.26 6.76 12.45
2/11/2024 6:00:00 AM 3.22 37.796 0.068 6.26 6.17 12.45
2/11/2024 6:15:00 AM 3.2 37.76 0.068 6.28 6.14 12.45
2/11/2024 6:30:00 AM 3.18 37.724 0.068 6.3 6.41 12.44
2/11/2024 6:45:00 AM 3.16 37.688 0.068 6.19 6.25 12.44
2/11/2024 7:00:00 AM 3.15 37.67 0.068 6.27 6.25 12.47
2/11/2024 7:15:00 AM 3.12 37.616 0.068 6.3 6.62 12.47
2/11/2024 7:30:00 AM 3.1 37.58 0.068 6.19 6.82 12.49
2/11/2024 7:45:00 AM 3.08 37.544 0.068 6.29 6.32 12.49
2/11/2024 8:00:00 AM 3.06 37.508 0.068 6.29 6.14 12.48
2/11/2024 8:15:00 AM 3.06 37.508 0.068 6.29 5.84 12.5
2/11/2024 8:30:00 AM 3.06 37.508 0.068 6.2 5.97 12.5
2/11/2024 8:45:00 AM 3.06 37.508 0.068 6.26 5.51 12.52
2/11/2024 9:00:00 AM 3.08 37.544 0.068 6.31 5.69 12.54
2/11/2024 9:15:00 AM 3.11 37.598 0.068 6.32 5.41 12.57
2/11/2024 9:30:00 AM 3.16 37.688 0.069 6.22 5.19 12.6
2/11/2024 9:45:00 AM 3.2 37.76 0.069 6.3 5.64 12.65
2/11/2024 10:00:00 AM 3.24 37.832 0.069 6.31 5.4 12.69
2/11/2024 10:15:00 AM 3.28 37.904 0.069 6.36 5.15 12.73
2/11/2024 10:30:00 AM 3.33 37.994 0.069 6.37 5.16 12.76
2/11/2024 10:45:00 AM 3.39 38.102 0.069 6.38 5 12.82
2/11/2024 11:00:00 AM 3.42 38.156 0.069 6.29 4.92 12.83
2/11/2024 11:15:00 AM 3.46 38.228 0.069 6.41 4.91 12.87
2/11/2024 11:30:00 AM 3.5 38.3 0.069 6.31 5.11 12.9
2/11/2024 11:45:00 AM 3.55 38.39 0.069 6.37 4.8 12.93
2/11/2024 12:00:00 PM 3.59 38.462 0.069 6.4 5.02 12.97
2/11/2024 12:15:00 PM 3.64 38.552 0.069 6.42 5.07 12.99
2/11/2024 12:30:00 PM 3.68 38.624 0.069 6.37 4.99 13.03
2/11/2024 12:45:00 PM 3.73 38.714 0.069 6.4 4.75 13.05
2/11/2024 1:00:00 PM 3.76 38.768 0.069 6.45 5.1 13.07
2/11/2024 1:15:00 PM 3.81 38.858 0.069 6.36 5.08 13.11
2/11/2024 1:30:00 PM 3.86 38.948 0.069 6.47 4.99 13.14
2/11/2024 1:45:00 PM 3.92 39.056 0.069 6.47 4.97 13.15
2/11/2024 2:00:00 PM 3.97 39.146 0.069 6.37 4.96 13.16
2/11/2024 2:15:00 PM 4.01 39.218 0.069 6.47 5.1 13.19
2/11/2024 2:30:00 PM 4.04 39.272 0.07 6.46 5.23 13.2
2/11/2024 2:45:00 PM 4.07 39.326 0.07 6.42 5.4 13.22
2/11/2024 3:00:00 PM 4.11 39.398 0.07 6.48 5.22 13.23
2/11/2024 3:15:00 PM 4.14 39.452 0.07 6.42 5.44 13.24
2/11/2024 3:30:00 PM 4.15 39.47 0.07 6.49 5.43 13.22
2/11/2024 3:45:00 PM 4.14 39.452 0.07 6.39 5.72 13.23
2/11/2024 4:00:00 PM 4.12 39.416 0.07 6.48 5.57 13.22
2/11/2024 4:15:00 PM 4.08 39.344 0.071 6.48 5.4 13.22
2/11/2024 4:30:00 PM 4.05 39.29 0.071 6.36 5.29 13.21
2/11/2024 4:45:00 PM 4.01 39.218 0.071 6.43 5.63 13.2
2/11/2024 5:00:00 PM 3.98 39.164 0.071 6.46 5.52 13.19
2/11/2024 5:15:00 PM 3.91 39.038 0.071 6.37 5.56 13.17
2/11/2024 5:30:00 PM 3.87 38.966 0.071 6.44 5.63 13.16
2/11/2024 5:45:00 PM 3.83 38.894 0.071 6.43 5.52 13.14
2/11/2024 6:00:00 PM 3.78 38.804 0.071 6.42 5.62 13.13
2/11/2024 6:15:00 PM 3.73 38.714 0.071 6.41 5.56 13.1
2/11/2024 6:30:00 PM 3.67 38.606 0.071 6.3 5.7 13.1
2/11/2024 6:45:00 PM 3.61 38.498 0.071 6.39 5.67 13.09
2/11/2024 7:00:00 PM 3.56 38.408 0.071 6.27 5.59 13.05
2/11/2024 7:15:00 PM 3.5 38.3 0.07 6.32 5.77 13.04
2/11/2024 7:30:00 PM 3.44 38.192 0.07 6.36 5.68 13.02
2/11/2024 7:45:00 PM 3.39 38.102 0.07 6.34 5.82 13
2/11/2024 8:00:00 PM 3.34 38.012 0.07 6.24 5.77 12.97
2/11/2024 8:15:00 PM 3.3 37.94 0.07 6.3 5.86 12.96
2/11/2024 8:30:00 PM 3.27 37.886 0.07 6.28 5.85 12.94
2/11/2024 8:45:00 PM 3.24 37.832 0.07 6.32 5.74 12.92
2/11/2024 9:00:00 PM 3.21 37.778 0.07 6.32 5.81 12.91
2/11/2024 9:15:00 PM 3.18 37.724 0.07 6.32 5.9 12.89
2/11/2024 9:30:00 PM 3.14 37.652 0.07 6.22 6.09 12.87
2/11/2024 9:45:00 PM 3.11 37.598 0.07 6.27 6.16 12.87
2/11/2024 10:00:00 PM 3.08 37.544 0.07 6.3 5.89 12.86
2/11/2024 10:15:00 PM 3.05 37.49 0.069 6.31 6.02 12.86
2/11/2024 10:30:00 PM 3.01 37.418 0.069 6.3 6.2 12.85
2/11/2024 10:45:00 PM 2.99 37.382 0.069 6.29 5.92 12.84
2/11/2024 11:00:00 PM 2.95 37.31 0.069 6.28 6.19 12.82
2/11/2024 11:15:00 PM 2.93 37.274 0.069 6.24 5.82 12.82
2/11/2024 11:30:00 PM 2.9 37.22 0.069 6.3 6.31 12.8
2/11/2024 11:45:00 PM 2.87 37.166 0.069 6.27 6.06 12.8
2/12/2024 12:00:00 AM 2.85 37.13 0.069 6.31 5.72 12.8
2/12/2024 12:15:00 AM 2.84 37.112 0.069 6.2 6.28 12.79
2/12/2024 12:30:00 AM 2.82 37.076 0.069 6.27 6.11 12.79
2/12/2024 12:45:00 AM 2.8 37.04 0.069 6.3 6.68 12.79
2/12/2024 1:00:00 AM 2.77 36.986 0.07 6.28 6.34 12.79
2/12/2024 1:15:00 AM 2.74 36.932 0.07 6.27 6.27 12.77
2/12/2024 1:30:00 AM 2.73 36.914 0.07 6.29 6.51 12.77
2/12/2024 1:45:00 AM 2.73 36.914 0.07 6.29 6.09 12.78
2/12/2024 2:00:00 AM 2.72 36.896 0.069 6.31 6 12.78
2/12/2024 2:15:00 AM 2.69 36.842 0.07 6.3 5.95 12.79
2/12/2024 2:30:00 AM 2.67 36.806 0.069 6.31 5.9 12.79
2/12/2024 2:45:00 AM 2.64 36.752 0.069 6.21 6.42 12.79
2/12/2024 3:00:00 AM 2.61 36.698 0.069 6.31 6.22 12.78
2/12/2024 3:15:00 AM 2.59 36.662 0.069 6.3 6.36 12.78
2/12/2024 3:30:00 AM 2.56 36.608 0.07 6.21 6.75 12.78
2/12/2024 3:45:00 AM 2.55 36.59 0.07 6.26 6.79 12.78
2/12/2024 4:00:00 AM 2.54 36.572 0.07 6.3 6.69 12.78
2/12/2024 4:15:00 AM 2.52 36.536 0.07 6.31 6.84 12.78
2/12/2024 4:30:00 AM 2.5 36.5 0.07 6.3 6.5 12.77
2/12/2024 4:45:00 AM 2.5 36.5 0.07 6.31 6.2 12.78
2/12/2024 5:00:00 AM 2.5 36.5 0.07 6.3 6.42 12.78
2/12/2024 5:15:00 AM 2.51 36.518 0.07 6.32 6.4 12.78
2/12/2024 5:30:00 AM 2.51 36.518 0.07 6.31 6.42 12.77
2/12/2024 5:45:00 AM 2.51 36.518 0.07 6.23 6.51 12.77
2/12/2024 6:00:00 AM 2.53 36.554 0.07 6.33 6.52 12.76
2/12/2024 6:15:00 AM 2.54 36.572 0.07 6.23 6.48 12.77
2/12/2024 6:30:00 AM 2.56 36.608 0.07 6.29 6.52 12.76
2/12/2024 6:45:00 AM 2.58 36.644 0.07 6.31 6.49 12.75
2/12/2024 7:00:00 AM 2.61 36.698 0.07 6.34 6.19 12.76
2/12/2024 7:15:00 AM 2.64 36.752 0.07 6.3 5.99 12.76
2/12/2024 7:30:00 AM 2.67 36.806 0.07 6.36 5.96 12.76
2/12/2024 7:45:00 AM 2.68 36.824 0.07 6.33 6.82 12.74
2/12/2024 8:00:00 AM 2.7 36.86 0.07 6.34 7.19 12.73
2/12/2024 8:15:00 AM 2.73 36.914 0.07 6.33 5.88 12.75
2/12/2024 8:30:00 AM 2.77 36.986 0.07 6.35 5.67 12.75
2/12/2024 8:45:00 AM 2.79 37.022 0.07 6.36 5.64 12.76
2/12/2024 9:00:00 AM 2.82 37.076 0.07 6.28 5.53 12.76
2/12/2024 9:15:00 AM 2.9 37.22 0.07 6.37 5.39 12.8
2/12/2024 9:30:00 AM 2.93 37.274 0.07 6.39 5.47 12.81
2/12/2024 9:45:00 AM 2.94 37.292 0.07 6.37 5.51 12.82
2/12/2024 10:00:00 AM 3 37.4 0.07 6.36 5.4 12.86
2/12/2024 10:15:00 AM 3.04 37.472 0.07 6.4 5.22 12.88
2/12/2024 10:30:00 AM 3.09 37.562 0.07 6.41 5.3 12.91
2/12/2024 10:45:00 AM 3.12 37.616 0.07 6.41 5.29 12.93
2/12/2024 11:00:00 AM 3.19 37.742 0.07 6.41 5.12 12.97
2/12/2024 11:15:00 AM 3.25 37.85 0.07 6.42 5.09 13
2/12/2024 11:30:00 AM 3.32 37.976 0.07 6.45 5.19 13.04
2/12/2024 11:45:00 AM 3.38 38.084 0.07 6.35 5.02 13.07
2/12/2024 12:00:00 PM 3.42 38.156 0.07 6.41 5.03 13.09
2/12/2024 12:15:00 PM 3.48 38.264 0.07 6.42 5.01 13.13
2/12/2024 12:30:00 PM 3.52 38.336 0.07 6.43 4.91 13.15
2/12/2024 12:45:00 PM 3.58 38.444 0.07 6.47 4.8 13.19
2/12/2024 1:00:00 PM 3.64 38.552 0.07 6.49 4.82 13.21
2/12/2024 1:15:00 PM 3.69 38.642 0.07 6.49 4.91 13.23
2/12/2024 1:30:00 PM 3.74 38.732 0.07 6.38 4.76 13.26
2/12/2024 1:45:00 PM 3.8 38.84 0.07 6.46 4.92 13.28
2/12/2024 2:00:00 PM 3.86 38.948 0.07 6.51 4.8 13.31
2/12/2024 2:15:00 PM 3.91 39.038 0.07 6.51 4.65 13.33
2/12/2024 2:30:00 PM 3.95 39.11 0.07 6.43 4.85 13.35
2/12/2024 2:45:00 PM 3.98 39.164 0.07 6.52 4.69 13.35
2/12/2024 3:00:00 PM 4.01 39.218 0.07 6.51 4.78 13.37
2/12/2024 3:15:00 PM 4.03 39.254 0.07 6.43 4.88 13.38
2/12/2024 3:30:00 PM 4.05 39.29 0.07 6.48 4.8 13.39
2/12/2024 3:45:00 PM 4.04 39.272 0.07 6.48 4.64 13.4
2/12/2024 4:00:00 PM 4.03 39.254 0.07 6.48 4.82 13.4
2/12/2024 4:15:00 PM 4.02 39.236 0.07 6.51 4.74 13.41
2/12/2024 4:30:00 PM 4.01 39.218 0.07 6.46 4.85 13.41
2/12/2024 4:45:00 PM 3.99 39.182 0.07 6.5 4.86 13.4
2/12/2024 5:00:00 PM 3.95 39.11 0.07 6.49 4.98 13.41
2/12/2024 5:15:00 PM 3.89 39.002 0.07 6.4 4.81 13.4
2/12/2024 5:30:00 PM 3.82 38.876 0.07 6.47 4.72 13.39
2/12/2024 5:45:00 PM 3.76 38.768 0.07 6.46 4.74 13.37
2/12/2024 6:00:00 PM 3.69 38.642 0.07 6.35 4.93 13.36
2/12/2024 6:15:00 PM 3.64 38.552 0.07 6.43 4.85 13.33
2/12/2024 6:30:00 PM 3.61 38.498 0.07 6.41 4.87 13.3
2/12/2024 6:45:00 PM 3.56 38.408 0.07 6.31 4.81 13.27
2/12/2024 7:00:00 PM 3.51 38.318 0.07 6.4 4.95 13.24
2/12/2024 7:15:00 PM 3.48 38.264 0.07 6.28 4.98 13.21
2/12/2024 7:30:00 PM 3.43 38.174 0.07 6.34 5.14 13.19
2/12/2024 7:45:00 PM 3.4 38.12 0.07 6.38 5.43 13.16
2/12/2024 8:00:00 PM 3.36 38.048 0.07 6.27 5.09 13.14
2/12/2024 8:15:00 PM 3.32 37.976 0.07 6.32 5.21 13.12
2/12/2024 8:30:00 PM 3.28 37.904 0.07 6.33 5.47 13.09
2/12/2024 8:45:00 PM 3.24 37.832 0.07 6.31 5.61 13.07
2/12/2024 9:00:00 PM 3.2 37.76 0.07 6.34 5.64 13.05
2/12/2024 9:15:00 PM 3.15 37.67 0.07 6.26 5.87 13.03
2/12/2024 9:30:00 PM 3.11 37.598 0.07 6.3 6.39 13.01
2/12/2024 9:45:00 PM 3.07 37.526 0.07 6.29 6.21 12.98
2/12/2024 10:00:00 PM 3.03 37.454 0.07 6.33 6.11 12.96
2/12/2024 10:15:00 PM 2.99 37.382 0.07 6.23 6.27 12.95
2/12/2024 10:30:00 PM 2.95 37.31 0.07 6.32 6.15 12.94
2/12/2024 10:45:00 PM 2.91 37.238 0.07 6.31 6.26 12.92
2/12/2024 11:00:00 PM 2.88 37.184 0.07 6.22 6.62 12.9
2/12/2024 11:15:00 PM 2.84 37.112 0.07 6.31 6.53 12.9
2/12/2024 11:30:00 PM 2.8 37.04 0.07 6.21 6.18 12.9
2/12/2024 11:45:00 PM 2.78 37.004 0.07 6.27 6.12 12.88
2/13/2024 12:00:00 AM 2.77 36.986 0.07 6.31 6.32 12.86
2/13/2024 12:15:00 AM 2.75 36.95 0.07 6.31 6.14 12.87
2/13/2024 12:30:00 AM 2.73 36.914 0.07 6.32 6.24 12.87
2/13/2024 12:45:00 AM 2.71 36.878 0.07 6.29 6.61 12.85
2/13/2024 1:00:00 AM 2.69 36.842 0.069 6.32 6.35 12.84
2/13/2024 1:15:00 AM 2.66 36.788 0.069 6.22 6.24 12.85
2/13/2024 1:30:00 AM 2.63 36.734 0.069 6.32 6.61 12.84
2/13/2024 1:45:00 AM 2.62 36.716 0.069 6.32 6.28 12.83
2/13/2024 2:00:00 AM 2.6 36.68 0.069 6.24 6.22 12.83
2/13/2024 2:15:00 AM 2.6 36.68 0.069 6.28 6.33 12.83
2/13/2024 2:30:00 AM 2.58 36.644 0.069 6.29 6.31 12.83
2/13/2024 2:45:00 AM 2.58 36.644 0.069 6.33 6.04 12.82
2/13/2024 3:00:00 AM 2.58 36.644 0.069 6.27 5.87 12.82
2/13/2024 3:15:00 AM 2.57 36.626 0.069 6.33 5.87 12.81
2/13/2024 3:30:00 AM 2.57 36.626 0.069 6.29 5.98 12.79
2/13/2024 3:45:00 AM 2.58 36.644 0.07 6.3 5.98 12.8
2/13/2024 4:00:00 AM 2.56 36.608 0.07 6.3 6 12.77
2/13/2024 4:15:00 AM 2.57 36.626 0.07 6.3 6 12.77
2/13/2024 4:30:00 AM 2.58 36.644 0.07 6.35 5.95 12.77
2/13/2024 4:45:00 AM 2.58 36.644 0.07 6.25 6.05 12.76
2/13/2024 5:00:00 AM 2.57 36.626 0.07 6.31 5.92 12.75
2/13/2024 5:15:00 AM 2.58 36.644 0.07 6.3 5.95 12.73
2/13/2024 5:30:00 AM 2.6 36.68 0.07 6.32 6.1 12.73
2/13/2024 5:45:00 AM 2.6 36.68 0.07 6.35 6.41 12.71
2/13/2024 6:00:00 AM 2.63 36.734 0.07 6.26 6.59 12.7
2/13/2024 6:15:00 AM 2.64 36.752 0.07 6.35 6.78 12.71
2/13/2024 6:30:00 AM 2.61 36.698 0.07 6.34 6.63 12.68
2/13/2024 6:45:00 AM 2.62 36.716 0.07 6.23 6.43 12.68
2/13/2024 7:00:00 AM 2.6 36.68 0.07 6.29 6.48 12.65
2/13/2024 7:15:00 AM 2.6 36.68 0.07 6.29 6.19 12.65
2/13/2024 7:30:00 AM 2.6 36.68 0.07 6.29 5.94 12.65
2/13/2024 7:45:00 AM 2.58 36.644 0.07 6.29 6.1 12.65
2/13/2024 8:00:00 AM 2.55 36.59 0.071 6.33 5.84 12.62
2/13/2024 8:15:00 AM 2.56 36.608 0.071 6.32 5.78 12.63
2/13/2024 8:30:00 AM 2.57 36.626 0.071 6.33 6.1 12.64
2/13/2024 8:45:00 AM 2.57 36.626 0.071 6.23 6.17 12.64
2/13/2024 9:00:00 AM 2.59 36.662 0.071 6.33 5.99 12.66
2/13/2024 9:15:00 AM 2.61 36.698 0.071 6.28 6.07 12.68
2/13/2024 9:30:00 AM 2.62 36.716 0.071 6.36 5.93 12.69
2/13/2024 9:45:00 AM 2.64 36.752 0.071 6.25 5.97 12.71
2/13/2024 10:00:00 AM 2.69 36.842 0.071 6.37 6.07 12.75
2/13/2024 10:15:00 AM 2.72 36.896 0.071 6.38 6.07 12.78
2/13/2024 10:30:00 AM 2.75 36.95 0.071 6.39 5.99 12.82
2/13/2024 10:45:00 AM 2.8 37.04 0.071 6.34 6.41 12.85
2/13/2024 11:00:00 AM 2.86 37.148 0.071 6.37 6.26 12.89
2/13/2024 11:15:00 AM 2.92 37.256 0.071 6.39 5.83 12.93
2/13/2024 11:30:00 AM 2.99 37.382 0.071 6.44 5.72 12.97
2/13/2024 11:45:00 AM 3.05 37.49 0.071 6.39 5.68 13
2/13/2024 12:00:00 PM 3.12 37.616 0.071 6.44 5.5 13.03
2/13/2024 12:15:00 PM 3.19 37.742 0.071 6.46 5.63 13.06
2/13/2024 12:30:00 PM 3.25 37.85 0.071 6.46 5.75 13.09
2/13/2024 12:45:00 PM 3.32 37.976 0.071 6.51 5.62 13.11
2/13/2024 1:00:00 PM 3.36 38.048 0.071 6.51 5.75 13.13
2/13/2024 1:15:00 PM 3.43 38.174 0.071 6.52 5.78 13.16
2/13/2024 1:30:00 PM 3.48 38.264 0.07 6.54 5.5 13.19
2/13/2024 1:45:00 PM 3.54 38.372 0.07 6.53 5.77 13.21
2/13/2024 2:00:00 PM 3.56 38.408 0.07 6.55 6.15 13.22
2/13/2024 2:15:00 PM 3.59 38.462 0.07 6.45 5.97 13.24
2/13/2024 2:30:00 PM 3.62 38.516 0.07 6.57 6.16 13.23
2/13/2024 2:45:00 PM 3.66 38.588 0.07 6.47 6.2 13.24
2/13/2024 3:00:00 PM 3.68 38.624 0.07 6.53 6.2 13.25
2/13/2024 3:15:00 PM 3.69 38.642 0.07 6.57 6.53 13.24
2/13/2024 3:30:00 PM 3.7 38.66 0.07 6.58 7.07 13.24
2/13/2024 3:45:00 PM 3.67 38.606 0.07 6.57 6.9 13.23
2/13/2024 4:00:00 PM 3.66 38.588 0.07 6.57 6.65 13.24
2/13/2024 4:15:00 PM 3.62 38.516 0.07 6.44 6.65 13.23
2/13/2024 4:30:00 PM 3.54 38.372 0.07 6.56 6.67 13.23
2/13/2024 4:45:00 PM 3.42 38.156 0.07 6.48 6.55 13.24
2/13/2024 5:00:00 PM 3.36 38.048 0.07 6.53 6.76 13.22
2/13/2024 5:15:00 PM 3.28 37.904 0.07 6.5 6.62 13.23
2/13/2024 5:30:00 PM 3.2 37.76 0.07 6.41 6.66 13.22
2/13/2024 5:45:00 PM 3.1 37.58 0.069 6.45 6.75 13.24
2/13/2024 6:00:00 PM 3.02 37.436 0.069 6.44 6.4 13.23
2/13/2024 6:15:00 PM 2.93 37.274 0.069 6.4 6.24 13.23
2/13/2024 6:30:00 PM 2.85 37.13 0.068 6.46 5.82 13.23
2/13/2024 6:45:00 PM 2.79 37.022 0.068 6.33 5.86 13.24
2/13/2024 7:00:00 PM 2.74 36.932 0.068 6.4 5.98 13.22
2/13/2024 7:15:00 PM 2.69 36.842 0.068 6.42 5.96 13.21
2/13/2024 7:30:00 PM 2.65 36.77 0.068 6.41 5.82 13.19
2/13/2024 7:45:00 PM 2.61 36.698 0.068 6.4 5.9 13.18
2/13/2024 8:00:00 PM 2.57 36.626 0.068 6.31 6.2 13.16
2/13/2024 8:15:00 PM 2.53 36.554 0.068 6.39 5.88 13.15
2/13/2024 8:30:00 PM 2.49 36.482 0.068 6.4 6.01 13.14
2/13/2024 8:45:00 PM 2.45 36.41 0.068 6.4 5.75 13.13
2/13/2024 9:00:00 PM 2.41 36.338 0.068 6.38 6.4 13.11
2/13/2024 9:15:00 PM 2.38 36.284 0.068 6.34 6.52 13.09
2/13/2024 9:30:00 PM 2.34 36.212 0.067 6.34 6.18 13.08
2/13/2024 9:45:00 PM 2.3 36.14 0.067 6.37 6.25 13.06
2/13/2024 10:00:00 PM 2.25 36.05 0.067 6.38 6.45 13.06
2/13/2024 10:15:00 PM 2.2 35.96 0.067 6.38 6.59 13.05
2/13/2024 10:30:00 PM 2.16 35.888 0.067 6.39 6.43 13.03
2/13/2024 10:45:00 PM 2.13 35.834 0.067 6.38 6.7 13.03
2/13/2024 11:00:00 PM 2.1 35.78 0.067 6.28 6.9 13.03
2/13/2024 11:15:00 PM 2.06 35.708 0.067 6.39 6.78 13.02
2/13/2024 11:30:00 PM 2.02 35.636 0.067 6.34 6.69 13.02
2/13/2024 11:45:00 PM 1.98 35.564 0.067 6.39 6.84 13.02
2/14/2024 12:00:00 AM 1.92 35.456 0.067 6.37 7.81 13
2/14/2024 12:15:00 AM 1.86 35.348 0.068 6.37 9.11 13
2/14/2024 12:30:00 AM 1.84 35.312 0.067 6.36 8.5 13
2/14/2024 12:45:00 AM 1.79 35.222 0.067 6.27 8.87 13.01
2/14/2024 1:00:00 AM 1.75 35.15 0.067 6.38 8.78 13.03
2/14/2024 1:15:00 AM 1.7 35.06 0.067 6.38 8.15 13.04
2/14/2024 1:30:00 AM 1.65 34.97 0.067 6.26 7.98 13.04
2/14/2024 1:45:00 AM 1.61 34.898 0.067 6.33 8.51 13.05
2/14/2024 2:00:00 AM 1.57 34.826 0.067 6.37 9.28 13.06
2/14/2024 2:15:00 AM 1.52 34.736 0.067 6.29 9.28 13.06
2/14/2024 2:30:00 AM 1.46 34.628 0.067 6.37 9.65 13.07
2/14/2024 2:45:00 AM 1.38 34.484 0.067 6.28 10.71 13.08
2/14/2024 3:00:00 AM 1.32 34.376 0.067 6.34 11.7 13.11
2/14/2024 3:15:00 AM 1.3 34.34 0.067 6.32 11.66 13.11
2/14/2024 3:30:00 AM 1.25 34.25 0.067 6.38 12.02 13.13
2/14/2024 3:45:00 AM 1.19 34.142 0.067 6.3 12.25 13.15
2/14/2024 4:00:00 AM 1.14 34.052 0.067 6.37 12.35 13.16
2/14/2024 4:15:00 AM 1.11 33.998 0.067 6.36 11.25 13.18
2/14/2024 4:30:00 AM 1.06 33.908 0.067 6.33 12.61 13.18
2/14/2024 4:45:00 AM 1.04 33.872 0.067 6.32 11.77 13.19
2/14/2024 5:00:00 AM 1 33.8 0.067 6.35 10.96 13.2
2/14/2024 5:15:00 AM 0.98 33.764 0.067 6.38 10.52 13.21
2/14/2024 5:30:00 AM 0.99 33.782 0.067 6.38 9.55 13.21
2/14/2024 5:45:00 AM 0.94 33.692 0.068 6.34 8.98 13.21
2/14/2024 6:00:00 AM 0.92 33.656 0.068 6.39 8.93 13.22
2/14/2024 6:15:00 AM 0.88 33.584 0.068 6.3 8.17 13.22
2/14/2024 6:30:00 AM 0.83 33.494 0.068 6.4 8.1 13.23
2/14/2024 6:45:00 AM 0.82 33.476 0.068 6.4 7.48 13.23
2/14/2024 7:00:00 AM 0.74 33.332 0.068 6.38 7.62 13.25
2/14/2024 7:15:00 AM 0.72 33.296 0.068 6.36 7.24 13.26
2/14/2024 7:30:00 AM 0.69 33.242 0.068 6.34 6.74 13.27
2/14/2024 7:45:00 AM 0.67 33.206 0.068 6.35 6.5 13.27
2/14/2024 8:00:00 AM 0.68 33.224 0.068 6.41 6.41 13.29
2/14/2024 8:15:00 AM 0.67 33.206 0.068 6.39 6.31 13.3
2/14/2024 8:30:00 AM 0.64 33.152 0.068 6.32 6.18 13.33
2/14/2024 8:45:00 AM 0.65 33.17 0.068 6.42 6.32 13.35
2/14/2024 9:00:00 AM 0.71 33.278 0.068 6.44 6.35 13.38
2/14/2024 9:15:00 AM 0.75 33.35 0.069 6.35 6.54 13.41
2/14/2024 9:30:00 AM 0.84 33.512 0.069 6.49 6.65 13.45
2/14/2024 9:45:00 AM 0.92 33.656 0.069 6.4 6.68 13.49
2/14/2024 10:00:00 AM 1.02 33.836 0.069 6.47 6.82 13.52
2/14/2024 10:15:00 AM 1.12 34.016 0.069 6.54 7.29 13.56
2/14/2024 10:30:00 AM 1.26 34.268 0.069 6.55 7.19 13.57
2/14/2024 10:45:00 AM 1.37 34.466 0.069 6.57 7.23 13.58
2/14/2024 11:00:00 AM 1.48 34.664 0.069 6.49 6.74 13.59
2/14/2024 11:15:00 AM 1.6 34.88 0.069 6.59 6.68 13.59
2/14/2024 11:30:00 AM 1.73 35.114 0.069 6.51 6.41 13.6
2/14/2024 11:45:00 AM 1.84 35.312 0.069 6.61 6.39 13.61
2/14/2024 12:00:00 PM 1.96 35.528 0.068 6.52 6.57 13.62
2/14/2024 12:15:00 PM 2.1 35.78 0.068 6.62 6.41 13.62
2/14/2024 12:30:00 PM 2.22 35.996 0.068 6.63 6.89 13.62
2/14/2024 12:45:00 PM 2.31 36.158 0.068 6.64 6.66 13.63
2/14/2024 1:00:00 PM 2.41 36.338 0.068 6.52 6.41 13.63
2/14/2024 1:15:00 PM 2.49 36.482 0.068 6.65 6.56 13.64
2/14/2024 1:30:00 PM 2.59 36.662 0.068 6.64 6.62 13.63
2/14/2024 1:45:00 PM 2.69 36.842 0.068 6.66 7.08 13.62
2/14/2024 2:00:00 PM 2.79 37.022 0.068 6.66 7.03 13.61
2/14/2024 2:15:00 PM 2.83 37.094 0.068 6.67 7.09 13.62
2/14/2024 2:30:00 PM 2.89 37.202 0.068 6.67 6.94 13.6
2/14/2024 2:45:00 PM 2.92 37.256 0.068 6.66 7.22 13.58
2/14/2024 3:00:00 PM 2.93 37.274 0.068 6.66 7.35 13.57
2/14/2024 3:15:00 PM 2.87 37.166 0.068 6.51 6.84 13.59
2/14/2024 3:30:00 PM 2.84 37.112 0.068 6.65 6.81 13.59
2/14/2024 3:45:00 PM 2.79 37.022 0.068 6.63 6.75 13.59
2/14/2024 4:00:00 PM 2.75 36.95 0.068 6.64 6.96 13.58
2/14/2024 4:15:00 PM 2.68 36.824 0.068 6.62 7.35 13.57
2/14/2024 4:30:00 PM 2.58 36.644 0.068 6.61 6.91 13.57
2/14/2024 4:45:00 PM 2.49 36.482 0.068 6.47 6.81 13.58
2/14/2024 5:00:00 PM 2.4 36.32 0.068 6.59 6.66 13.58
2/14/2024 5:15:00 PM 2.32 36.176 0.068 6.56 6.65 13.58
2/14/2024 5:30:00 PM 2.22 35.996 0.068 6.43 6.78 13.56
2/14/2024 5:45:00 PM 2.11 35.798 0.068 6.54 6.95 13.57
2/14/2024 6:00:00 PM 2.01 35.618 0.068 6.54 6.26 13.58
2/14/2024 6:15:00 PM 1.89 35.402 0.068 6.52 6.62 13.58
2/14/2024 6:30:00 PM 1.78 35.204 0.068 6.48 6.2 13.58
2/14/2024 6:45:00 PM 1.69 35.042 0.068 6.49 6.04 13.59
2/14/2024 7:00:00 PM 1.59 34.862 0.068 6.34 6.11 13.58
2/14/2024 7:15:00 PM 1.5 34.7 0.068 6.47 6.72 13.59
2/14/2024 7:30:00 PM 1.43 34.574 0.068 6.45 6.28 13.58
2/14/2024 7:45:00 PM 1.36 34.448 0.068 6.31 6.47 13.59
2/14/2024 8:00:00 PM 1.29 34.322 0.068 6.44 6.59 13.59
2/14/2024 8:15:00 PM 1.23 34.214 0.068 6.43 5.94 13.59
2/14/2024 8:30:00 PM 1.16 34.088 0.068 6.42 6.2 13.59
2/14/2024 8:45:00 PM 1.09 33.962 0.068 6.34 5.98 13.58
2/14/2024 9:00:00 PM 1.03 33.854 0.068 6.41 6.16 13.59
2/14/2024 9:15:00 PM 0.96 33.728 0.068 6.41 6.11 13.58
2/14/2024 9:30:00 PM 0.91 33.638 0.068 6.38 6.4 13.56
2/14/2024 9:45:00 PM 0.86 33.548 0.068 6.4 6.38 13.56
2/14/2024 10:00:00 PM 0.83 33.494 0.068 6.4 6.82 13.55
2/14/2024 10:15:00 PM 0.78 33.404 0.068 6.4 7.25 13.55
2/14/2024 10:30:00 PM 0.75 33.35 0.068 6.27 6.52 13.54
2/14/2024 10:45:00 PM 0.71 33.278 0.068 6.41 6.81 13.53
2/14/2024 11:00:00 PM 0.7 33.26 0.068 6.41 6.84 13.52
2/14/2024 11:15:00 PM 0.66 33.188 0.068 6.41 6.19 13.51
2/14/2024 11:30:00 PM 0.65 33.17 0.068 6.41 5.97 13.51
2/14/2024 11:45:00 PM 0.62 33.116 0.068 6.42 6.15 13.51
2/15/2024 12:00:00 AM 0.61 33.098 0.068 6.41 6.11 13.51
2/15/2024 12:15:00 AM 0.59 33.062 0.068 6.31 5.99 13.5
2/15/2024 12:30:00 AM 0.58 33.044 0.068 6.39 5.94 13.49
2/15/2024 12:45:00 AM 0.57 33.026 0.068 6.43 6.3 13.48
2/15/2024 1:00:00 AM 0.56 33.008 0.068 6.43 6.8 13.47
2/15/2024 1:15:00 AM 0.57 33.026 0.068 6.43 6.37 13.47
2/15/2024 1:30:00 AM 0.55 32.99 0.068 6.38 6.42 13.46
2/15/2024 1:45:00 AM 0.55 32.99 0.069 6.38 6.23 13.45
2/15/2024 2:00:00 AM 0.56 33.008 0.069 6.4 6.16 13.45
2/15/2024 2:15:00 AM 0.57 33.026 0.069 6.45 6.35 13.44
2/15/2024 2:30:00 AM 0.59 33.062 0.069 6.45 6.68 13.43
2/15/2024 2:45:00 AM 0.62 33.116 0.069 6.46 7.34 13.42
2/15/2024 3:00:00 AM 0.62 33.116 0.069 6.45 7.34 13.41
2/15/2024 3:15:00 AM 0.66 33.188 0.069 6.45 6.84 13.39
2/15/2024 3:30:00 AM 0.68 33.224 0.069 6.45 6.53 13.38
2/15/2024 3:45:00 AM 0.69 33.242 0.069 6.47 6.22 13.37
2/15/2024 4:00:00 AM 0.71 33.278 0.069 6.47 6.22 13.36
2/15/2024 4:15:00 AM 0.74 33.332 0.069 6.37 5.91 13.34
2/15/2024 4:30:00 AM 0.77 33.386 0.069 6.48 5.67 13.33
2/15/2024 4:45:00 AM 0.81 33.458 0.069 6.39 5.78 13.31
2/15/2024 5:00:00 AM 0.85 33.53 0.069 6.48 5.79 13.29
2/15/2024 5:15:00 AM 0.9 33.62 0.069 6.47 5.8 13.28
2/15/2024 5:30:00 AM 0.94 33.692 0.069 6.48 5.64 13.26
2/15/2024 5:45:00 AM 0.97 33.746 0.069 6.37 5.46 13.26
2/15/2024 6:00:00 AM 1 33.8 0.069 6.47 5.48 13.25
2/15/2024 6:15:00 AM 1.01 33.818 0.069 6.48 5.79 13.24
2/15/2024 6:30:00 AM 1.05 33.89 0.069 6.47 5.53 13.23
2/15/2024 6:45:00 AM 1.05 33.89 0.07 6.47 5.31 13.22
2/15/2024 7:00:00 AM 1.07 33.926 0.069 6.46 5.36 13.21
2/15/2024 7:15:00 AM 1.08 33.944 0.069 6.46 5.48 13.21
2/15/2024 7:30:00 AM 1.08 33.944 0.069 6.4 5.99 13.21
2/15/2024 7:45:00 AM 1.08 33.944 0.069 6.46 6.08 13.21
2/15/2024 8:00:00 AM 1.07 33.926 0.069 6.36 6.33 13.21
2/15/2024 8:15:00 AM 1.07 33.926 0.069 6.41 6.04 13.21
2/15/2024 8:30:00 AM 1.09 33.962 0.069 6.46 5.95 13.22
2/15/2024 8:45:00 AM 1.11 33.998 0.069 6.35 6.14 13.23
2/15/2024 9:00:00 AM 1.15 34.07 0.069 6.46 6.18 13.24
2/15/2024 9:15:00 AM 1.19 34.142 0.069 6.46 6 13.26
2/15/2024 9:30:00 AM 1.27 34.286 0.069 6.35 6.02 13.29
2/15/2024 9:45:00 AM 1.38 34.484 0.069 6.45 5.86 13.33
2/15/2024 10:00:00 AM 1.49 34.682 0.069 6.5 6.05 13.36
2/15/2024 10:15:00 AM 1.61 34.898 0.069 6.5 6.01 13.39
2/15/2024 10:30:00 AM 1.72 35.096 0.069 6.42 6.15 13.42
2/15/2024 10:45:00 AM 1.85 35.33 0.069 6.48 6.07 13.44
2/15/2024 11:00:00 AM 1.98 35.564 0.069 6.53 5.64 13.46
2/15/2024 11:15:00 AM 2.12 35.816 0.069 6.46 5.61 13.48
2/15/2024 11:30:00 AM 2.3 36.14 0.069 6.55 5.53 13.5
2/15/2024 11:45:00 AM 2.43 36.374 0.068 6.49 5.46 13.51
2/15/2024 12:00:00 PM 2.54 36.572 0.068 6.52 5.56 13.53
2/15/2024 12:15:00 PM 2.66 36.788 0.068 6.56 5.62 13.55
2/15/2024 12:30:00 PM 2.77 36.986 0.068 6.5 6.05 13.56
2/15/2024 12:45:00 PM 2.86 37.148 0.068 6.54 5.93 13.58
2/15/2024 1:00:00 PM 2.97 37.346 0.068 6.53 5.71 13.58
2/15/2024 1:15:00 PM 3.08 37.544 0.069 6.54 5.78 13.59
2/15/2024 1:30:00 PM 3.19 37.742 0.069 6.54 5.88 13.59
2/15/2024 1:45:00 PM 3.29 37.922 0.068 6.54 5.81 13.59
2/15/2024 2:00:00 PM 3.37 38.066 0.069 6.59 5.71 13.6
2/15/2024 2:15:00 PM 3.43 38.174 0.069 6.6 5.83 13.6
2/15/2024 2:30:00 PM 3.46 38.228 0.069 6.6 6.11 13.6
2/15/2024 2:45:00 PM 3.47 38.246 0.069 6.59 6.18 13.59
2/15/2024 3:00:00 PM 3.46 38.228 0.069 6.57 6.18 13.6
2/15/2024 3:15:00 PM 3.45 38.21 0.069 6.58 6.06 13.61
2/15/2024 3:30:00 PM 3.46 38.228 0.069 6.59 6.13 13.6
2/15/2024 3:45:00 PM 3.46 38.228 0.069 6.59 6.12 13.58
2/15/2024 4:00:00 PM 3.41 38.138 0.069 6.58 6.32 13.57
2/15/2024 4:15:00 PM 3.36 38.048 0.069 6.57 6.31 13.56
2/15/2024 4:30:00 PM 3.28 37.904 0.069 6.45 6.15 13.55
2/15/2024 4:45:00 PM 3.23 37.814 0.069 6.57 6.19 13.54
2/15/2024 5:00:00 PM 3.19 37.742 0.069 6.48 6.17 13.51
2/15/2024 5:15:00 PM 3.15 37.67 0.069 6.54 6.43 13.48
2/15/2024 5:30:00 PM 3.1 37.58 0.069 6.53 6.44 13.45
2/15/2024 5:45:00 PM 3.04 37.472 0.069 6.52 6.5 13.43
2/15/2024 6:00:00 PM 2.98 37.364 0.069 6.37 6.75 13.4
2/15/2024 6:15:00 PM 2.92 37.256 0.069 6.5 6.57 13.37
2/15/2024 6:30:00 PM 2.87 37.166 0.069 6.43 6.54 13.34
2/15/2024 6:45:00 PM 2.83 37.094 0.069 6.48 6.77 13.31
2/15/2024 7:00:00 PM 2.8 37.04 0.069 6.44 6.99 13.29
2/15/2024 7:15:00 PM 2.77 36.986 0.069 6.45 6.79 13.26
2/15/2024 7:30:00 PM 2.74 36.932 0.069 6.32 6.85 13.24
2/15/2024 7:45:00 PM 2.71 36.878 0.069 6.44 7.26 13.21
2/15/2024 8:00:00 PM 2.67 36.806 0.069 6.4 6.97 13.19
2/15/2024 8:15:00 PM 2.64 36.752 0.069 6.42 7.12 13.17
2/15/2024 8:30:00 PM 2.61 36.698 0.069 6.42 6.83 13.13
2/15/2024 8:45:00 PM 2.55 36.59 0.07 6.4 7.01 13.12
2/15/2024 9:00:00 PM 2.52 36.536 0.07 6.4 7.45 13.09
2/15/2024 9:15:00 PM 2.49 36.482 0.07 6.36 7.33 13.06
2/15/2024 9:30:00 PM 2.45 36.41 0.07 6.39 7.54 13.04
2/15/2024 9:45:00 PM 2.42 36.356 0.07 6.26 7.54 13.02
2/15/2024 10:00:00 PM 2.4 36.32 0.07 6.39 7.27 13
2/15/2024 10:15:00 PM 2.38 36.284 0.07 6.38 7.34 12.98
2/15/2024 10:30:00 PM 2.35 36.23 0.07 6.28 7.27 12.97
2/15/2024 10:45:00 PM 2.33 36.194 0.07 6.38 7.35 12.94
2/15/2024 11:00:00 PM 2.3 36.14 0.07 6.38 7.81 12.92
2/15/2024 11:15:00 PM 2.28 36.104 0.07 6.25 7.67 12.91
2/15/2024 11:30:00 PM 2.26 36.068 0.07 6.38 7.86 12.9
2/15/2024 11:45:00 PM 2.25 36.05 0.07 6.38 7.8 12.89
2/16/2024 12:00:00 AM 2.23 36.014 0.07 6.37 8.35 12.88
2/16/2024 12:15:00 AM 2.21 35.978 0.07 6.36 8.5 12.87
2/16/2024 12:30:00 AM 2.17 35.906 0.07 6.37 8.2 12.87
2/16/2024 12:45:00 AM 2.11 35.798 0.07 6.37 8.09 12.86
2/16/2024 1:00:00 AM 2.05 35.69 0.07 6.37 8.69 12.86
2/16/2024 1:15:00 AM 1.97 35.546 0.07 6.32 9.17 12.86
2/16/2024 1:30:00 AM 1.9 35.42 0.07 6.35 10.44 12.85
2/16/2024 1:45:00 AM 1.86 35.348 0.07 6.33 10.84 12.87
2/16/2024 2:00:00 AM 1.81 35.258 0.07 6.27 11.47 12.89
2/16/2024 2:15:00 AM 1.8 35.24 0.07 6.36 11.23 12.92
2/16/2024 2:30:00 AM 1.77 35.186 0.07 6.27 10.65 12.93
2/16/2024 2:45:00 AM 1.74 35.132 0.07 6.36 10.14 12.97
2/16/2024 3:00:00 AM 1.68 35.024 0.07 6.28 10.42 12.98
2/16/2024 3:15:00 AM 1.67 35.006 0.07 6.39 9.82 13
2/16/2024 3:30:00 AM 1.63 34.934 0.07 6.29 11.09 13.01
2/16/2024 3:45:00 AM 1.59 34.862 0.07 6.4 11.23 13.02
2/16/2024 4:00:00 AM 1.56 34.808 0.07 6.31 12.85 13.04
2/16/2024 4:15:00 AM 1.45 34.61 0.069 6.4 16.01 13.06
2/16/2024 4:30:00 AM 1.42 34.556 0.069 6.4 16.74 13.08
2/16/2024 4:45:00 AM 1.36 34.448 0.069 6.4 18.68 13.1
2/16/2024 5:00:00 AM 1.32 34.376 0.069 6.4 16.99 13.13
2/16/2024 5:15:00 AM 1.24 34.232 0.069 6.28 16.31 13.15
2/16/2024 5:30:00 AM 1.14 34.052 0.069 6.4 19.52 13.18
2/16/2024 5:45:00 AM 1.05 33.89 0.069 6.39 18.79 13.21
2/16/2024 6:00:00 AM 0.96 33.728 0.069 6.39 22.26 13.24
2/16/2024 6:15:00 AM 0.9 33.62 0.069 6.28 21.38 13.27
2/16/2024 6:30:00 AM 0.85 33.53 0.069 6.4 17.77 13.29
2/16/2024 6:45:00 AM 0.83 33.494 0.069 6.4 16.77 13.3
2/16/2024 7:00:00 AM 0.75 33.35 0.069 6.39 15.31 13.32
2/16/2024 7:15:00 AM 0.75 33.35 0.069 6.4 38.45 13.33
2/16/2024 7:30:00 AM 0.72 33.296 0.069 6.32 13.55 13.34
2/16/2024 7:45:00 AM 0.72 33.296 0.069 6.44 12.58 13.35
2/16/2024 8:00:00 AM 0.69 33.242 0.069 6.43 12.72 13.36
2/16/2024 8:15:00 AM 0.67 33.206 0.069 6.4 12.47 13.37
2/16/2024 8:30:00 AM 0.66 33.188 0.069 6.45 11.1 13.39
2/16/2024 8:45:00 AM 0.69 33.242 0.069 6.46 10.71 13.39
2/16/2024 9:00:00 AM 0.74 33.332 0.069 6.49 10.35 13.39
2/16/2024 9:15:00 AM 0.78 33.404 0.069 6.4 10.34 13.4
2/16/2024 9:30:00 AM 0.85 33.53 0.07 6.52 10.46 13.42
2/16/2024 9:45:00 AM 0.92 33.656 0.069 6.53 10.25 13.43
2/16/2024 10:00:00 AM 0.98 33.764 0.07 6.55 10.24 13.46
2/16/2024 10:15:00 AM 1.09 33.962 0.07 6.56 10.75 13.47
2/16/2024 10:30:00 AM 1.25 34.25 0.07 6.46 11.09 13.47
2/16/2024 10:45:00 AM 1.43 34.574 0.07 6.6 11.75 13.46
2/16/2024 11:00:00 AM 1.59 34.862 0.07 6.53 12.01 13.44
2/16/2024 11:15:00 AM 1.8 35.24 0.07 6.6 12.18 13.44
2/16/2024 11:30:00 AM 2.01 35.618 0.07 6.66 11.22 13.43
2/16/2024 11:45:00 AM 2.17 35.906 0.07 6.67 12.12 13.41
2/16/2024 12:00:00 PM 2.37 36.266 0.069 6.58 12.31 13.39
2/16/2024 12:15:00 PM 2.54 36.572 0.069 6.64 10.56 13.38
2/16/2024 12:30:00 PM 2.71 36.878 0.069 6.69 10.7 13.36
2/16/2024 12:45:00 PM 2.86 37.148 0.069 6.69 10.23 13.35
2/16/2024 1:00:00 PM 2.97 37.346 0.069 6.59 10.28 13.34
2/16/2024 1:15:00 PM 3.12 37.616 0.069 6.65 9.94 13.34
2/16/2024 1:30:00 PM 3.3 37.94 0.069 6.71 9.69 13.32
2/16/2024 1:45:00 PM 3.44 38.192 0.069 6.71 9.39 13.3
2/16/2024 2:00:00 PM 3.52 38.336 0.069 6.72 8.69 13.29
2/16/2024 2:15:00 PM 3.59 38.462 0.069 6.58 9.1 13.28
2/16/2024 2:30:00 PM 3.65 38.57 0.069 6.71 8.75 13.29
2/16/2024 2:45:00 PM 3.69 38.642 0.069 6.71 7.96 13.29
2/16/2024 3:00:00 PM 3.77 38.786 0.069 6.64 7.96 13.28
2/16/2024 3:15:00 PM 3.83 38.894 0.069 6.64 7.97 13.28
2/16/2024 3:30:00 PM 3.87 38.966 0.069 6.66 7.82 13.29
2/16/2024 3:45:00 PM 3.87 38.966 0.069 6.65 6.96 13.3
2/16/2024 4:00:00 PM 3.86 38.948 0.069 6.68 7.44 13.31
2/16/2024 4:15:00 PM 3.84 38.912 0.069 6.69 7.14 13.31
2/16/2024 4:30:00 PM 3.8 38.84 0.069 6.56 7.3 13.31
2/16/2024 4:45:00 PM 3.77 38.786 0.069 6.62 7.07 13.31
2/16/2024 5:00:00 PM 3.72 38.696 0.069 6.63 7.24 13.31
2/16/2024 5:15:00 PM 3.64 38.552 0.069 6.61 6.76 13.32
2/16/2024 5:30:00 PM 3.54 38.372 0.069 6.63 7.11 13.31
2/16/2024 5:45:00 PM 3.39 38.102 0.069 6.58 6.7 13.34
2/16/2024 6:00:00 PM 3.29 37.922 0.069 6.56 6.84 13.33
2/16/2024 6:15:00 PM 3.17 37.706 0.069 6.59 7.59 13.34
2/16/2024 6:30:00 PM 3.08 37.544 0.069 6.46 6.81 13.34
2/16/2024 6:45:00 PM 3.01 37.418 0.069 6.5 6.47 13.35
2/16/2024 7:00:00 PM 2.94 37.292 0.069 6.49 6.53 13.34
2/16/2024 7:15:00 PM 2.88 37.184 0.069 6.52 6.48 13.33
2/16/2024 7:30:00 PM 2.83 37.094 0.069 6.5 6.71 13.31
2/16/2024 7:45:00 PM 2.78 37.004 0.069 6.37 6.77 13.3
2/16/2024 8:00:00 PM 2.73 36.914 0.069 6.48 7.32 13.29
2/16/2024 8:15:00 PM 2.68 36.824 0.069 6.46 6.9 13.27
2/16/2024 8:30:00 PM 2.63 36.734 0.069 6.46 7.32 13.27
2/16/2024 8:45:00 PM 2.59 36.662 0.069 6.45 7.45 13.25
2/16/2024 9:00:00 PM 2.56 36.608 0.069 6.43 6.62 13.24
2/16/2024 9:15:00 PM 2.52 36.536 0.07 6.44 7.09 13.23
2/16/2024 9:30:00 PM 2.51 36.518 0.07 6.33 6.87 13.21
2/16/2024 9:45:00 PM 2.46 36.428 0.07 6.39 6.8 13.19
2/16/2024 10:00:00 PM 2.42 36.356 0.07 6.38 7 13.17
2/16/2024 10:15:00 PM 2.39 36.302 0.07 6.38 7.4 13.16
2/16/2024 10:30:00 PM 2.37 36.266 0.07 6.42 7.19 13.13
2/16/2024 10:45:00 PM 2.36 36.248 0.07 6.34 7.73 13.11
2/16/2024 11:00:00 PM 2.34 36.212 0.07 6.43 7.47 13.09
2/16/2024 11:15:00 PM 2.32 36.176 0.07 6.42 7.88 13.07
2/16/2024 11:30:00 PM 2.29 36.122 0.07 6.42 7.04 13.06
2/16/2024 11:45:00 PM 2.26 36.068 0.07 6.41 7.56 13.03
2/17/2024 12:00:00 AM 2.23 36.014 0.07 6.41 7.89 13.03
2/17/2024 12:15:00 AM 2.19 35.942 0.07 6.4 7.6 13.01
2/17/2024 12:30:00 AM 2.15 35.87 0.07 6.32 8.3 12.99
2/17/2024 12:45:00 AM 2.12 35.816 0.07 6.41 8.16 12.98
2/17/2024 1:00:00 AM 2.09 35.762 0.07 6.4 8.08 12.98
2/17/2024 1:15:00 AM 2.05 35.69 0.07 6.3 8.52 12.97
2/17/2024 1:30:00 AM 2.01 35.618 0.07 6.4 8.42 12.96
2/17/2024 1:45:00 AM 1.97 35.546 0.07 6.34 8.67 12.95
2/17/2024 2:00:00 AM 1.92 35.456 0.07 6.37 8.34 12.96
2/17/2024 2:15:00 AM 1.89 35.402 0.07 6.39 8.9 12.95
2/17/2024 2:30:00 AM 1.88 35.384 0.069 6.28 8.21 12.94
2/17/2024 2:45:00 AM 1.87 35.366 0.069 6.39 8.62 12.94
2/17/2024 3:00:00 AM 1.84 35.312 0.069 6.32 9.13 12.94
2/17/2024 3:15:00 AM 1.81 35.258 0.069 6.39 9 12.93
2/17/2024 3:30:00 AM 1.79 35.222 0.069 6.38 8.79 12.94
2/17/2024 3:45:00 AM 1.77 35.186 0.069 6.4 9.16 12.94
2/17/2024 4:00:00 AM 1.75 35.15 0.069 6.39 9 12.93
2/17/2024 4:15:00 AM 1.74 35.132 0.069 6.29 9.2 12.91
2/17/2024 4:30:00 AM 1.74 35.132 0.069 6.41 8.8 12.92
2/17/2024 4:45:00 AM 1.73 35.114 0.069 6.4 9.05 12.9
2/17/2024 5:00:00 AM 1.73 35.114 0.069 6.32 8.8 12.91
2/17/2024 5:15:00 AM 1.72 35.096 0.069 6.37 9.05 12.89
2/17/2024 5:30:00 AM 1.72 35.096 0.069 6.37 8.59 12.88
2/17/2024 5:45:00 AM 1.72 35.096 0.069 6.38 8.4 12.87
2/17/2024 6:00:00 AM 1.73 35.114 0.069 6.43 8.31 12.87
2/17/2024 6:15:00 AM 1.7 35.06 0.069 6.32 8.6 12.87
2/17/2024 6:30:00 AM 1.68 35.024 0.069 6.41 8.4 12.86
2/17/2024 6:45:00 AM 1.69 35.042 0.069 6.32 8.46 12.87
2/17/2024 7:00:00 AM 1.69 35.042 0.069 6.42 7.83 12.87
2/17/2024 7:15:00 AM 1.67 35.006 0.069 6.34 7.59 12.87
2/17/2024 7:30:00 AM 1.65 34.97 0.069 6.41 7.98 12.88
2/17/2024 7:45:00 AM 1.63 34.934 0.069 6.42 7.99 12.88
2/17/2024 8:00:00 AM 1.63 34.934 0.069 6.42 7.94 12.89
2/17/2024 8:15:00 AM 1.61 34.898 0.069 6.32 7.38 12.9
2/17/2024 8:30:00 AM 1.59 34.862 0.069 6.42 7.98 12.9
2/17/2024 8:45:00 AM 1.59 34.862 0.069 6.35 7.92 12.92
2/17/2024 9:00:00 AM 1.6 34.88 0.069 6.39 8.37 12.94
2/17/2024 9:15:00 AM 1.62 34.916 0.069 6.44 8.15 12.97
2/17/2024 9:30:00 AM 1.65 34.97 0.069 6.44 7.56 12.99
2/17/2024 9:45:00 AM 1.67 35.006 0.069 6.46 7.92 13.03
2/17/2024 10:00:00 AM 1.72 35.096 0.069 6.37 7.75 13.06
2/17/2024 10:15:00 AM 1.75 35.15 0.069 6.49 7.61 13.09
2/17/2024 10:30:00 AM 1.8 35.24 0.069 6.49 8.03 13.11
2/17/2024 10:45:00 AM 1.92 35.456 0.069 6.41 7.51 13.13
2/17/2024 11:00:00 AM 1.99 35.582 0.069 6.48 8.3 13.15
2/17/2024 11:15:00 AM 2.13 35.834 0.069 6.5 7.84 13.17
2/17/2024 11:30:00 AM 2.25 36.05 0.069 6.56 7.64 13.18
2/17/2024 11:45:00 AM 2.27 36.086 0.069 6.46 7.46 13.2
2/17/2024 12:00:00 PM 2.3 36.14 0.069 6.54 7.59 13.22
2/17/2024 12:15:00 PM 2.37 36.266 0.069 6.49 7.53 13.24
2/17/2024 12:30:00 PM 2.46 36.428 0.069 6.53 7.47 13.24
2/17/2024 12:45:00 PM 2.54 36.572 0.069 6.54 7.88 13.24
2/17/2024 1:00:00 PM 2.64 36.752 0.069 6.59 7.58 13.24
2/17/2024 1:15:00 PM 2.74 36.932 0.069 6.49 8.38 13.24
2/17/2024 1:30:00 PM 2.79 37.022 0.069 6.58 7.99 13.24
2/17/2024 1:45:00 PM 2.84 37.112 0.069 6.55 8.08 13.25
2/17/2024 2:00:00 PM 2.81 37.058 0.069 6.56 8.36 13.28
2/17/2024 2:15:00 PM 2.81 37.058 0.069 6.56 8.28 13.29
2/17/2024 2:30:00 PM 2.83 37.094 0.069 6.56 7.99 13.29
2/17/2024 2:45:00 PM 2.8 37.04 0.069 6.56 8.54 13.29
2/17/2024 3:00:00 PM 2.8 37.04 0.069 6.6 8.22 13.31
2/17/2024 3:15:00 PM 2.78 37.004 0.069 6.49 8.77 13.33
2/17/2024 3:30:00 PM 2.77 36.986 0.069 6.6 8.51 13.34
2/17/2024 3:45:00 PM 2.74 36.932 0.069 6.59 8.94 13.35
2/17/2024 4:00:00 PM 2.7 36.86 0.069 6.55 8.82 13.33
2/17/2024 4:15:00 PM 2.63 36.734 0.069 6.59 8.62 13.34
2/17/2024 4:30:00 PM 2.52 36.536 0.069 6.44 8.61 13.37
2/17/2024 4:45:00 PM 2.46 36.428 0.069 6.55 8.34 13.37
2/17/2024 5:00:00 PM 2.4 36.32 0.069 6.54 9.1 13.38
2/17/2024 5:15:00 PM 2.32 36.176 0.069 6.55 8.8 13.38
2/17/2024 5:30:00 PM 2.25 36.05 0.069 6.53 8.88 13.38
2/17/2024 5:45:00 PM 2.19 35.942 0.07 6.41 8.44 13.38
2/17/2024 6:00:00 PM 2.09 35.762 0.07 6.52 8.82 13.38
2/17/2024 6:15:00 PM 1.98 35.564 0.07 6.5 8.9 13.38
2/17/2024 6:30:00 PM 1.88 35.384 0.07 6.36 9.13 13.38
2/17/2024 6:45:00 PM 1.77 35.186 0.07 6.48 9.61 13.38
2/17/2024 7:00:00 PM 1.68 35.024 0.07 6.43 9.22 13.37
2/17/2024 7:15:00 PM 1.61 34.898 0.07 6.37 9.15 13.36
2/17/2024 7:30:00 PM 1.53 34.754 0.07 6.45 9.45 13.36
2/17/2024 7:45:00 PM 1.46 34.628 0.07 6.32 9.08 13.34
2/17/2024 8:00:00 PM 1.42 34.556 0.07 6.41 9.49 13.36
2/17/2024 8:15:00 PM 1.41 34.538 0.07 6.42 10.73 13.35
2/17/2024 8:30:00 PM 1.4 34.52 0.07 6.41 9.93 13.35
2/17/2024 8:45:00 PM 1.4 34.52 0.07 6.35 9.99 13.35
2/17/2024 9:00:00 PM 1.39 34.502 0.07 6.43 9.06 13.35
2/17/2024 9:15:00 PM 1.37 34.466 0.07 6.41 8.46 13.34
2/17/2024 9:30:00 PM 1.33 34.394 0.07 6.38 8.48 13.34
2/17/2024 9:45:00 PM 1.29 34.322 0.07 6.44 8.47 13.32
2/17/2024 10:00:00 PM 1.24 34.232 0.071 6.34 8.63 13.32
2/17/2024 10:15:00 PM 1.18 34.124 0.071 6.43 8.65 13.31
2/17/2024 10:30:00 PM 1.13 34.034 0.071 6.42 8.82 13.31
2/17/2024 10:45:00 PM 1.07 33.926 0.071 6.31 9.23 13.29
2/17/2024 11:00:00 PM 1.01 33.818 0.071 6.41 9.63 13.28
2/17/2024 11:15:00 PM 0.95 33.71 0.071 6.3 10.24 13.28
2/17/2024 11:30:00 PM 0.9 33.62 0.071 6.41 10.16 13.27
2/17/2024 11:45:00 PM 0.86 33.548 0.071 6.32 9.72 13.27
2/18/2024 12:00:00 AM 0.83 33.494 0.071 6.37 9.51 13.26
2/18/2024 12:15:00 AM 0.83 33.494 0.071 6.4 10.08 13.25
2/18/2024 12:30:00 AM 0.83 33.494 0.071 6.4 10.39 13.24
2/18/2024 12:45:00 AM 0.84 33.512 0.071 6.41 10.65 13.23
2/18/2024 1:00:00 AM 0.85 33.53 0.071 6.33 10.18 13.22
2/18/2024 1:15:00 AM 0.87 33.566 0.071 6.38 10.5 13.21
2/18/2024 1:30:00 AM 0.89 33.602 0.071 6.4 10.29 13.2
2/18/2024 1:45:00 AM 0.88 33.584 0.071 6.43 10.3 13.18
2/18/2024 2:00:00 AM 0.88 33.584 0.071 6.44 10.2 13.18
2/18/2024 2:15:00 AM 0.88 33.584 0.072 6.43 10.25 13.16
2/18/2024 2:30:00 AM 0.88 33.584 0.072 6.32 9.94 13.17
2/18/2024 2:45:00 AM 0.88 33.584 0.072 6.44 10.19 13.16
2/18/2024 3:00:00 AM 0.88 33.584 0.072 6.33 9.95 13.16
2/18/2024 3:15:00 AM 0.87 33.566 0.072 6.39 9.41 13.15
2/18/2024 3:30:00 AM 0.86 33.548 0.072 6.43 9.37 13.14
2/18/2024 3:45:00 AM 0.86 33.548 0.072 6.37 8.99 13.15
2/18/2024 4:00:00 AM 0.86 33.548 0.072 6.44 9.01 13.14
2/18/2024 4:15:00 AM 0.86 33.548 0.072 6.42 8.52 13.14
2/18/2024 4:30:00 AM 0.87 33.566 0.072 6.44 8.05 13.13
2/18/2024 4:45:00 AM 0.88 33.584 0.072 6.33 7.73 13.13
2/18/2024 5:00:00 AM 0.89 33.602 0.072 6.38 7.82 13.13
2/18/2024 5:15:00 AM 0.88 33.584 0.072 6.38 7.58 13.12
2/18/2024 5:30:00 AM 0.88 33.584 0.072 6.4 7.57 13.12
2/18/2024 5:45:00 AM 0.88 33.584 0.072 6.43 7.16 13.12
2/18/2024 6:00:00 AM 0.87 33.566 0.072 6.33 7.22 13.12
2/18/2024 6:15:00 AM 0.87 33.566 0.072 6.42 7.21 13.12
2/18/2024 6:30:00 AM 0.87 33.566 0.072 6.42 7.03 13.11
2/18/2024 6:45:00 AM 0.86 33.548 0.072 6.31 6.76 13.11
2/18/2024 7:00:00 AM 0.86 33.548 0.072 6.37 6.7 13.11
2/18/2024 7:15:00 AM 0.84 33.512 0.072 6.37 7.01 13.11
2/18/2024 7:30:00 AM 0.83 33.494 0.072 6.41 7.51 13.1
2/18/2024 7:45:00 AM 0.8 33.44 0.072 6.4 7.02 13.11
2/18/2024 8:00:00 AM 0.79 33.422 0.072 6.29 7.01 13.12
2/18/2024 8:15:00 AM 0.76 33.368 0.072 6.41 7.76 13.13
2/18/2024 8:30:00 AM 0.75 33.35 0.072 6.4 7.52 13.14
2/18/2024 8:45:00 AM 0.75 33.35 0.072 6.4 7.51 13.15
2/18/2024 9:00:00 AM 0.76 33.368 0.072 6.41 8.33 13.17
2/18/2024 9:15:00 AM 0.78 33.404 0.072 6.4 8.28 13.18
2/18/2024 9:30:00 AM 0.83 33.494 0.072 6.33 9.06 13.21
2/18/2024 9:45:00 AM 0.91 33.638 0.072 6.39 9.61 13.23
2/18/2024 10:00:00 AM 1.01 33.818 0.072 6.45 9.31 13.25
2/18/2024 10:15:00 AM 1.15 34.07 0.072 6.47 9.27 13.26
2/18/2024 10:30:00 AM 1.29 34.322 0.071 6.4 9.29 13.28
2/18/2024 10:45:00 AM 1.44 34.592 0.071 6.51 9.74 13.29
2/18/2024 11:00:00 AM 1.6 34.88 0.071 6.48 9.72 13.3
2/18/2024 11:15:00 AM 1.77 35.186 0.071 6.53 9.06 13.31
2/18/2024 11:30:00 AM 1.93 35.474 0.071 6.55 8.55 13.33
2/18/2024 11:45:00 AM 2.11 35.798 0.071 6.56 8.75 13.33
2/18/2024 12:00:00 PM 2.25 36.05 0.071 6.57 9.96 13.33
2/18/2024 12:15:00 PM 2.4 36.32 0.071 6.57 9.83 13.33
2/18/2024 12:30:00 PM 2.55 36.59 0.071 6.47 9.46 13.33
2/18/2024 12:45:00 PM 2.67 36.806 0.071 6.6 9.34 13.33
2/18/2024 1:00:00 PM 2.78 37.004 0.071 6.48 9.39 13.31
2/18/2024 1:15:00 PM 2.87 37.166 0.071 6.54 9.55 13.31
2/18/2024 1:30:00 PM 3.01 37.418 0.071 6.56 9.69 13.3
2/18/2024 1:45:00 PM 3.1 37.58 0.071 6.55 9.29 13.29
2/18/2024 2:00:00 PM 3.14 37.652 0.071 6.6 8.99 13.27
2/18/2024 2:15:00 PM 3.19 37.742 0.071 6.59 9.09 13.27
2/18/2024 2:30:00 PM 3.21 37.778 0.071 6.59 9.43 13.27
2/18/2024 2:45:00 PM 3.26 37.868 0.071 6.51 9.03 13.26
2/18/2024 3:00:00 PM 3.33 37.994 0.071 6.59 8.61 13.25
2/18/2024 3:15:00 PM 3.37 38.066 0.071 6.48 8.91 13.25
2/18/2024 3:30:00 PM 3.38 38.084 0.072 6.54 8.72 13.25
2/18/2024 3:45:00 PM 3.39 38.102 0.072 6.59 8.34 13.24
2/18/2024 4:00:00 PM 3.36 38.048 0.071 6.57 8.74 13.27
2/18/2024 4:15:00 PM 3.35 38.03 0.071 6.58 8.49 13.29
2/18/2024 4:30:00 PM 3.35 38.03 0.071 6.57 8.5 13.31
2/18/2024 4:45:00 PM 3.33 37.994 0.071 6.56 8.48 13.33
2/18/2024 5:00:00 PM 3.32 37.976 0.071 6.54 8.07 13.32
2/18/2024 5:15:00 PM 3.26 37.868 0.071 6.46 8.05 13.33
2/18/2024 5:30:00 PM 3.16 37.688 0.071 6.47 8.15 13.32
2/18/2024 5:45:00 PM 3.05 37.49 0.071 6.52 8.44 13.32
2/18/2024 6:00:00 PM 2.95 37.31 0.071 6.48 8.01 13.34
2/18/2024 6:15:00 PM 2.9 37.22 0.071 6.5 7.87 13.34
2/18/2024 6:30:00 PM 2.86 37.148 0.071 6.47 8.14 13.33
2/18/2024 6:45:00 PM 2.81 37.058 0.071 6.47 7.61 13.32
2/18/2024 7:00:00 PM 2.76 36.968 0.071 6.46 7.81 13.3
2/18/2024 7:15:00 PM 2.7 36.86 0.071 6.44 7.93 13.29
2/18/2024 7:30:00 PM 2.63 36.734 0.071 6.32 8.62 13.27
2/18/2024 7:45:00 PM 2.57 36.626 0.071 6.37 8.42 13.25
2/18/2024 8:00:00 PM 2.5 36.5 0.072 6.42 8.21 13.23
2/18/2024 8:15:00 PM 2.43 36.374 0.072 6.4 8.25 13.22
2/18/2024 8:30:00 PM 2.35 36.23 0.072 6.27 8.53 13.21
2/18/2024 8:45:00 PM 2.26 36.068 0.072 6.38 7.97 13.21
2/18/2024 9:00:00 PM 2.18 35.924 0.072 6.3 8.87 13.2
2/18/2024 9:15:00 PM 2.1 35.78 0.072 6.33 8.74 13.19
2/18/2024 9:30:00 PM 2 35.6 0.072 6.37 8.39 13.18
2/18/2024 9:45:00 PM 1.9 35.42 0.072 6.25 9.21 13.16
2/18/2024 10:00:00 PM 1.81 35.258 0.072 6.36 8.65 13.17
2/18/2024 10:15:00 PM 1.73 35.114 0.072 6.33 8.74 13.16
2/18/2024 10:30:00 PM 1.66 34.988 0.073 6.34 8.95 13.15
2/18/2024 10:45:00 PM 1.58 34.844 0.073 6.34 9.27 13.16
2/18/2024 11:00:00 PM 1.5 34.7 0.073 6.22 9.87 13.16
2/18/2024 11:15:00 PM 1.43 34.574 0.073 6.29 9.64 13.16
2/18/2024 11:30:00 PM 1.36 34.448 0.073 6.34 9.6 13.16
2/18/2024 11:45:00 PM 1.29 34.322 0.073 6.25 10.33 13.17
2/19/2024 12:00:00 AM 1.24 34.232 0.073 6.3 10.66 13.17
2/19/2024 12:15:00 AM 1.18 34.124 0.073 6.34 11.04 13.16
2/19/2024 12:30:00 AM 1.12 34.016 0.073 6.24 10.77 13.17
2/19/2024 12:45:00 AM 1.08 33.944 0.073 6.34 10.96 13.17
2/19/2024 1:00:00 AM 1.02 33.836 0.073 6.33 10.52 13.17
2/19/2024 1:15:00 AM 0.98 33.764 0.073 6.33 11.08 13.16
2/19/2024 1:30:00 AM 0.93 33.674 0.074 6.32 11.72 13.15
2/19/2024 1:45:00 AM 0.89 33.602 0.074 6.33 11.41 13.15
2/19/2024 2:00:00 AM 0.87 33.566 0.073 6.34 11.68 13.16
2/19/2024 2:15:00 AM 0.84 33.512 0.074 6.25 11.89 13.16
2/19/2024 2:30:00 AM 0.82 33.476 0.074 6.37 11.34 13.19
2/19/2024 2:45:00 AM 0.8 33.44 0.073 6.26 10.9 13.21
2/19/2024 3:00:00 AM 0.78 33.404 0.073 6.34 12.19 13.21
2/19/2024 3:15:00 AM 0.76 33.368 0.073 6.39 11.57 13.22
2/19/2024 3:30:00 AM 0.73 33.314 0.073 6.29 11.28 13.22
2/19/2024 3:45:00 AM 0.7 33.26 0.073 6.39 11.53 13.25
2/19/2024 4:00:00 AM 0.69 33.242 0.073 6.3 11.07 13.26
2/19/2024 4:15:00 AM 0.69 33.242 0.073 6.41 9.72 13.27
2/19/2024 4:30:00 AM 0.69 33.242 0.073 6.33 9.13 13.28
2/19/2024 4:45:00 AM 0.67 33.206 0.073 6.38 9.52 13.29
2/19/2024 5:00:00 AM 0.65 33.17 0.073 6.42 9.49 13.28
2/19/2024 5:15:00 AM 0.64 33.152 0.072 6.36 8.76 13.3
2/19/2024 5:30:00 AM 0.61 33.098 0.072 6.42 8.77 13.3
2/19/2024 5:45:00 AM 0.6 33.08 0.072 6.42 9.05 13.3
2/19/2024 6:00:00 AM 0.58 33.044 0.072 6.42 8.44 13.32
2/19/2024 6:15:00 AM 0.56 33.008 0.072 6.34 9.14 13.32
2/19/2024 6:30:00 AM 0.53 32.954 0.072 6.39 8.2 13.32
2/19/2024 6:45:00 AM 0.54 32.972 0.072 6.39 7.71 13.33
2/19/2024 7:00:00 AM 0.54 32.972 0.072 6.4 7.68 13.33
2/19/2024 7:15:00 AM 0.54 32.972 0.072 6.4 7.56 13.33
2/19/2024 7:30:00 AM 0.53 32.954 0.072 6.41 7.53 13.34
2/19/2024 7:45:00 AM 0.51 32.918 0.072 6.43 7.91 13.34
2/19/2024 8:00:00 AM 0.5 32.9 0.072 6.35 7.67 13.35
2/19/2024 8:15:00 AM 0.49 32.882 0.072 6.44 7.34 13.36
2/19/2024 8:30:00 AM 0.5 32.9 0.072 6.35 7.91 13.37
2/19/2024 8:45:00 AM 0.52 32.936 0.072 6.4 7.26 13.37
2/19/2024 9:00:00 AM 0.55 32.99 0.072 6.41 8.09 13.38
2/19/2024 9:15:00 AM 0.61 33.098 0.072 6.43 7.79 13.39
2/19/2024 9:30:00 AM 0.65 33.17 0.072 6.48 8.2 13.41
2/19/2024 9:45:00 AM 0.77 33.386 0.072 6.4 9.79 13.43
2/19/2024 10:00:00 AM 0.88 33.584 0.072 6.47 9.66 13.45
2/19/2024 10:15:00 AM 1.01 33.818 0.071 6.53 9.9 13.46
2/19/2024 10:30:00 AM 1.16 34.088 0.071 6.44 9.85 13.48
2/19/2024 10:45:00 AM 1.31 34.358 0.071 6.51 9.87 13.49
2/19/2024 11:00:00 AM 1.48 34.664 0.071 6.53 10.65 13.5
2/19/2024 11:15:00 AM 1.66 34.988 0.071 6.54 9.71 13.5
2/19/2024 11:30:00 AM 1.86 35.348 0.071 6.55 9.48 13.49
2/19/2024 11:45:00 AM 2.03 35.654 0.071 6.6 10.23 13.5
2/19/2024 12:00:00 PM 2.24 36.032 0.071 6.54 8.95 13.5
2/19/2024 12:15:00 PM 2.41 36.338 0.071 6.57 9.55 13.5
2/19/2024 12:30:00 PM 2.59 36.662 0.071 6.63 9.86 13.5
2/19/2024 12:45:00 PM 2.8 37.04 0.071 6.53 9.42 13.49
2/19/2024 1:00:00 PM 2.98 37.364 0.071 6.59 9.72 13.49
2/19/2024 1:15:00 PM 3.11 37.598 0.071 6.59 9.69 13.49
2/19/2024 1:30:00 PM 3.25 37.85 0.071 6.63 9.38 13.48
2/19/2024 1:45:00 PM 3.39 38.102 0.071 6.63 9.12 13.48
2/19/2024 2:00:00 PM 3.5 38.3 0.071 6.64 9.03 13.48
2/19/2024 2:15:00 PM 3.55 38.39 0.071 6.61 9.26 13.47
2/19/2024 2:30:00 PM 3.59 38.462 0.071 6.61 8.91 13.46
2/19/2024 2:45:00 PM 3.59 38.462 0.071 6.64 8.93 13.48
2/19/2024 3:00:00 PM 3.61 38.498 0.071 6.52 8.9 13.47
2/19/2024 3:15:00 PM 3.6 38.48 0.071 6.64 9.46 13.48
2/19/2024 3:30:00 PM 3.58 38.444 0.071 6.5 8.91 13.48
2/19/2024 3:45:00 PM 3.54 38.372 0.071 6.57 10.16 13.48
2/19/2024 4:00:00 PM 3.51 38.318 0.071 6.56 10.95 13.46
2/19/2024 4:15:00 PM 3.45 38.21 0.071 6.55 10.18 13.46
2/19/2024 4:30:00 PM 3.38 38.084 0.071 6.6 10.59 13.47
2/19/2024 4:45:00 PM 3.29 37.922 0.071 6.59 10.13 13.46
2/19/2024 5:00:00 PM 3.18 37.724 0.071 6.57 10.29 13.48
2/19/2024 5:15:00 PM 3.07 37.526 0.071 6.44 9.55 13.49
2/19/2024 5:30:00 PM 2.96 37.328 0.071 6.55 9.52 13.49
2/19/2024 5:45:00 PM 2.84 37.112 0.071 6.5 9.58 13.48
2/19/2024 6:00:00 PM 2.72 36.896 0.071 6.5 8.64 13.48
2/19/2024 6:15:00 PM 2.61 36.698 0.071 6.49 8.5 13.49
2/19/2024 6:30:00 PM 2.48 36.464 0.071 6.36 8.28 13.48
2/19/2024 6:45:00 PM 2.36 36.248 0.071 6.47 9.03 13.47
2/19/2024 7:00:00 PM 2.25 36.05 0.072 6.32 8.37 13.47
2/19/2024 7:15:00 PM 2.14 35.852 0.072 6.44 8.05 13.48
2/19/2024 7:30:00 PM 2.05 35.69 0.072 6.35 7.71 13.47
2/19/2024 7:45:00 PM 1.98 35.564 0.072 6.34 7.66 13.47
2/19/2024 8:00:00 PM 1.93 35.474 0.072 6.35 7.79 13.47
2/19/2024 8:15:00 PM 1.88 35.384 0.072 6.39 8.1 13.46
2/19/2024 8:30:00 PM 1.83 35.294 0.072 6.29 8.67 13.45
2/19/2024 8:45:00 PM 1.78 35.204 0.072 6.33 8.09 13.45
2/19/2024 9:00:00 PM 1.71 35.078 0.072 6.33 7.9 13.44
2/19/2024 9:15:00 PM 1.64 34.952 0.072 6.37 7.24 13.44
2/19/2024 9:30:00 PM 1.56 34.808 0.073 6.27 7.44 13.44
2/19/2024 9:45:00 PM 1.48 34.664 0.073 6.32 7.66 13.45
2/19/2024 10:00:00 PM 1.41 34.538 0.073 6.36 7.57 13.45
2/19/2024 10:15:00 PM 1.33 34.394 0.073 6.35 7.32 13.46
2/19/2024 10:30:00 PM 1.27 34.286 0.073 6.26 7.92 13.45
2/19/2024 10:45:00 PM 1.21 34.178 0.073 6.34 7.9 13.45
2/19/2024 11:00:00 PM 1.15 34.07 0.073 6.34 8.3 13.44
2/19/2024 11:15:00 PM 1.1 33.98 0.073 6.24 8.77 13.43
2/19/2024 11:30:00 PM 1.05 33.89 0.073 6.35 8.39 13.43
2/19/2024 11:45:00 PM 0.99 33.782 0.073 6.25 8.16 13.43
2/20/2024 12:00:00 AM 0.94 33.692 0.073 6.33 8.64 13.43
2/20/2024 12:15:00 AM 0.89 33.602 0.073 6.34 8.45 13.43
2/20/2024 12:30:00 AM 0.84 33.512 0.073 6.26 8.53 13.42
2/20/2024 12:45:00 AM 0.8 33.44 0.073 6.3 9.22 13.42
2/20/2024 1:00:00 AM 0.76 33.368 0.073 6.32 9.07 13.41
2/20/2024 1:15:00 AM 0.72 33.296 0.073 6.35 9.49 13.42
2/20/2024 1:30:00 AM 0.69 33.242 0.073 6.33 9.98 13.41
2/20/2024 1:45:00 AM 0.66 33.188 0.073 6.27 9.61 13.41
2/20/2024 2:00:00 AM 0.64 33.152 0.073 6.32 8.8 13.4
2/20/2024 2:15:00 AM 0.61 33.098 0.073 6.33 9.26 13.41
2/20/2024 2:30:00 AM 0.59 33.062 0.073 6.37 9.96 13.41
2/20/2024 2:45:00 AM 0.56 33.008 0.073 6.27 9.87 13.4
2/20/2024 3:00:00 AM 0.54 32.972 0.073 6.37 9.64 13.4
2/20/2024 3:15:00 AM 0.53 32.954 0.073 6.3 9.24 13.4
2/20/2024 3:30:00 AM 0.51 32.918 0.073 6.38 9.07 13.4
2/20/2024 3:45:00 AM 0.49 32.882 0.073 6.37 9.23 13.4
2/20/2024 4:00:00 AM 0.48 32.864 0.073 6.3 8.94 13.4
2/20/2024 4:15:00 AM 0.47 32.846 0.073 6.39 8.81 13.4
2/20/2024 4:30:00 AM 0.47 32.846 0.073 6.36 8.27 13.4
2/20/2024 4:45:00 AM 0.45 32.81 0.073 6.37 8.45 13.39
2/20/2024 5:00:00 AM 0.44 32.792 0.073 6.39 8.42 13.39
2/20/2024 5:15:00 AM 0.43 32.774 0.073 6.39 8.19 13.39
2/20/2024 5:30:00 AM 0.43 32.774 0.073 6.39 8.23 13.39
2/20/2024 5:45:00 AM 0.42 32.756 0.073 6.3 8 13.39
2/20/2024 6:00:00 AM 0.42 32.756 0.073 6.4 7.85 13.4
2/20/2024 6:15:00 AM 0.41 32.738 0.073 6.38 8.47 13.4
2/20/2024 6:30:00 AM 0.41 32.738 0.073 6.31 7.17 13.4
2/20/2024 6:45:00 AM 0.4 32.72 0.073 6.36 7.62 13.41
2/20/2024 7:00:00 AM 0.4 32.72 0.073 6.4 7.14 13.41
2/20/2024 7:15:00 AM 0.39 32.702 0.073 6.4 6.79 13.41
2/20/2024 7:30:00 AM 0.38 32.684 0.073 6.3 6.51 13.41
2/20/2024 7:45:00 AM 0.38 32.684 0.073 6.35 6.99 13.41
2/20/2024 8:00:00 AM 0.37 32.666 0.073 6.36 6.7 13.42
2/20/2024 8:15:00 AM 0.38 32.684 0.073 6.35 6.61 13.43
2/20/2024 8:30:00 AM 0.37 32.666 0.073 6.4 6.6 13.45
2/20/2024 8:45:00 AM 0.39 32.702 0.073 6.3 6.92 13.46
2/20/2024 9:00:00 AM 0.42 32.756 0.073 6.37 7.35 13.47
2/20/2024 9:15:00 AM 0.46 32.828 0.073 6.42 7.07 13.47
2/20/2024 9:30:00 AM 0.52 32.936 0.073 6.34 7.29 13.49
2/20/2024 9:45:00 AM 0.61 33.098 0.073 6.44 8.01 13.5
2/20/2024 10:00:00 AM 0.71 33.278 0.073 6.36 7.43 13.52
2/20/2024 10:15:00 AM 0.81 33.458 0.073 6.45 8.34 13.53
2/20/2024 10:30:00 AM 0.94 33.692 0.073 6.43 8.48 13.53
2/20/2024 10:45:00 AM 1.07 33.926 0.073 6.49 8.54 13.54
2/20/2024 11:00:00 AM 1.22 34.196 0.073 6.49 8.75 13.54
2/20/2024 11:15:00 AM 1.38 34.484 0.073 6.41 8.57 13.54
2/20/2024 11:30:00 AM 1.58 34.844 0.073 6.47 7.98 13.55
2/20/2024 11:45:00 AM 1.78 35.204 0.073 6.49 7.85 13.56
2/20/2024 12:00:00 PM 1.99 35.582 0.073 6.54 7.94 13.58
2/20/2024 12:15:00 PM 2.22 35.996 0.073 6.55 7.28 13.59
2/20/2024 12:30:00 PM 2.42 36.356 0.072 6.45 7.56 13.59
2/20/2024 12:45:00 PM 2.61 36.698 0.072 6.57 7.18 13.59
2/20/2024 1:00:00 PM 2.81 37.058 0.072 6.56 7.2 13.6
2/20/2024 1:15:00 PM 2.98 37.364 0.072 6.52 7.36 13.6
2/20/2024 1:30:00 PM 3.17 37.706 0.072 6.58 7.01 13.59
2/20/2024 1:45:00 PM 3.31 37.958 0.072 6.56 7.04 13.58
2/20/2024 2:00:00 PM 3.43 38.174 0.072 6.58 7.44 13.59
2/20/2024 2:15:00 PM 3.54 38.372 0.072 6.56 6.85 13.57
2/20/2024 2:30:00 PM 3.64 38.552 0.072 6.52 7.14 13.58
2/20/2024 2:45:00 PM 3.71 38.678 0.072 6.51 6.98 13.58
2/20/2024 3:00:00 PM 3.78 38.804 0.072 6.53 7 13.58
2/20/2024 3:15:00 PM 3.84 38.912 0.072 6.52 7.77 13.59
2/20/2024 3:30:00 PM 3.89 39.002 0.071 6.52 7.96 13.59
2/20/2024 3:45:00 PM 3.9 39.02 0.071 6.57 8.94 13.61
2/20/2024 4:00:00 PM 3.92 39.056 0.072 6.51 9.1 13.58
2/20/2024 4:15:00 PM 3.93 39.074 0.071 6.57 8.91 13.56
2/20/2024 4:30:00 PM 3.9 39.02 0.072 6.55 8.29 13.57
2/20/2024 4:45:00 PM 3.88 38.984 0.072 6.43 7.85 13.56
2/20/2024 5:00:00 PM 3.82 38.876 0.072 6.54 8.15 13.57
2/20/2024 5:15:00 PM 3.76 38.768 0.072 6.45 7.87 13.56
2/20/2024 5:30:00 PM 3.71 38.678 0.072 6.53 8.33 13.53
2/20/2024 5:45:00 PM 3.6 38.48 0.072 6.51 8.01 13.56
2/20/2024 6:00:00 PM 3.5 38.3 0.072 6.39 8 13.55
2/20/2024 6:15:00 PM 3.41 38.138 0.072 6.49 7.91 13.54
2/20/2024 6:30:00 PM 3.26 37.868 0.072 6.46 7.49 13.56
2/20/2024 6:45:00 PM 3.16 37.688 0.072 6.35 7.52 13.55
2/20/2024 7:00:00 PM 3.03 37.454 0.072 6.45 7.68 13.55
2/20/2024 7:15:00 PM 2.92 37.256 0.072 6.42 7.27 13.54
2/20/2024 7:30:00 PM 2.81 37.058 0.072 6.39 7.7 13.54
2/20/2024 7:45:00 PM 2.72 36.896 0.072 6.4 7.08 13.52
2/20/2024 8:00:00 PM 2.65 36.77 0.072 6.28 7.38 13.51
2/20/2024 8:15:00 PM 2.58 36.644 0.072 6.38 7.83 13.5
2/20/2024 8:30:00 PM 2.5 36.5 0.072 6.37 7.85 13.49
2/20/2024 8:45:00 PM 2.43 36.374 0.073 6.36 7.84 13.49
2/20/2024 9:00:00 PM 2.36 36.248 0.073 6.24 7.6 13.48
2/20/2024 9:15:00 PM 2.27 36.086 0.073 6.34 7.65 13.47
2/20/2024 9:30:00 PM 2.18 35.924 0.073 6.24 7.57 13.47
2/20/2024 9:45:00 PM 2.07 35.726 0.073 6.34 6.38 13.47
2/20/2024 10:00:00 PM 1.98 35.564 0.073 6.32 7.16 13.47
2/20/2024 10:15:00 PM 1.89 35.402 0.073 6.31 7.17 13.46
2/20/2024 10:30:00 PM 1.77 35.186 0.074 6.31 6.5 13.47
2/20/2024 10:45:00 PM 1.68 35.024 0.074 6.18 6.64 13.47
2/20/2024 11:00:00 PM 1.6 34.88 0.074 6.3 7.28 13.45
2/20/2024 11:15:00 PM 1.52 34.736 0.074 6.26 7.71 13.44
2/20/2024 11:30:00 PM 1.44 34.592 0.074 6.23 7.53 13.44
2/20/2024 11:45:00 PM 1.36 34.448 0.075 6.26 7.96 13.44
2/21/2024 12:00:00 AM 1.27 34.286 0.075 6.25 8.02 13.43
2/21/2024 12:15:00 AM 1.19 34.142 0.075 6.23 8.56 13.43
2/21/2024 12:30:00 AM 1.1 33.98 0.075 6.24 8.77 13.44
2/21/2024 12:45:00 AM 1.04 33.872 0.075 6.29 8.7 13.43
2/21/2024 1:00:00 AM 0.99 33.782 0.075 6.29 8.4 13.41
2/21/2024 1:15:00 AM 0.94 33.692 0.075 6.18 8.58 13.4
2/21/2024 1:30:00 AM 0.92 33.656 0.075 6.25 9.47 13.4
2/21/2024 1:45:00 AM 0.89 33.602 0.075 6.26 9.73 13.39
2/21/2024 2:00:00 AM 0.86 33.548 0.075 6.27 9.06 13.39
2/21/2024 2:15:00 AM 0.82 33.476 0.075 6.27 8.77 13.4
2/21/2024 2:30:00 AM 0.77 33.386 0.075 6.27 8.74 13.4
2/21/2024 2:45:00 AM 0.75 33.35 0.075 6.28 9.21 13.41
2/21/2024 3:00:00 AM 0.71 33.278 0.075 6.33 9.7 13.41
2/21/2024 3:15:00 AM 0.69 33.242 0.075 6.33 10.48 13.41
2/21/2024 3:30:00 AM 0.67 33.206 0.075 6.34 10.84 13.39
2/21/2024 3:45:00 AM 0.64 33.152 0.075 6.35 11.11 13.38
2/21/2024 4:00:00 AM 0.62 33.116 0.075 6.34 10.64 13.38
2/21/2024 4:15:00 AM 0.6 33.08 0.075 6.24 10.63 13.39
2/21/2024 4:30:00 AM 0.57 33.026 0.075 6.31 10.66 13.39
2/21/2024 4:45:00 AM 0.55 32.99 0.075 6.31 10 13.39
2/21/2024 5:00:00 AM 0.51 32.918 0.075 6.36 10.7 13.41
2/21/2024 5:15:00 AM 0.47 32.846 0.075 6.33 9.52 13.43
2/21/2024 5:30:00 AM 0.43 32.774 0.075 6.28 9.01 13.45
2/21/2024 5:45:00 AM 0.4 32.72 0.075 6.37 8.82 13.46
2/21/2024 6:00:00 AM 0.38 32.684 0.075 6.37 8.49 13.47
2/21/2024 6:15:00 AM 0.36 32.648 0.075 6.28 7.8 13.49
2/21/2024 6:30:00 AM 0.35 32.63 0.075 6.34 7.19 13.49
2/21/2024 6:45:00 AM 0.34 32.612 0.075 6.35 7.18 13.5
2/21/2024 7:00:00 AM 0.33 32.594 0.075 6.4 7.26 13.5
2/21/2024 7:15:00 AM 0.32 32.576 0.075 6.31 6.78 13.5
2/21/2024 7:30:00 AM 0.33 32.594 0.075 6.36 6.93 13.5
2/21/2024 7:45:00 AM 0.34 32.612 0.075 6.41 7.5 13.49
2/21/2024 8:00:00 AM 0.35 32.63 0.075 6.32 6.73 13.49
2/21/2024 8:15:00 AM 0.36 32.648 0.075 6.37 6.41 13.49
2/21/2024 8:30:00 AM 0.36 32.648 0.075 6.42 6.56 13.5
2/21/2024 8:45:00 AM 0.38 32.684 0.075 6.42 6.51 13.5
2/21/2024 9:00:00 AM 0.43 32.774 0.075 6.33 7.18 13.51
2/21/2024 9:15:00 AM 0.48 32.864 0.075 6.43 7.62 13.52
2/21/2024 9:30:00 AM 0.55 32.99 0.075 6.38 7.2 13.52
2/21/2024 9:45:00 AM 0.63 33.134 0.075 6.42 7.63 13.53
2/21/2024 10:00:00 AM 0.73 33.314 0.075 6.44 7.64 13.55
2/21/2024 10:15:00 AM 0.86 33.548 0.075 6.49 7.96 13.56
2/21/2024 10:30:00 AM 1 33.8 0.074 6.49 7.37 13.58
2/21/2024 10:45:00 AM 1.16 34.088 0.074 6.43 7.44 13.59
2/21/2024 11:00:00 AM 1.33 34.394 0.074 6.53 8.65 13.61
2/21/2024 11:15:00 AM 1.51 34.718 0.074 6.51 8.22 13.62
2/21/2024 11:30:00 AM 1.71 35.078 0.074 6.49 8.31 13.63
2/21/2024 11:45:00 AM 1.9 35.42 0.074 6.57 8.19 13.64
2/21/2024 12:00:00 PM 2.09 35.762 0.074 6.57 7.94 13.63
2/21/2024 12:15:00 PM 2.28 36.104 0.074 6.48 8.04 13.63
2/21/2024 12:30:00 PM 2.47 36.446 0.074 6.54 8.45 13.63
2/21/2024 12:45:00 PM 2.66 36.788 0.074 6.55 8.67 13.64
2/21/2024 1:00:00 PM 2.86 37.148 0.074 6.61 8.37 13.63
2/21/2024 1:15:00 PM 3.06 37.508 0.074 6.59 8.73 13.62
2/21/2024 1:30:00 PM 3.23 37.814 0.074 6.52 9.46 13.61
2/21/2024 1:45:00 PM 3.4 38.12 0.073 6.62 10.1 13.6
2/21/2024 2:00:00 PM 3.54 38.372 0.073 6.5 9.34 13.57
2/21/2024 2:15:00 PM 3.64 38.552 0.073 6.56 9.38 13.57
2/21/2024 2:30:00 PM 3.73 38.714 0.073 6.61 9.87 13.56
2/21/2024 2:45:00 PM 3.82 38.876 0.073 6.61 9.45 13.55
2/21/2024 3:00:00 PM 3.87 38.966 0.073 6.5 9.55 13.55
2/21/2024 3:15:00 PM 3.94 39.092 0.073 6.61 10 13.53
2/21/2024 3:30:00 PM 3.98 39.164 0.073 6.6 9.77 13.51
2/21/2024 3:45:00 PM 3.99 39.182 0.073 6.59 10.63 13.52
2/21/2024 4:00:00 PM 4 39.2 0.073 6.48 9.54 13.52
2/21/2024 4:15:00 PM 3.98 39.164 0.073 6.53 9.65 13.52
2/21/2024 4:30:00 PM 3.94 39.092 0.073 6.59 8.58 13.52
2/21/2024 4:45:00 PM 3.89 39.002 0.073 6.46 8.11 13.55
2/21/2024 5:00:00 PM 3.85 38.93 0.073 6.54 7.88 13.56
2/21/2024 5:15:00 PM 3.82 38.876 0.073 6.57 7.92 13.57
2/21/2024 5:30:00 PM 3.78 38.804 0.073 6.55 7.62 13.55
2/21/2024 5:45:00 PM 3.7 38.66 0.073 6.55 7.52 13.55
2/21/2024 6:00:00 PM 3.6 38.48 0.073 6.54 7.73 13.55
2/21/2024 6:15:00 PM 3.49 38.282 0.073 6.42 7.57 13.55
2/21/2024 6:30:00 PM 3.38 38.084 0.073 6.52 7.44 13.56
2/21/2024 6:45:00 PM 3.26 37.868 0.073 6.5 8.1 13.56
2/21/2024 7:00:00 PM 3.17 37.706 0.073 6.47 7.25 13.55
2/21/2024 7:15:00 PM 3.06 37.508 0.073 6.35 8.64 13.53
2/21/2024 7:30:00 PM 2.95 37.31 0.073 6.46 7.88 13.53
2/21/2024 7:45:00 PM 2.86 37.148 0.073 6.32 7.62 13.52
2/21/2024 8:00:00 PM 2.78 37.004 0.073 6.38 7.43 13.5
2/21/2024 8:15:00 PM 2.71 36.878 0.073 6.42 7.99 13.49
2/21/2024 8:30:00 PM 2.63 36.734 0.074 6.4 8.11 13.46
2/21/2024 8:45:00 PM 2.55 36.59 0.074 6.28 8 13.43
2/21/2024 9:00:00 PM 2.46 36.428 0.074 6.38 8.26 13.43
2/21/2024 9:15:00 PM 2.37 36.266 0.074 6.28 9.18 13.43
2/21/2024 9:30:00 PM 2.29 36.122 0.074 6.36 7.88 13.42
2/21/2024 9:45:00 PM 2.2 35.96 0.074 6.29 7.94 13.42
2/21/2024 10:00:00 PM 2.13 35.834 0.074 6.36 7.35 13.42
2/21/2024 10:15:00 PM 2.05 35.69 0.074 6.27 8.06 13.42
2/21/2024 10:30:00 PM 1.98 35.564 0.074 6.33 8.09 13.42
2/21/2024 10:45:00 PM 1.91 35.438 0.074 6.34 7.75 13.41
2/21/2024 11:00:00 PM 1.82 35.276 0.075 6.33 7.76 13.4
2/21/2024 11:15:00 PM 1.75 35.15 0.075 6.24 8.2 13.39
2/21/2024 11:30:00 PM 1.65 34.97 0.075 6.29 7.77 13.4
2/21/2024 11:45:00 PM 1.57 34.826 0.075 6.34 7.83 13.39
2/22/2024 12:00:00 AM 1.48 34.664 0.075 6.32 7.92 13.39
2/22/2024 12:15:00 AM 1.42 34.556 0.075 6.31 8.1 13.38
2/22/2024 12:30:00 AM 1.33 34.394 0.075 6.33 7.97 13.38
2/22/2024 12:45:00 AM 1.26 34.268 0.075 6.29 8.23 13.38
2/22/2024 1:00:00 AM 1.2 34.16 0.075 6.25 8.13 13.37
2/22/2024 1:15:00 AM 1.16 34.088 0.075 6.32 8.44 13.35
2/22/2024 1:30:00 AM 1.11 33.998 0.075 6.25 9.21 13.35
2/22/2024 1:45:00 AM 1.08 33.944 0.075 6.33 8.87 13.33
2/22/2024 2:00:00 AM 1.05 33.89 0.075 6.34 8.56 13.33
2/22/2024 2:15:00 AM 1.02 33.836 0.075 6.24 8.69 13.31
2/22/2024 2:30:00 AM 1 33.8 0.076 6.35 9.64 13.3
2/22/2024 2:45:00 AM 0.99 33.782 0.075 6.35 10.11 13.29
2/22/2024 3:00:00 AM 0.97 33.746 0.075 6.26 10.11 13.3
2/22/2024 3:15:00 AM 0.96 33.728 0.075 6.37 10.27 13.3
2/22/2024 3:30:00 AM 0.96 33.728 0.075 6.36 9.6 13.29
2/22/2024 3:45:00 AM 0.95 33.71 0.075 6.29 9.6 13.27
2/22/2024 4:00:00 AM 0.95 33.71 0.075 6.39 9.56 13.27
2/22/2024 4:15:00 AM 0.94 33.692 0.075 6.34 9.48 13.27
2/22/2024 4:30:00 AM 0.94 33.692 0.075 6.37 9.99 13.26
2/22/2024 4:45:00 AM 0.93 33.674 0.075 6.4 11.41 13.25
2/22/2024 5:00:00 AM 0.92 33.656 0.075 6.29 10.66 13.24
2/22/2024 5:15:00 AM 0.92 33.656 0.075 6.4 9.75 13.24
2/22/2024 5:30:00 AM 0.9 33.62 0.075 6.37 9.25 13.24
2/22/2024 5:45:00 AM 0.88 33.584 0.075 6.33 8.72 13.24
2/22/2024 6:00:00 AM 0.86 33.548 0.075 6.36 8.82 13.25
2/22/2024 6:15:00 AM 0.85 33.53 0.075 6.4 7.92 13.25
2/22/2024 6:30:00 AM 0.84 33.512 0.075 6.38 8.03 13.25
2/22/2024 6:45:00 AM 0.82 33.476 0.075 6.41 7.15 13.26
2/22/2024 7:00:00 AM 0.82 33.476 0.075 6.33 7.36 13.25
2/22/2024 7:15:00 AM 0.83 33.494 0.075 6.37 7.15 13.26
2/22/2024 7:30:00 AM 0.85 33.53 0.075 6.41 7.51 13.25
2/22/2024 7:45:00 AM 0.87 33.566 0.075 6.42 7.94 13.25
2/22/2024 8:00:00 AM 0.88 33.584 0.075 6.33 7.35 13.25
2/22/2024 8:15:00 AM 0.9 33.62 0.075 6.39 7.64 13.26
2/22/2024 8:30:00 AM 0.93 33.674 0.074 6.44 7.19 13.28
2/22/2024 8:45:00 AM 0.97 33.746 0.074 6.44 7.08 13.29
2/22/2024 9:00:00 AM 1.02 33.836 0.074 6.46 7.66 13.31
2/22/2024 9:15:00 AM 1.08 33.944 0.074 6.46 7.57 13.33
2/22/2024 9:30:00 AM 1.14 34.052 0.074 6.36 7.29 13.35
2/22/2024 9:45:00 AM 1.22 34.196 0.074 6.44 8.07 13.37
2/22/2024 10:00:00 AM 1.31 34.358 0.074 6.5 7.93 13.39
2/22/2024 10:15:00 AM 1.39 34.502 0.074 6.41 7.35 13.41
2/22/2024 10:30:00 AM 1.48 34.664 0.074 6.48 7.52 13.43
2/22/2024 10:45:00 AM 1.57 34.826 0.074 6.52 7.45 13.46
2/22/2024 11:00:00 AM 1.66 34.988 0.074 6.52 7.67 13.47
2/22/2024 11:15:00 AM 1.76 35.168 0.074 6.54 7.77 13.48
2/22/2024 11:30:00 AM 1.85 35.33 0.074 6.54 7.24 13.5
2/22/2024 11:45:00 AM 1.95 35.51 0.074 6.45 7.5 13.5
2/22/2024 12:00:00 PM 2.03 35.654 0.074 6.52 7.96 13.52
2/22/2024 12:15:00 PM 2.1 35.78 0.074 6.51 7.8 13.53
2/22/2024 12:30:00 PM 2.16 35.888 0.074 6.56 7.84 13.54
2/22/2024 12:45:00 PM 2.3 36.14 0.074 6.5 8.55 13.53
2/22/2024 1:00:00 PM 2.43 36.374 0.074 6.58 7.9 13.55
2/22/2024 1:15:00 PM 2.57 36.626 0.074 6.58 8.1 13.56
2/22/2024 1:30:00 PM 2.69 36.842 0.074 6.59 7.88 13.56
2/22/2024 1:45:00 PM 2.83 37.094 0.074 6.47 8.91 13.56
2/22/2024 2:00:00 PM 2.95 37.31 0.074 6.55 8.1 13.55
2/22/2024 2:15:00 PM 3.06 37.508 0.073 6.58 8.39 13.55
2/22/2024 2:30:00 PM 3.14 37.652 0.073 6.51 7.93 13.57
2/22/2024 2:45:00 PM 3.26 37.868 0.073 6.56 7.73 13.59
2/22/2024 3:00:00 PM 3.41 38.138 0.073 6.55 7.66 13.6
2/22/2024 3:15:00 PM 3.58 38.444 0.073 6.57 7.63 13.61
2/22/2024 3:30:00 PM 3.71 38.678 0.073 6.57 7.69 13.59
2/22/2024 3:45:00 PM 3.79 38.822 0.073 6.63 7.5 13.6
2/22/2024 4:00:00 PM 3.8 38.84 0.073 6.62 7.44 13.61
2/22/2024 4:15:00 PM 3.81 38.858 0.073 6.62 7.22 13.6
2/22/2024 4:30:00 PM 3.76 38.768 0.073 6.48 7.76 13.61
2/22/2024 4:45:00 PM 3.68 38.624 0.073 6.55 7.82 13.6
2/22/2024 5:00:00 PM 3.6 38.48 0.073 6.6 7.62 13.6
2/22/2024 5:15:00 PM 3.49 38.282 0.073 6.52 8.71 13.57
2/22/2024 5:30:00 PM 3.35 38.03 0.073 6.56 8.37 13.59
2/22/2024 5:45:00 PM 3.27 37.886 0.073 6.54 7.64 13.58
2/22/2024 6:00:00 PM 3.2 37.76 0.073 6.54 7.67 13.58
2/22/2024 6:15:00 PM 3.15 37.67 0.073 6.41 7.96 13.56
2/22/2024 6:30:00 PM 3.08 37.544 0.073 6.52 8.22 13.56
2/22/2024 6:45:00 PM 3 37.4 0.073 6.5 7.47 13.54
2/22/2024 7:00:00 PM 2.92 37.256 0.073 6.49 7.7 13.53
2/22/2024 7:15:00 PM 2.79 37.022 0.073 6.33 8.42 13.5
2/22/2024 7:30:00 PM 2.7 36.86 0.073 6.46 8.05 13.48
2/22/2024 7:45:00 PM 2.61 36.698 0.073 6.33 8.72 13.45
2/22/2024 8:00:00 PM 2.57 36.626 0.073 6.41 9.35 13.43
2/22/2024 8:15:00 PM 2.56 36.608 0.073 6.42 8.74 13.4
2/22/2024 8:30:00 PM 2.55 36.59 0.073 6.42 8.47 13.37
2/22/2024 8:45:00 PM 2.52 36.536 0.073 6.4 8.33 13.35
2/22/2024 9:00:00 PM 2.47 36.446 0.073 6.35 8.94 13.33
2/22/2024 9:15:00 PM 2.41 36.338 0.073 6.38 8.67 13.31
2/22/2024 9:30:00 PM 2.34 36.212 0.073 6.39 8.21 13.31
2/22/2024 9:45:00 PM 2.3 36.14 0.073 6.34 8.08 13.3
2/22/2024 10:00:00 PM 2.26 36.068 0.073 6.41 8.29 13.28
2/22/2024 10:15:00 PM 2.2 35.96 0.073 6.29 8.11 13.26
2/22/2024 10:30:00 PM 2.16 35.888 0.073 6.35 8.63 13.24
2/22/2024 10:45:00 PM 2.1 35.78 0.073 6.35 8.42 13.22
2/22/2024 11:00:00 PM 2.05 35.69 0.073 6.39 8.47 13.22
2/22/2024 11:15:00 PM 2.02 35.636 0.073 6.39 9.01 13.21
2/22/2024 11:30:00 PM 1.98 35.564 0.073 6.27 8.96 13.2
2/22/2024 11:45:00 PM 1.97 35.546 0.074 6.38 8.81 13.17
2/23/2024 12:00:00 AM 1.95 35.51 0.074 6.36 10.26 13.15
2/23/2024 12:15:00 AM 1.91 35.438 0.074 6.32 9.26 13.15
2/23/2024 12:30:00 AM 1.88 35.384 0.074 6.39 9.07 13.13
2/23/2024 12:45:00 AM 1.84 35.312 0.074 6.29 8.95 13.12
2/23/2024 1:00:00 AM 1.83 35.294 0.074 6.36 9.36 13.11
2/23/2024 1:15:00 AM 1.81 35.258 0.074 6.39 9.25 13.09
2/23/2024 1:30:00 AM 1.81 35.258 0.074 6.31 9.45 13.07
2/23/2024 1:45:00 AM 1.79 35.222 0.074 6.39 9.56 13.07
2/23/2024 2:00:00 AM 1.79 35.222 0.074 6.29 10.09 13.06
2/23/2024 2:15:00 AM 1.78 35.204 0.074 6.4 8.94 13.06
2/23/2024 2:30:00 AM 1.76 35.168 0.074 6.39 9.14 13.05
2/23/2024 2:45:00 AM 1.74 35.132 0.074 6.39 9.09 13.04
2/23/2024 3:00:00 AM 1.72 35.096 0.074 6.31 9.32 13.03
2/23/2024 3:15:00 AM 1.72 35.096 0.074 6.39 8.78 13.02
2/23/2024 3:30:00 AM 1.72 35.096 0.074 6.4 8.75 13.02
2/23/2024 3:45:00 AM 1.72 35.096 0.074 6.39 8.99 13.01
2/23/2024 4:00:00 AM 1.73 35.114 0.074 6.41 9.31 13.01
2/23/2024 4:15:00 AM 1.74 35.132 0.074 6.4 10.07 12.99
2/23/2024 4:30:00 AM 1.73 35.114 0.074 6.38 10.4 12.99
2/23/2024 4:45:00 AM 1.74 35.132 0.074 6.35 9.88 12.97
2/23/2024 5:00:00 AM 1.75 35.15 0.074 6.42 9.77 12.96
2/23/2024 5:15:00 AM 1.76 35.168 0.074 6.32 9.89 12.97
2/23/2024 5:30:00 AM 1.77 35.186 0.074 6.41 10.2 12.94
2/23/2024 5:45:00 AM 1.78 35.204 0.074 6.3 9.84 12.92
2/23/2024 6:00:00 AM 1.78 35.204 0.074 6.36 10 12.93
2/23/2024 6:15:00 AM 1.78 35.204 0.074 6.36 9.41 12.93
2/23/2024 6:30:00 AM 1.78 35.204 0.074 6.41 8.4 12.92
2/23/2024 6:45:00 AM 1.78 35.204 0.074 6.41 9.28 12.91
2/23/2024 7:00:00 AM 1.8 35.24 0.074 6.41 8.66 12.9
2/23/2024 7:15:00 AM 1.82 35.276 0.074 6.41 8.13 12.9
2/23/2024 7:30:00 AM 1.83 35.294 0.075 6.31 7.87 12.9
2/23/2024 7:45:00 AM 1.84 35.312 0.075 6.42 8.28 12.89
2/23/2024 8:00:00 AM 1.86 35.348 0.074 6.41 8.53 12.89
2/23/2024 8:15:00 AM 1.88 35.384 0.075 6.42 7.89 12.88
2/23/2024 8:30:00 AM 1.89 35.402 0.075 6.31 7.84 12.87
2/23/2024 8:45:00 AM 1.92 35.456 0.075 6.42 8.06 12.86
2/23/2024 9:00:00 AM 1.94 35.492 0.075 6.42 7.95 12.88
2/23/2024 9:15:00 AM 1.97 35.546 0.075 6.33 8.02 12.87
2/23/2024 9:30:00 AM 2 35.6 0.075 6.38 7.76 12.89
2/23/2024 9:45:00 AM 2.03 35.654 0.075 6.39 7.94 12.92
2/23/2024 10:00:00 AM 2.09 35.762 0.075 6.39 7.76 12.93
2/23/2024 10:15:00 AM 2.13 35.834 0.075 6.45 7.82 12.94
2/23/2024 10:30:00 AM 2.18 35.924 0.075 6.45 7.14 12.97
2/23/2024 10:45:00 AM 2.24 36.032 0.075 6.46 7.24 13.01
2/23/2024 11:00:00 AM 2.31 36.158 0.075 6.46 7.52 13.02
2/23/2024 11:15:00 AM 2.37 36.266 0.075 6.37 6.98 13.05
2/23/2024 11:30:00 AM 2.44 36.392 0.075 6.49 7.02 13.07
2/23/2024 11:45:00 AM 2.5 36.5 0.075 6.38 7.13 13.09
2/23/2024 12:00:00 PM 2.55 36.59 0.074 6.5 6.87 13.12
2/23/2024 12:15:00 PM 2.61 36.698 0.075 6.4 7 13.13
2/23/2024 12:30:00 PM 2.65 36.77 0.075 6.5 6.75 13.14
2/23/2024 12:45:00 PM 2.69 36.842 0.075 6.46 6.76 13.15
2/23/2024 1:00:00 PM 2.75 36.95 0.075 6.52 7 13.16
2/23/2024 1:15:00 PM 2.83 37.094 0.075 6.41 6.99 13.16
2/23/2024 1:30:00 PM 2.88 37.184 0.075 6.52 6.52 13.18
2/23/2024 1:45:00 PM 2.94 37.292 0.075 6.44 6.66 13.2
2/23/2024 2:00:00 PM 3.01 37.418 0.075 6.49 6.3 13.21
2/23/2024 2:15:00 PM 3.06 37.508 0.075 6.55 6.54 13.23
2/23/2024 2:30:00 PM 3.11 37.598 0.075 6.55 6.59 13.25
2/23/2024 2:45:00 PM 3.16 37.688 0.075 6.56 6.35 13.26
2/23/2024 3:00:00 PM 3.2 37.76 0.075 6.44 6.26 13.29
2/23/2024 3:15:00 PM 3.22 37.796 0.075 6.52 6.23 13.31
2/23/2024 3:30:00 PM 3.26 37.868 0.075 6.52 6.28 13.32
2/23/2024 3:45:00 PM 3.3 37.94 0.075 6.52 6.03 13.35
2/23/2024 4:00:00 PM 3.32 37.976 0.075 6.52 6.04 13.36
2/23/2024 4:15:00 PM 3.35 38.03 0.075 6.57 5.94 13.39
2/23/2024 4:30:00 PM 3.38 38.084 0.075 6.49 6.05 13.41
2/23/2024 4:45:00 PM 3.41 38.138 0.075 6.57 6.09 13.43
2/23/2024 5:00:00 PM 3.43 38.174 0.075 6.57 5.9 13.43
2/23/2024 5:15:00 PM 3.42 38.156 0.075 6.57 5.92 13.44
2/23/2024 5:30:00 PM 3.4 38.12 0.075 6.57 6.02 13.45
2/23/2024 5:45:00 PM 3.39 38.102 0.075 6.57 5.86 13.45
2/23/2024 6:00:00 PM 3.37 38.066 0.075 6.44 6.02 13.44
2/23/2024 6:15:00 PM 3.32 37.976 0.075 6.56 5.97 13.42
2/23/2024 6:30:00 PM 3.23 37.814 0.075 6.44 6.16 13.42
2/23/2024 6:45:00 PM 3.16 37.688 0.075 6.54 6.12 13.39
2/23/2024 7:00:00 PM 3.06 37.508 0.075 6.51 6.09 13.39
2/23/2024 7:15:00 PM 2.97 37.346 0.075 6.41 6.42 13.37
2/23/2024 7:30:00 PM 2.85 37.13 0.075 6.49 6.45 13.35
2/23/2024 7:45:00 PM 2.77 36.986 0.075 6.47 6.61 13.31
2/23/2024 8:00:00 PM 2.67 36.806 0.075 6.34 6.33 13.29
2/23/2024 8:15:00 PM 2.62 36.716 0.075 6.39 6.4 13.26
2/23/2024 8:30:00 PM 2.56 36.608 0.075 6.43 6.73 13.23
2/23/2024 8:45:00 PM 2.53 36.554 0.075 6.42 7 13.21
2/23/2024 9:00:00 PM 2.48 36.464 0.075 6.32 7.1 13.19
2/23/2024 9:15:00 PM 2.44 36.392 0.075 6.37 6.75 13.18
2/23/2024 9:30:00 PM 2.41 36.338 0.075 6.36 6.74 13.16
2/23/2024 9:45:00 PM 2.38 36.284 0.075 6.4 7.14 13.15
2/23/2024 10:00:00 PM 2.35 36.23 0.075 6.39 7.41 13.14
2/23/2024 10:15:00 PM 2.33 36.194 0.075 6.4 7.01 13.12
2/23/2024 10:30:00 PM 2.29 36.122 0.075 6.4 7.26 13.11
2/23/2024 10:45:00 PM 2.26 36.068 0.075 6.28 7.32 13.11
2/23/2024 11:00:00 PM 2.25 36.05 0.075 6.38 7.59 13.09
2/23/2024 11:15:00 PM 2.22 35.996 0.075 6.39 7.51 13.07
2/23/2024 11:30:00 PM 2.2 35.96 0.075 6.39 7.78 13.06
2/23/2024 11:45:00 PM 2.17 35.906 0.075 6.3 7.88 13.05
2/24/2024 12:00:00 AM 2.15 35.87 0.075 6.4 7.62 13.04
2/24/2024 12:15:00 AM 2.12 35.816 0.075 6.3 8.16 13.02
2/24/2024 12:30:00 AM 2.09 35.762 0.075 6.35 9.02 13
2/24/2024 12:45:00 AM 2.04 35.672 0.075 6.39 8.87 13
2/24/2024 1:00:00 AM 2 35.6 0.075 6.4 8.79 13
2/24/2024 1:15:00 AM 1.98 35.564 0.075 6.39 8.16 12.99
2/24/2024 1:30:00 AM 1.96 35.528 0.075 6.39 8.35 12.98
2/24/2024 1:45:00 AM 1.94 35.492 0.075 6.29 8.14 12.97
2/24/2024 2:00:00 AM 1.93 35.474 0.076 6.35 8.84 12.95
2/24/2024 2:15:00 AM 1.92 35.456 0.076 6.35 9.88 12.89
2/24/2024 2:30:00 AM 1.9 35.42 0.077 6.39 10.48 12.84
2/24/2024 2:45:00 AM 1.87 35.366 0.077 6.38 11.16 12.83
2/24/2024 3:00:00 AM 1.84 35.312 0.077 6.38 11.06 12.82
2/24/2024 3:15:00 AM 1.82 35.276 0.077 6.3 11.74 12.84
2/24/2024 3:30:00 AM 1.79 35.222 0.077 6.35 10.83 12.84
2/24/2024 3:45:00 AM 1.78 35.204 0.077 6.36 10.7 12.86
2/24/2024 4:00:00 AM 1.76 35.168 0.077 6.42 9.99 12.89
2/24/2024 4:15:00 AM 1.74 35.132 0.077 6.42 10.53 12.91
2/24/2024 4:30:00 AM 1.73 35.114 0.077 6.43 10.3 12.9
2/24/2024 4:45:00 AM 1.71 35.078 0.077 6.42 11.15 12.9
2/24/2024 5:00:00 AM 1.68 35.024 0.076 6.34 10.87 12.91
2/24/2024 5:15:00 AM 1.66 34.988 0.076 6.39 10.39 12.92
2/24/2024 5:30:00 AM 1.63 34.934 0.076 6.43 10.11 12.93
2/24/2024 5:45:00 AM 1.6 34.88 0.076 6.36 8.92 12.94
2/24/2024 6:00:00 AM 1.56 34.808 0.076 6.39 8.76 12.95
2/24/2024 6:15:00 AM 1.53 34.754 0.076 6.39 8.84 12.96
2/24/2024 6:30:00 AM 1.49 34.682 0.076 6.44 9.04 12.96
2/24/2024 6:45:00 AM 1.43 34.574 0.077 6.42 8.43 12.96
2/24/2024 7:00:00 AM 1.4 34.52 0.076 6.43 8.28 12.98
2/24/2024 7:15:00 AM 1.35 34.43 0.076 6.43 8.76 12.99
2/24/2024 7:30:00 AM 1.3 34.34 0.076 6.33 9.4 13.01
2/24/2024 7:45:00 AM 1.27 34.286 0.076 6.44 9.07 13.02
2/24/2024 8:00:00 AM 1.24 34.232 0.076 6.37 8.96 13.06
2/24/2024 8:15:00 AM 1.2 34.16 0.076 6.39 9.63 13.07
2/24/2024 8:30:00 AM 1.16 34.088 0.076 6.4 10.16 13.09
2/24/2024 8:45:00 AM 1.12 34.016 0.075 6.45 10.49 13.11
2/24/2024 9:00:00 AM 1.09 33.962 0.075 6.45 11.67 13.13
2/24/2024 9:15:00 AM 1.11 33.998 0.075 6.36 11.88 13.16
2/24/2024 9:30:00 AM 1.13 34.034 0.075 6.48 12.48 13.2
2/24/2024 9:45:00 AM 1.18 34.124 0.075 6.42 11.05 13.23
2/24/2024 10:00:00 AM 1.27 34.286 0.075 6.53 13.86 13.25
2/24/2024 10:15:00 AM 1.37 34.466 0.074 6.47 13.79 13.27
2/24/2024 10:30:00 AM 1.49 34.682 0.074 6.58 12.35 13.29
2/24/2024 10:45:00 AM 1.63 34.934 0.074 6.6 13.07 13.3
2/24/2024 11:00:00 AM 1.82 35.276 0.074 6.59 12.81 13.3
2/24/2024 11:15:00 AM 2.02 35.636 0.074 6.63 12.32 13.3

These are provisional data and have not been subject to a quality assurance process, but rather are the raw data reported by the instrument.
H: value is above sensor operating range
L: value is below sensor operating range
Offline: station is not reporting data
NC: parameter is not collected at site

Data Availability & Limitations

Uncertainty and potential for error can be associated with environmental monitoring data. Provisional data have not been subject to a quality assurance process, but rather are the raw data reported by the instrument. Data users are cautioned to consider carefully the provisional nature of the information before using it for decisions that concern personal or public safety or the conduct of business that involves substantial monetary or operational consequences.

Approved data are currently available by request by emailing: [email protected]. Approved data have been subject to a quality assurance process to correct for equipment or fouling drift. Data recorded during equipment malfunctions have been removed.

View Historical Stations that have been discontinued.